Provisional Data: Blockhouse Creek near English Center, PA


Please select a monitoring station.
Please select start date.
Please select start date.

Toggle Unit: C/F Toggle Unit: C/F
Sample Time Temperature (C) Temperature (F) Specific Conductivity (mS/cm) pH   Turbidity (NTU+) DO (mg/L)
12/23/2022 12:00:00 AM 1.67 35.006 0.103 7.24 6.36 13.72
12/23/2022 12:15:00 AM 1.67 35.006 0.102 7.29 7.22 13.72
12/23/2022 12:30:00 AM 1.68 35.024 0.101 7.29 9.31 13.7
12/23/2022 12:45:00 AM 1.64 34.952 0.102 7.27 11.82 13.7
12/23/2022 1:00:00 AM 1.6 34.88 0.104 7.28 15.07 13.7
12/23/2022 1:15:00 AM 1.55 34.79 0.108 7.28 20.64 13.69
12/23/2022 1:30:00 AM 1.5 34.7 0.11 7.27 25.25 13.69
12/23/2022 1:45:00 AM 1.43 34.574 0.115 7.25 28.34 13.71
12/23/2022 2:00:00 AM 1.32 34.376 0.122 7.23 36.41 13.75
12/23/2022 2:15:00 AM 1.21 34.178 0.128 7.23 45.26 13.78
12/23/2022 2:30:00 AM 1.11 33.998 0.132 7.17 54.4 13.83
12/23/2022 2:45:00 AM 1.02 33.836 0.137 7.2 63.8 13.86
12/23/2022 3:00:00 AM 0.95 33.71 0.151 7.2 74.78 13.88
12/23/2022 3:15:00 AM 0.89 33.602 0.175 7.13 83.2 13.9
12/23/2022 3:30:00 AM 0.86 33.548 0.186 7.2 93.82 13.91
12/23/2022 3:45:00 AM 0.81 33.458 0.185 7.15 102.59 13.93
12/23/2022 4:00:00 AM 0.77 33.386 0.181 7.19 134.58 13.95
12/23/2022 4:15:00 AM 0.76 33.368 0.176 7.18 115.16 13.94
12/23/2022 4:30:00 AM 0.76 33.368 0.172 7.17 116.05 13.94
12/23/2022 4:45:00 AM 0.77 33.386 0.168 7.16 113.08 13.95
12/23/2022 5:00:00 AM 0.81 33.458 0.164 7.17 114.95 13.94
12/23/2022 5:15:00 AM 0.85 33.53 0.16 7.16 107.54 13.91
12/23/2022 5:30:00 AM 0.92 33.656 0.155 7.12 103.19 13.89
12/23/2022 5:45:00 AM 0.99 33.782 0.151 7.14 96.53 13.87
12/23/2022 6:00:00 AM 1.06 33.908 0.146 7.15 89.48 13.85
12/23/2022 6:15:00 AM 1.13 34.034 0.143 7.15 86.26 13.83
12/23/2022 6:30:00 AM 1.22 34.196 0.14 7.14 80.24 13.8
12/23/2022 6:45:00 AM 1.3 34.34 0.137 7.13 73.21 13.77
12/23/2022 7:00:00 AM 1.36 34.448 0.135 7.15 67.96 13.73
12/23/2022 7:15:00 AM 1.42 34.556 0.132 7.16 63.66 13.71
12/23/2022 7:30:00 AM 1.48 34.664 0.13 7.15 60.44 13.67
12/23/2022 7:45:00 AM 1.55 34.79 0.128 7.15 57.84 13.64
12/23/2022 8:00:00 AM 1.6 34.88 0.126 7.07 57.37 13.62
12/23/2022 8:15:00 AM 1.66 34.988 0.124 7.15 54.8 13.6
12/23/2022 8:30:00 AM 1.72 35.096 0.122 7.15 51.45 13.59
12/23/2022 8:45:00 AM 1.77 35.186 0.12 7.12 48.24 13.56
12/23/2022 9:00:00 AM 1.82 35.276 0.118 7.14 46.42 13.54
12/23/2022 9:15:00 AM 1.87 35.366 0.116 7.09 48.36 13.52
12/23/2022 9:30:00 AM 1.91 35.438 0.114 7.13 50.3 13.5
12/23/2022 9:45:00 AM 1.95 35.51 0.113 7.11 48.16 13.48
12/23/2022 10:00:00 AM 1.96 35.528 0.111 7.12 50.23 13.47
12/23/2022 10:15:00 AM 1.94 35.492 0.111 7.1 50.96 13.47
12/23/2022 10:30:00 AM 1.9 35.42 0.11 7.1 53.81 13.48
12/23/2022 10:45:00 AM 1.86 35.348 0.11 7.09 56.95 13.49
12/23/2022 11:00:00 AM 1.79 35.222 0.111 7.07 60.22 13.52
12/23/2022 11:15:00 AM 1.72 35.096 0.112 7.09 65.31 13.56
12/23/2022 11:30:00 AM 1.63 34.934 0.112 6.99 71.77 13.58
12/23/2022 11:45:00 AM 1.54 34.772 0.112 7.03 75.51 13.61
12/23/2022 12:00:00 PM 1.47 34.646 0.111 7.04 72.71 13.63
12/23/2022 12:15:00 PM 1.41 34.538 0.111 7.08 68.75 13.67
12/23/2022 12:30:00 PM 1.37 34.466 0.11 7.03 63.57 13.71
12/23/2022 12:45:00 PM 1.33 34.394 0.11 7.03 57.81 13.74
12/23/2022 1:00:00 PM 1.27 34.286 0.109 7.07 53.71 13.76
12/23/2022 1:15:00 PM 1.24 34.232 0.108 7.08 48.96 13.78
12/23/2022 1:30:00 PM 1.18 34.124 0.107 7.08 44.39 13.8
12/23/2022 1:45:00 PM 1.15 34.07 0.106 7.07 39.53 13.82
12/23/2022 2:00:00 PM 1.11 33.998 0.106 7.01 36.38 13.84
12/23/2022 2:15:00 PM 1.07 33.926 0.106 7.08 33.16 13.85
12/23/2022 2:30:00 PM 1.02 33.836 0.106 7.06 31.49 13.87
12/23/2022 2:45:00 PM 0.96 33.728 0.106 7.06 28.64 13.89
12/23/2022 3:00:00 PM 0.91 33.638 0.106 7.06 28.24 13.9
12/23/2022 3:15:00 PM 0.86 33.548 0.105 7.07 27.12 13.93
12/23/2022 3:30:00 PM 0.82 33.476 0.105 7.05 26.71 13.95
12/23/2022 3:45:00 PM 0.78 33.404 0.105 7.07 27.28 13.97
12/23/2022 4:00:00 PM 0.73 33.314 0.104 7.07 23.84 13.99
12/23/2022 4:15:00 PM 0.66 33.188 0.103 7.07 23.64 14.02
12/23/2022 4:30:00 PM 0.59 33.062 0.102 7.05 22.63 14.04
12/23/2022 4:45:00 PM 0.53 32.954 0.102 7.07 21.84 14.06
12/23/2022 5:00:00 PM 0.47 32.846 0.102 7.04 21.9 14.08
12/23/2022 5:15:00 PM 0.4 32.72 0.101 7.04 20.93 14.1
12/23/2022 5:30:00 PM 0.34 32.612 0.101 7.05 18.95 14.11
12/23/2022 5:45:00 PM 0.3 32.54 0.1 7.05 19.05 14.13
12/23/2022 6:00:00 PM 0.23 32.414 0.1 7.03 18.89 14.16
12/23/2022 6:15:00 PM 0.18 32.324 0.1 7.04 18.1 14.19
12/23/2022 6:30:00 PM 0.13 32.234 0.1 7.02 17.62 14.22
12/23/2022 6:45:00 PM 0.07 32.126 0.1 7.04 17.45 14.24
12/23/2022 7:00:00 PM 0.03 32.054 0.099 7.04 17.31 14.26
12/23/2022 7:15:00 PM -0.01 31.982 0.099 7.04 16.04 14.28
12/23/2022 7:30:00 PM -0.04 31.928 0.099 7.03 17.03 14.29
12/23/2022 7:45:00 PM -0.06 31.892 0.098 7.05 15.12 14.3
12/23/2022 8:00:00 PM -0.07 31.874 0.098 7.06 14.89 14.31
12/23/2022 8:15:00 PM -0.08 31.856 0.098 7.05 14.32 14.33
12/23/2022 8:30:00 PM -0.08 31.856 0.098 7.01 14.16 14.34
12/23/2022 8:45:00 PM -0.08 31.856 0.097 7.06 12.94 14.34
12/23/2022 9:00:00 PM -0.08 31.856 0.097 7.06 12.5 14.35
12/23/2022 9:15:00 PM -0.08 31.856 0.097 7.06 12.47 14.36
12/23/2022 9:30:00 PM -0.08 31.856 0.091 7.05 12.34 14.37
12/23/2022 9:45:00 PM -0.08 31.856 0.097 7 10.87 14.37
12/23/2022 10:00:00 PM -0.08 31.856 0.097 7.1 10.69 14.37
12/23/2022 10:15:00 PM -0.08 31.856 0.097 7.11 10.91 14.38
12/23/2022 10:30:00 PM -0.08 31.856 0.097 7.1 10.59 14.38
12/23/2022 10:45:00 PM -0.08 31.856 0.096 7.02 9.94 14.38
12/23/2022 11:00:00 PM -0.08 31.856 0.096 7.09 9.61 14.39
12/23/2022 11:15:00 PM -0.08 31.856 0.096 7.11 9.95 14.39
12/23/2022 11:30:00 PM -0.08 31.856 0.096 7.13 10.33 14.4
12/23/2022 11:45:00 PM -0.08 31.856 0.096 7.14 9.69 14.41
12/24/2022 12:00:00 AM -0.08 31.856 0.096 7.14 9.44 14.41
12/24/2022 12:15:00 AM -0.08 31.856 0.096 7.11 9.47 14.41
12/24/2022 12:30:00 AM -0.08 31.856 0.095 7.15 9.53 14.41
12/24/2022 12:45:00 AM -0.08 31.856 0.095 7.1 9.19 14.42
12/24/2022 1:00:00 AM -0.08 31.856 0.088 7.08 11.42 14.42
12/24/2022 1:15:00 AM -0.08 31.856 0.095 7.14 9.08 14.42
12/24/2022 1:30:00 AM -0.08 31.856 0.095 7.1 8.84 14.42
12/24/2022 1:45:00 AM -0.08 31.856 0.095 7.15 9.65 14.42
12/24/2022 2:00:00 AM -0.08 31.856 0.095 7.11 8.09 14.42
12/24/2022 2:15:00 AM -0.08 31.856 0.095 7.14 7.2 14.43
12/24/2022 2:30:00 AM -0.08 31.856 0.094 7.13 7.8 14.43
12/24/2022 2:45:00 AM -0.08 31.856 0.094 7.13 8.29 14.43
12/24/2022 3:00:00 AM -0.08 31.856 0.094 7.11 7.47 14.43
12/24/2022 3:15:00 AM -0.08 31.856 0.094 7.13 7.54 14.43
12/24/2022 3:30:00 AM -0.08 31.856 0.094 7.13 8.15 14.42
12/24/2022 3:45:00 AM -0.08 31.856 0.094 7 8 14.42
12/24/2022 4:00:00 AM -0.08 31.856 0.093 7.04 6.87 14.43
12/24/2022 4:15:00 AM -0.08 31.856 0.093 7.12 6.78 14.43
12/24/2022 4:30:00 AM -0.08 31.856 0.093 6.97 6.75 14.44
12/24/2022 4:45:00 AM -0.08 31.856 0.093 7.03 7.43 14.44
12/24/2022 5:00:00 AM -0.08 31.856 0.093 7.12 6.49 14.44
12/24/2022 5:15:00 AM -0.08 31.856 0.093 7.09 6.53 14.44
12/24/2022 5:30:00 AM -0.08 31.856 0.087 7.02 7.68 14.44
12/24/2022 5:45:00 AM -0.08 31.856 0.092 7.11 6.79 14.45
12/24/2022 6:00:00 AM -0.08 31.856 0.092 7.07 6.69 14.44
12/24/2022 6:15:00 AM -0.08 31.856 0.092 7.12 6.71 14.44
12/24/2022 6:30:00 AM -0.08 31.856 0.092 7.07 6.9 14.44
12/24/2022 6:45:00 AM -0.08 31.856 0.092 7.08 6.41 14.45
12/24/2022 7:00:00 AM -0.08 31.856 0.086 7.04 7.24 14.45
12/24/2022 7:15:00 AM -0.08 31.856 0.092 7.09 6.13 14.45
12/24/2022 7:30:00 AM -0.08 31.856 0.092 6.96 6.33 14.45
12/24/2022 7:45:00 AM -0.08 31.856 0.092 7.09 7.34 14.45
12/24/2022 8:00:00 AM -0.08 31.856 0.091 7.1 5.65 14.46
12/24/2022 8:15:00 AM -0.08 31.856 0.091 7.08 5.94 14.48
12/24/2022 8:30:00 AM -0.08 31.856 0.091 7.11 5.45 14.48
12/24/2022 8:45:00 AM -0.08 31.856 0.091 6.97 5.47 14.49
12/24/2022 9:00:00 AM -0.08 31.856 0.091 7.11 5.81 14.51
12/24/2022 9:15:00 AM -0.08 31.856 0.091 6.95 5.44 14.52
12/24/2022 9:30:00 AM -0.08 31.856 0.091 7.13 5.91 14.52
12/24/2022 9:45:00 AM -0.08 31.856 0.09 7.13 5.93 14.53
12/24/2022 10:00:00 AM -0.08 31.856 0.09 7.08 6.13 14.53
12/24/2022 10:15:00 AM -0.08 31.856 0.09 7.09 5.65 14.53
12/24/2022 10:30:00 AM -0.08 31.856 0.09 7.1 6.46 14.53
12/24/2022 10:45:00 AM -0.08 31.856 0.09 7.13 5.89 14.54
12/24/2022 11:00:00 AM -0.08 31.856 0.09 7.12 6.34 14.54
12/24/2022 11:15:00 AM -0.08 31.856 0.09 7.11 6.39 14.53
12/24/2022 11:30:00 AM -0.08 31.856 0.089 7.11 6.66 14.53
12/24/2022 11:45:00 AM -0.08 31.856 0.089 7.1 6.75 14.53
12/24/2022 12:00:00 PM -0.08 31.856 0.089 7.12 6.76 14.51
12/24/2022 12:15:00 PM -0.08 31.856 0.089 7.13 7.04 14.51
12/24/2022 12:30:00 PM -0.07 31.874 0.089 7.12 7.71 14.49
12/24/2022 12:45:00 PM -0.07 31.874 0.089 7.1 7.09 14.49
12/24/2022 1:00:00 PM -0.07 31.874 0.088 7.14 8.31 14.48
12/24/2022 1:15:00 PM -0.06 31.892 0.088 6.96 8.61 14.48
12/24/2022 1:30:00 PM -0.03 31.946 0.088 7.14 8.1 14.48
12/24/2022 1:45:00 PM -0.01 31.982 0.088 7.1 7.75 14.47
12/24/2022 2:00:00 PM 0 32 0.088 7.02 7.91 14.46
12/24/2022 2:15:00 PM 0.01 32.018 0.088 7.09 9.3 14.44
12/24/2022 2:30:00 PM 0.05 32.09 0.088 7.07 10.54 14.43
12/24/2022 2:45:00 PM 0.08 32.144 0.088 7.08 10.48 14.42
12/24/2022 3:00:00 PM 0.12 32.216 0.088 7.07 9.13 14.4
12/24/2022 3:15:00 PM 0.16 32.288 0.088 7.1 9.16 14.39
12/24/2022 3:30:00 PM 0.22 32.396 0.088 7.09 8.32 14.37
12/24/2022 3:45:00 PM 0.25 32.45 0.088 7.02 7.66 14.36
12/24/2022 4:00:00 PM 0.28 32.504 0.088 7.05 7.16 14.34
12/24/2022 4:15:00 PM 0.3 32.54 0.088 7.09 7.16 14.33
12/24/2022 4:30:00 PM 0.32 32.576 0.088 7.06 6.45 14.32
12/24/2022 4:45:00 PM 0.32 32.576 0.088 7.09 6.3 14.31
12/24/2022 5:00:00 PM 0.32 32.576 0.088 6.98 5.92 14.3
12/24/2022 5:15:00 PM 0.32 32.576 0.088 7.08 5.77 14.29
12/24/2022 5:30:00 PM 0.31 32.558 0.088 7.07 5.73 14.29
12/24/2022 5:45:00 PM 0.3 32.54 0.088 7.07 5.44 14.3
12/24/2022 6:00:00 PM 0.29 32.522 0.088 7.06 5.52 14.29
12/24/2022 6:15:00 PM 0.28 32.504 0.088 7.07 5.39 14.3
12/24/2022 6:30:00 PM 0.27 32.486 0.088 7.04 5.33 14.29
12/24/2022 6:45:00 PM 0.27 32.486 0.088 7.07 5.45 14.31
12/24/2022 7:00:00 PM 0.27 32.486 0.088 6.95 5.58 14.3
12/24/2022 7:15:00 PM 0.26 32.468 0.088 7.06 5.37 14.31
12/24/2022 7:30:00 PM 0.27 32.486 0.088 7.06 5.29 14.31
12/24/2022 7:45:00 PM 0.27 32.486 0.088 7.05 5.07 14.31
12/24/2022 8:00:00 PM 0.26 32.468 0.088 7.03 5.08 14.31
12/24/2022 8:15:00 PM 0.26 32.468 0.088 7.06 4.95 14.31
12/24/2022 8:30:00 PM 0.27 32.486 0.087 7.06 5.02 14.31
12/24/2022 8:45:00 PM 0.26 32.468 0.087 7.07 5.03 14.31
12/24/2022 9:00:00 PM 0.26 32.468 0.087 7.07 4.83 14.31
12/24/2022 9:15:00 PM 0.26 32.468 0.087 6.94 5.05 14.32
12/24/2022 9:30:00 PM 0.25 32.45 0.087 7.01 5.12 14.32
12/24/2022 9:45:00 PM 0.24 32.432 0.087 7.02 4.95 14.32
12/24/2022 10:00:00 PM 0.25 32.45 0.087 7.06 4.89 14.33
12/24/2022 10:15:00 PM 0.25 32.45 0.087 7.06 4.92 14.32
12/24/2022 10:30:00 PM 0.25 32.45 0.087 7.05 4.86 14.32
12/24/2022 10:45:00 PM 0.25 32.45 0.087 7.06 4.9 14.32
12/24/2022 11:00:00 PM 0.26 32.468 0.087 7.07 5.11 14.33
12/24/2022 11:15:00 PM 0.27 32.486 0.087 7.04 4.91 14.32
12/24/2022 11:30:00 PM 0.28 32.504 0.087 7.06 4.71 14.32
12/24/2022 11:45:00 PM 0.28 32.504 0.087 7.08 4.82 14.32
12/25/2022 12:00:00 AM 0.29 32.522 0.086 7.06 4.75 14.31
12/25/2022 12:15:00 AM 0.29 32.522 0.086 7.06 4.57 14.31
12/25/2022 12:30:00 AM 0.31 32.558 0.086 7.08 4.55 14.3
12/25/2022 12:45:00 AM 0.32 32.576 0.086 7.07 4.53 14.3
12/25/2022 1:00:00 AM 0.34 32.612 0.086 7.05 4.4 14.29
12/25/2022 1:15:00 AM 0.35 32.63 0.086 7.04 4.41 14.29
12/25/2022 1:30:00 AM 0.35 32.63 0.086 7.08 4.42 14.28
12/25/2022 1:45:00 AM 0.36 32.648 0.086 7.08 4.32 14.29
12/25/2022 2:00:00 AM 0.37 32.666 0.086 7.09 4.27 14.28
12/25/2022 2:15:00 AM 0.38 32.684 0.086 7.09 4.18 14.28
12/25/2022 2:30:00 AM 0.39 32.702 0.086 7.09 4.45 14.28
12/25/2022 2:45:00 AM 0.39 32.702 0.086 7.09 4.33 14.27
12/25/2022 3:00:00 AM 0.39 32.702 0.086 7.09 4.17 14.28
12/25/2022 3:15:00 AM 0.38 32.684 0.086 7.01 4.14 14.27
12/25/2022 3:30:00 AM 0.38 32.684 0.086 7.08 4.15 14.27
12/25/2022 3:45:00 AM 0.37 32.666 0.086 7.09 4.43 14.27
12/25/2022 4:00:00 AM 0.37 32.666 0.086 7.07 4.5 14.27
12/25/2022 4:15:00 AM 0.36 32.648 0.086 7.09 4.74 14.28
12/25/2022 4:30:00 AM 0.36 32.648 0.086 7.04 4.74 14.27
12/25/2022 4:45:00 AM 0.36 32.648 0.086 7.08 4.58 14.27
12/25/2022 5:00:00 AM 0.36 32.648 0.086 7.1 4.39 14.27
12/25/2022 5:15:00 AM 0.35 32.63 0.086 6.98 4.34 14.28
12/25/2022 5:30:00 AM 0.34 32.612 0.086 7.09 4.23 14.28
12/25/2022 5:45:00 AM 0.33 32.594 0.086 7.02 4.32 14.28
12/25/2022 6:00:00 AM 0.32 32.576 0.086 7.05 4.31 14.28
12/25/2022 6:15:00 AM 0.32 32.576 0.086 7.06 4.03 14.29
12/25/2022 6:30:00 AM 0.31 32.558 0.086 7.1 4.19 14.29
12/25/2022 6:45:00 AM 0.3 32.54 0.086 7.08 3.96 14.3
12/25/2022 7:00:00 AM 0.29 32.522 0.086 7.1 4.14 14.3
12/25/2022 7:15:00 AM 0.29 32.522 0.086 7.1 3.92 14.3
12/25/2022 7:30:00 AM 0.3 32.54 0.086 7.06 3.88 14.31
12/25/2022 7:45:00 AM 0.31 32.558 0.086 7.11 3.85 14.31
12/25/2022 8:00:00 AM 0.32 32.576 0.086 7.09 3.88 14.33
12/25/2022 8:15:00 AM 0.33 32.594 0.085 7.12 3.76 14.34
12/25/2022 8:30:00 AM 0.35 32.63 0.085 7.01 3.87 14.37
12/25/2022 8:45:00 AM 0.35 32.63 0.085 7.12 3.7 14.38
12/25/2022 9:00:00 AM 0.36 32.648 0.085 7.05 3.71 14.39
12/25/2022 9:15:00 AM 0.37 32.666 0.085 7.13 3.66 14.41
12/25/2022 9:30:00 AM 0.4 32.72 0.085 7.14 3.63 14.43
12/25/2022 9:45:00 AM 0.42 32.756 0.085 7.13 3.47 14.44
12/25/2022 10:00:00 AM 0.45 32.81 0.085 7.07 3.45 14.45
12/25/2022 10:15:00 AM 0.48 32.864 0.085 7.15 3.47 14.45
12/25/2022 10:30:00 AM 0.51 32.918 0.085 7.05 3.41 14.45
12/25/2022 10:45:00 AM 0.53 32.954 0.085 7.16 3.26 14.45
12/25/2022 11:00:00 AM 0.55 32.99 0.085 7.16 3.34 14.45
12/25/2022 11:15:00 AM 0.58 33.044 0.085 7.16 3.32 14.45
12/25/2022 11:30:00 AM 0.63 33.134 0.085 7.16 3.46 14.44
12/25/2022 11:45:00 AM 0.65 33.17 0.085 7.09 3.29 14.43
12/25/2022 12:00:00 PM 0.67 33.206 0.085 7.16 3.29 14.42
12/25/2022 12:15:00 PM 0.69 33.242 0.085 7.08 3.3 14.41
12/25/2022 12:30:00 PM 0.74 33.332 0.085 7.15 3.45 14.39
12/25/2022 12:45:00 PM 0.81 33.458 0.085 7.17 3.4 14.38
12/25/2022 1:00:00 PM 0.88 33.584 0.085 7.11 3.26 14.35
12/25/2022 1:15:00 PM 0.96 33.728 0.085 7.18 3.28 14.32
12/25/2022 1:30:00 PM 1.04 33.872 0.085 7.19 3.1 14.31
12/25/2022 1:45:00 PM 1.09 33.962 0.085 7.19 3.2 14.3
12/25/2022 2:00:00 PM 1.12 34.016 0.085 7.19 3.19 14.28
12/25/2022 2:15:00 PM 1.14 34.052 0.085 7.16 3.13 14.27
12/25/2022 2:30:00 PM 1.15 34.07 0.085 7.19 3.3 14.24
12/25/2022 2:45:00 PM 1.15 34.07 0.085 7.17 3.34 14.24
12/25/2022 3:00:00 PM 1.14 34.052 0.085 7.17 3.33 14.24
12/25/2022 3:15:00 PM 1.13 34.034 0.085 7.17 3.16 14.24
12/25/2022 3:30:00 PM 1.13 34.034 0.085 7.19 3.27 14.23
12/25/2022 3:45:00 PM 1.13 34.034 0.085 7.16 3.22 14.23
12/25/2022 4:00:00 PM 1.12 34.016 0.085 7.18 3.27 14.23
12/25/2022 4:15:00 PM 1.09 33.962 0.085 7.16 3.38 14.21
12/25/2022 4:30:00 PM 1.05 33.89 0.085 7.15 3.35 14.2
12/25/2022 4:45:00 PM 1 33.8 0.085 7.16 3.29 14.17
12/25/2022 5:00:00 PM 0.97 33.746 0.085 7.15 3.3 14.16
12/25/2022 5:15:00 PM 0.94 33.692 0.085 7.14 3.46 14.16
12/25/2022 5:30:00 PM 0.91 33.638 0.085 7.13 3.37 14.15
12/25/2022 5:45:00 PM 0.89 33.602 0.086 7.13 3.38 14.16
12/25/2022 6:00:00 PM 0.85 33.53 0.086 7.12 3.53 14.17
12/25/2022 6:15:00 PM 0.82 33.476 0.086 7.12 3.43 14.18
12/25/2022 6:30:00 PM 0.8 33.44 0.086 7.13 3.55 14.19
12/25/2022 6:45:00 PM 0.78 33.404 0.086 7.13 3.88 14.2
12/25/2022 7:00:00 PM 0.76 33.368 0.086 7.05 3.6 14.22
12/25/2022 7:15:00 PM 0.74 33.332 0.086 7.13 3.45 14.23
12/25/2022 7:30:00 PM 0.71 33.278 0.086 7.12 3.43 14.24
12/25/2022 7:45:00 PM 0.68 33.224 0.086 7.09 3.38 14.26
12/25/2022 8:00:00 PM 0.66 33.188 0.086 7.13 3.5 14.27
12/25/2022 8:15:00 PM 0.63 33.134 0.086 7.12 3.43 14.28
12/25/2022 8:30:00 PM 0.61 33.098 0.086 7.12 3.44 14.29
12/25/2022 8:45:00 PM 0.59 33.062 0.086 7.13 3.38 14.3
12/25/2022 9:00:00 PM 0.57 33.026 0.086 7.13 3.44 14.31
12/25/2022 9:15:00 PM 0.55 32.99 0.086 7.13 3.63 14.32
12/25/2022 9:30:00 PM 0.53 32.954 0.086 7.13 3.6 14.33
12/25/2022 9:45:00 PM 0.52 32.936 0.086 7.13 3.52 14.34
12/25/2022 10:00:00 PM 0.51 32.918 0.086 7.13 3.43 14.34
12/25/2022 10:15:00 PM 0.49 32.882 0.086 7.11 3.31 14.34
12/25/2022 10:30:00 PM 0.48 32.864 0.086 7.12 3.43 14.36
12/25/2022 10:45:00 PM 0.47 32.846 0.086 7.11 3.39 14.36
12/25/2022 11:00:00 PM 0.46 32.828 0.086 7.11 3.27 14.37
12/25/2022 11:15:00 PM 0.46 32.828 0.086 7.13 3.39 14.37
12/25/2022 11:30:00 PM 0.46 32.828 0.086 7.06 3.33 14.38
12/25/2022 11:45:00 PM 0.45 32.81 0.086 7.14 3.29 14.38
12/26/2022 12:00:00 AM 0.44 32.792 0.086 7.12 3.31 14.38
12/26/2022 12:15:00 AM 0.43 32.774 0.086 7.13 3.35 14.38
12/26/2022 12:30:00 AM 0.42 32.756 0.086 7.13 3.52 14.39
12/26/2022 12:45:00 AM 0.42 32.756 0.086 7.06 3.41 14.39
12/26/2022 1:00:00 AM 0.42 32.756 0.086 7.14 3.32 14.39
12/26/2022 1:15:00 AM 0.41 32.738 0.086 7.05 3.43 14.4
12/26/2022 1:30:00 AM 0.39 32.702 0.086 7.14 3.3 14.4
12/26/2022 1:45:00 AM 0.37 32.666 0.086 7.13 3.28 14.41
12/26/2022 2:00:00 AM 0.36 32.648 0.086 7.13 3.19 14.41
12/26/2022 2:15:00 AM 0.33 32.594 0.086 7.12 3.14 14.42
12/26/2022 2:30:00 AM 0.32 32.576 0.086 7.14 3.25 14.43
12/26/2022 2:45:00 AM 0.32 32.576 0.086 7.03 3.16 14.44
12/26/2022 3:00:00 AM 0.31 32.558 0.086 7.13 3.22 14.44
12/26/2022 3:15:00 AM 0.3 32.54 0.086 7.13 3.43 14.45
12/26/2022 3:30:00 AM 0.29 32.522 0.086 7.13 3.15 14.45
12/26/2022 3:45:00 AM 0.29 32.522 0.086 7.13 3.29 14.46
12/26/2022 4:00:00 AM 0.28 32.504 0.086 7.14 3.23 14.47
12/26/2022 4:15:00 AM 0.28 32.504 0.086 7.13 3.17 14.47
12/26/2022 4:30:00 AM 0.28 32.504 0.086 7.13 3.16 14.47
12/26/2022 4:45:00 AM 0.29 32.522 0.086 7.15 3.13 14.47
12/26/2022 5:00:00 AM 0.28 32.504 0.086 7.14 3.08 14.48
12/26/2022 5:15:00 AM 0.27 32.486 0.086 7.12 3.11 14.49
12/26/2022 5:30:00 AM 0.26 32.468 0.086 7.12 3.28 14.49
12/26/2022 5:45:00 AM 0.25 32.45 0.086 7.14 3.12 14.5
12/26/2022 6:00:00 AM 0.24 32.432 0.086 7.07 3.02 14.5
12/26/2022 6:15:00 AM 0.22 32.396 0.086 7.09 3.08 14.5
12/26/2022 6:30:00 AM 0.2 32.36 0.086 7.15 3.02 14.51
12/26/2022 6:45:00 AM 0.17 32.306 0.086 7.12 2.91 14.53
12/26/2022 7:00:00 AM 0.15 32.27 0.086 7.11 3.03 14.54
12/26/2022 7:15:00 AM 0.13 32.234 0.086 7.14 3.05 14.55
12/26/2022 7:30:00 AM 0.12 32.216 0.086 7.03 3.02 14.56
12/26/2022 7:45:00 AM 0.12 32.216 0.086 7.09 2.99 14.57
12/26/2022 8:00:00 AM 0.13 32.234 0.086 7.14 3.02 14.59
12/26/2022 8:15:00 AM 0.14 32.252 0.086 7.14 2.87 14.61
12/26/2022 8:30:00 AM 0.17 32.306 0.086 7.09 2.87 14.64
12/26/2022 8:45:00 AM 0.19 32.342 0.086 7.17 2.82 14.66
12/26/2022 9:00:00 AM 0.2 32.36 0.086 7.16 2.81 14.68
12/26/2022 9:15:00 AM 0.22 32.396 0.086 7.17 2.84 14.69
12/26/2022 9:30:00 AM 0.25 32.45 0.086 7.17 2.8 14.69
12/26/2022 9:45:00 AM 0.28 32.504 0.086 7.12 2.81 14.69
12/26/2022 10:00:00 AM 0.31 32.558 0.086 7.19 2.82 14.7
12/26/2022 10:15:00 AM 0.34 32.612 0.086 7.2 2.73 14.71
12/26/2022 10:30:00 AM 0.38 32.684 0.086 7.2 2.7 14.72
12/26/2022 10:45:00 AM 0.43 32.774 0.085 7.19 2.78 14.71
12/26/2022 11:00:00 AM 0.49 32.882 0.085 7.21 2.64 14.7
12/26/2022 11:15:00 AM 0.55 32.99 0.085 7.14 2.8 14.7
12/26/2022 11:30:00 AM 0.61 33.098 0.085 7.21 2.54 14.68
12/26/2022 11:45:00 AM 0.65 33.17 0.085 7.19 2.55 14.66
12/26/2022 12:00:00 PM 0.72 33.296 0.085 7.2 2.55 14.64
12/26/2022 12:15:00 PM 0.76 33.368 0.085 7.15 2.57 14.61
12/26/2022 12:30:00 PM 0.82 33.476 0.085 7.22 2.5 14.58
12/26/2022 12:45:00 PM 0.89 33.602 0.085 7.21 2.48 14.56
12/26/2022 1:00:00 PM 0.94 33.692 0.085 7.22 2.53 14.53
12/26/2022 1:15:00 PM 1 33.8 0.085 7.22 2.54 14.52
12/26/2022 1:30:00 PM 1.05 33.89 0.085 7.22 2.52 14.51
12/26/2022 1:45:00 PM 1.1 33.98 0.085 7.22 2.49 14.49
12/26/2022 2:00:00 PM 1.13 34.034 0.085 7.22 2.48 14.46
12/26/2022 2:15:00 PM 1.16 34.088 0.085 7.22 2.48 14.45
12/26/2022 2:30:00 PM 1.19 34.142 0.085 7.22 2.87 14.42
12/26/2022 2:45:00 PM 1.21 34.178 0.085 7.16 2.42 14.41
12/26/2022 3:00:00 PM 1.23 34.214 0.085 7.23 2.51 14.39
12/26/2022 3:15:00 PM 1.25 34.25 0.086 7.23 2.52 14.38
12/26/2022 3:30:00 PM 1.25 34.25 0.086 7.18 2.53 14.35
12/26/2022 3:45:00 PM 1.25 34.25 0.086 7.22 2.85 14.34
12/26/2022 4:00:00 PM 1.25 34.25 0.086 7.21 2.99 14.31
12/26/2022 4:15:00 PM 1.25 34.25 0.086 7.2 2.78 14.29
12/26/2022 4:30:00 PM 1.25 34.25 0.086 7.13 2.63 14.26
12/26/2022 4:45:00 PM 1.24 34.232 0.086 7.2 2.63 14.23
12/26/2022 5:00:00 PM 1.23 34.214 0.086 7.18 3.18 14.22
12/26/2022 5:15:00 PM 1.21 34.178 0.086 7.19 2.75 14.2
12/26/2022 5:30:00 PM 1.19 34.142 0.086 7.13 2.66 14.2
12/26/2022 5:45:00 PM 1.18 34.124 0.086 7.18 2.7 14.2
12/26/2022 6:00:00 PM 1.16 34.088 0.086 7.09 2.6 14.19
12/26/2022 6:15:00 PM 1.13 34.034 0.086 7.17 3.77 14.2
12/26/2022 6:30:00 PM 1.12 34.016 0.086 7.16 2.73 14.2
12/26/2022 6:45:00 PM 1.1 33.98 0.086 7.15 2.74 14.21
12/26/2022 7:00:00 PM 1.07 33.926 0.086 7.17 2.75 14.21
12/26/2022 7:15:00 PM 1.05 33.89 0.087 7.16 2.67 14.22
12/26/2022 7:30:00 PM 1.03 33.854 0.087 7.15 2.81 14.24
12/26/2022 7:45:00 PM 1.01 33.818 0.087 7.15 2.67 14.23
12/26/2022 8:00:00 PM 0.99 33.782 0.087 7.16 2.73 14.24
12/26/2022 8:15:00 PM 0.96 33.728 0.087 7.15 2.72 14.24
12/26/2022 8:30:00 PM 0.93 33.674 0.087 7.16 2.82 14.26
12/26/2022 8:45:00 PM 0.91 33.638 0.087 7.15 2.76 14.26
12/26/2022 9:00:00 PM 0.88 33.584 0.087 7.07 2.72 14.27
12/26/2022 9:15:00 PM 0.86 33.548 0.087 7.16 2.63 14.29
12/26/2022 9:30:00 PM 0.85 33.53 0.087 7.14 2.57 14.3
12/26/2022 9:45:00 PM 0.84 33.512 0.087 7.14 2.73 14.31
12/26/2022 10:00:00 PM 0.83 33.494 0.087 7.13 2.7 14.31
12/26/2022 10:15:00 PM 0.83 33.494 0.087 7.14 2.64 14.32
12/26/2022 10:30:00 PM 0.82 33.476 0.087 7.15 2.62 14.32
12/26/2022 10:45:00 PM 0.82 33.476 0.087 7.16 2.8 14.33
12/26/2022 11:00:00 PM 0.82 33.476 0.087 7.07 2.68 14.32
12/26/2022 11:15:00 PM 0.82 33.476 0.087 7.17 2.73 14.32
12/26/2022 11:30:00 PM 0.81 33.458 0.087 7.15 2.63 14.33
12/26/2022 11:45:00 PM 0.81 33.458 0.087 7.14 2.72 14.33
12/27/2022 12:00:00 AM 0.81 33.458 0.087 7.16 2.67 14.33
12/27/2022 12:15:00 AM 0.81 33.458 0.087 7.16 2.67 14.33
12/27/2022 12:30:00 AM 0.81 33.458 0.087 7.17 2.63 14.33
12/27/2022 12:45:00 AM 0.8 33.44 0.087 7.15 2.68 14.34
12/27/2022 1:00:00 AM 0.79 33.422 0.087 7.17 2.72 14.33
12/27/2022 1:15:00 AM 0.79 33.422 0.087 7.16 2.76 14.33
12/27/2022 1:30:00 AM 0.79 33.422 0.087 7.17 2.87 14.33
12/27/2022 1:45:00 AM 0.78 33.404 0.087 7.06 2.74 14.33
12/27/2022 2:00:00 AM 0.78 33.404 0.087 7.17 2.76 14.33
12/27/2022 2:15:00 AM 0.77 33.386 0.087 7.16 2.6 14.34
12/27/2022 2:30:00 AM 0.77 33.386 0.087 7.17 2.65 14.34
12/27/2022 2:45:00 AM 0.77 33.386 0.087 7.16 2.58 14.34
12/27/2022 3:00:00 AM 0.77 33.386 0.087 7.15 2.67 14.34
12/27/2022 3:15:00 AM 0.78 33.404 0.087 7.16 2.55 14.34
12/27/2022 3:30:00 AM 0.79 33.422 0.087 7.16 2.54 14.33
12/27/2022 3:45:00 AM 0.79 33.422 0.082 7.15 3.81 14.33
12/27/2022 4:00:00 AM 0.79 33.422 0.087 7.17 2.49 14.33
12/27/2022 4:15:00 AM 0.79 33.422 0.087 7.16 2.57 14.33
12/27/2022 4:30:00 AM 0.79 33.422 0.087 7.17 2.54 14.33
12/27/2022 4:45:00 AM 0.78 33.404 0.087 7.15 2.65 14.34
12/27/2022 5:00:00 AM 0.79 33.422 0.087 7.17 2.62 14.33
12/27/2022 5:15:00 AM 0.8 33.44 0.087 7.09 2.52 14.33
12/27/2022 5:30:00 AM 0.8 33.44 0.087 7.18 2.45 14.33
12/27/2022 5:45:00 AM 0.8 33.44 0.087 7.09 2.54 14.34
12/27/2022 6:00:00 AM 0.81 33.458 0.087 7.17 2.67 14.33
12/27/2022 6:15:00 AM 0.81 33.458 0.087 7.18 2.46 14.33
12/27/2022 6:30:00 AM 0.82 33.476 0.087 7.18 2.47 14.33
12/27/2022 6:45:00 AM 0.82 33.476 0.087 7.18 2.49 14.33
12/27/2022 7:00:00 AM 0.83 33.494 0.087 7.09 2.49 14.33
12/27/2022 7:15:00 AM 0.83 33.494 0.087 7.14 2.48 14.33
12/27/2022 7:30:00 AM 0.84 33.512 0.087 7.18 2.49 14.33
12/27/2022 7:45:00 AM 0.85 33.53 0.087 7.19 2.45 14.33
12/27/2022 8:00:00 AM 0.87 33.566 0.087 7.14 2.44 14.33
12/27/2022 8:15:00 AM 0.88 33.584 0.087 7.19 2.47 14.35
12/27/2022 8:30:00 AM 0.89 33.602 0.087 7.2 2.36 14.37
12/27/2022 8:45:00 AM 0.91 33.638 0.087 7.2 2.38 14.38
12/27/2022 9:00:00 AM 0.93 33.674 0.087 7.21 2.38 14.41
12/27/2022 9:15:00 AM 0.95 33.71 0.087 7.14 2.3 14.43
12/27/2022 9:30:00 AM 0.97 33.746 0.087 7.16 2.26 14.44
12/27/2022 9:45:00 AM 1 33.8 0.087 7.22 2.26 14.46
12/27/2022 10:00:00 AM 1.05 33.89 0.087 7.22 2.21 14.47
12/27/2022 10:15:00 AM 1.09 33.962 0.087 7.24 2.27 14.48
12/27/2022 10:30:00 AM 1.14 34.052 0.087 7.22 2.21 14.48
12/27/2022 10:45:00 AM 1.17 34.106 0.087 7.25 2.15 14.47
12/27/2022 11:00:00 AM 1.22 34.196 0.087 7.25 2.19 14.46
12/27/2022 11:15:00 AM 1.25 34.25 0.087 7.21 2.24 14.45
12/27/2022 11:30:00 AM 1.29 34.322 0.087 7.21 2.18 14.45
12/27/2022 11:45:00 AM 1.31 34.358 0.087 7.22 2.21 14.44
12/27/2022 12:00:00 PM 1.35 34.43 0.087 7.22 2.14 14.42
12/27/2022 12:15:00 PM 1.38 34.484 0.087 7.22 2.14 14.41
12/27/2022 12:30:00 PM 1.4 34.52 0.087 7.25 2.18 14.39
12/27/2022 12:45:00 PM 1.42 34.556 0.087 7.24 2.14 14.39
12/27/2022 1:00:00 PM 1.45 34.61 0.087 7.25 2.17 14.37
12/27/2022 1:15:00 PM 1.48 34.664 0.087 7.24 2.16 14.36
12/27/2022 1:30:00 PM 1.5 34.7 0.087 7.21 2.19 14.34
12/27/2022 1:45:00 PM 1.52 34.736 0.087 7.27 2.14 14.33
12/27/2022 2:00:00 PM 1.54 34.772 0.087 7.27 2.22 14.3
12/27/2022 2:15:00 PM 1.55 34.79 0.087 7.27 2.12 14.29
12/27/2022 2:30:00 PM 1.56 34.808 0.087 7.27 2.14 14.28
12/27/2022 2:45:00 PM 1.58 34.844 0.087 7.25 2.15 14.27
12/27/2022 3:00:00 PM 1.59 34.862 0.087 7.24 2.23 14.26
12/27/2022 3:15:00 PM 1.6 34.88 0.087 7.25 2.15 14.26
12/27/2022 3:30:00 PM 1.61 34.898 0.087 7.25 2.39 14.24
12/27/2022 3:45:00 PM 1.61 34.898 0.087 7.25 2.37 14.22
12/27/2022 4:00:00 PM 1.61 34.898 0.087 7.25 2.21 14.2
12/27/2022 4:15:00 PM 1.61 34.898 0.087 7.24 2.45 14.17
12/27/2022 4:30:00 PM 1.61 34.898 0.087 7.22 2.61 14.14
12/27/2022 4:45:00 PM 1.61 34.898 0.087 7.21 2.25 14.11
12/27/2022 5:00:00 PM 1.62 34.916 0.087 7.23 2.81 14.09
12/27/2022 5:15:00 PM 1.62 34.916 0.087 7.21 2.53 14.08
12/27/2022 5:30:00 PM 1.62 34.916 0.087 7.17 2.39 14.06
12/27/2022 5:45:00 PM 1.61 34.898 0.087 7.18 2.41 14.06
12/27/2022 6:00:00 PM 1.61 34.898 0.087 7.18 2.33 14.05
12/27/2022 6:15:00 PM 1.61 34.898 0.087 7.2 2.25 14.04
12/27/2022 6:30:00 PM 1.6 34.88 0.088 7.2 2.26 14.04
12/27/2022 6:45:00 PM 1.59 34.862 0.088 7.2 2.26 14.05
12/27/2022 7:00:00 PM 1.59 34.862 0.088 7.19 2.29 14.04
12/27/2022 7:15:00 PM 1.58 34.844 0.088 7.2 2.39 14.04
12/27/2022 7:30:00 PM 1.58 34.844 0.088 7.18 2.36 14.05
12/27/2022 7:45:00 PM 1.57 34.826 0.088 7.19 2.29 14.05
12/27/2022 8:00:00 PM 1.57 34.826 0.088 7.18 2.36 14.05
12/27/2022 8:15:00 PM 1.56 34.808 0.088 7.19 2.33 14.05
12/27/2022 8:30:00 PM 1.56 34.808 0.088 7.12 2.28 14.05
12/27/2022 8:45:00 PM 1.56 34.808 0.088 7.2 2.29 14.06
12/27/2022 9:00:00 PM 1.56 34.808 0.088 7.18 2.27 14.05
12/27/2022 9:15:00 PM 1.56 34.808 0.088 7.18 2.31 14.05
12/27/2022 9:30:00 PM 1.56 34.808 0.088 7.19 2.32 14.06
12/27/2022 9:45:00 PM 1.56 34.808 0.088 7.11 2.29 14.05
12/27/2022 10:00:00 PM 1.56 34.808 0.088 7.18 2.31 14.05
12/27/2022 10:15:00 PM 1.56 34.808 0.088 7.2 2.44 14.05
12/27/2022 10:30:00 PM 1.55 34.79 0.088 7.12 2.29 14.05
12/27/2022 10:45:00 PM 1.55 34.79 0.088 7.2 2.3 14.05
12/27/2022 11:00:00 PM 1.55 34.79 0.088 7.19 2.29 14.05
12/27/2022 11:15:00 PM 1.55 34.79 0.088 7.2 2.32 14.05
12/27/2022 11:30:00 PM 1.55 34.79 0.088 7.19 2.28 14.05
12/27/2022 11:45:00 PM 1.55 34.79 0.089 7.2 2.27 14.05
12/28/2022 12:00:00 AM 1.55 34.79 0.089 7.19 2.26 14.04
12/28/2022 12:15:00 AM 1.56 34.808 0.089 7.08 2.22 14.04
12/28/2022 12:30:00 AM 1.56 34.808 0.089 7.18 2.26 14.03
12/28/2022 12:45:00 AM 1.56 34.808 0.089 7.15 2.23 14.03
12/28/2022 1:00:00 AM 1.57 34.826 0.089 7.16 2.25 14.03
12/28/2022 1:15:00 AM 1.57 34.826 0.089 7.19 2.32 14.02
12/28/2022 1:30:00 AM 1.58 34.844 0.089 7.18 2.27 14.03
12/28/2022 1:45:00 AM 1.58 34.844 0.089 7.2 2.27 14.03
12/28/2022 2:00:00 AM 1.58 34.844 0.089 7.17 2.32 14.03
12/28/2022 2:15:00 AM 1.59 34.862 0.089 7.14 2.24 14.02
12/28/2022 2:30:00 AM 1.59 34.862 0.089 7.2 2.29 14.02
12/28/2022 2:45:00 AM 1.58 34.844 0.089 7.19 2.23 14.02
12/28/2022 3:00:00 AM 1.58 34.844 0.089 7.19 2.34 14.03
12/28/2022 3:15:00 AM 1.58 34.844 0.089 7.2 2.29 14.02
12/28/2022 3:30:00 AM 1.57 34.826 0.089 7.2 2.31 14.02
12/28/2022 3:45:00 AM 1.57 34.826 0.089 7.16 2.31 14.02
12/28/2022 4:00:00 AM 1.55 34.79 0.089 7.18 2.33 14.02
12/28/2022 4:15:00 AM 1.54 34.772 0.089 7.18 2.28 14.03
12/28/2022 4:30:00 AM 1.52 34.736 0.089 7.19 2.24 14.03
12/28/2022 4:45:00 AM 1.51 34.718 0.089 7.19 2.35 14.03
12/28/2022 5:00:00 AM 1.49 34.682 0.089 7.19 2.25 14.04
12/28/2022 5:15:00 AM 1.48 34.664 0.089 7.14 2.26 14.05
12/28/2022 5:30:00 AM 1.47 34.646 0.089 7.19 2.29 14.05
12/28/2022 5:45:00 AM 1.45 34.61 0.089 7.19 2.27 14.06
12/28/2022 6:00:00 AM 1.44 34.592 0.089 7.19 2.26 14.07
12/28/2022 6:15:00 AM 1.43 34.574 0.089 7.19 2.26 14.07
12/28/2022 6:30:00 AM 1.41 34.538 0.089 7.18 2.23 14.08
12/28/2022 6:45:00 AM 1.41 34.538 0.089 7.19 2.15 14.08
12/28/2022 7:00:00 AM 1.4 34.52 0.089 7.17 2.2 14.1
12/28/2022 7:15:00 AM 1.4 34.52 0.089 7.15 2.16 14.1
12/28/2022 7:30:00 AM 1.39 34.502 0.089 7.14 2.18 14.11
12/28/2022 7:45:00 AM 1.38 34.484 0.089 7.14 2.13 14.11
12/28/2022 8:00:00 AM 1.35 34.43 0.089 7.16 2.08 14.15
12/28/2022 8:15:00 AM 1.34 34.412 0.089 7.18 2.12 14.18
12/28/2022 8:30:00 AM 1.32 34.376 0.089 7.16 2.09 14.24
12/28/2022 8:45:00 AM 1.32 34.376 0.089 7.2 2.14 14.27
12/28/2022 9:00:00 AM 1.35 34.43 0.089 7.23 2.12 14.3
12/28/2022 9:15:00 AM 1.38 34.484 0.089 7.23 2.07 14.33
12/28/2022 9:30:00 AM 1.42 34.556 0.089 7.25 2.06 14.34
12/28/2022 9:45:00 AM 1.46 34.628 0.089 7.24 2 14.33
12/28/2022 10:00:00 AM 1.5 34.7 0.089 7.2 2.1 14.33
12/28/2022 10:15:00 AM 1.54 34.772 0.089 7.26 2.02 14.31
12/28/2022 10:30:00 AM 1.59 34.862 0.089 7.26 2.06 14.31
12/28/2022 10:45:00 AM 1.66 34.988 0.089 7.26 2.01 14.32
12/28/2022 11:00:00 AM 1.76 35.168 0.089 7.28 2.01 14.32
12/28/2022 11:15:00 AM 1.88 35.384 0.089 7.29 2.04 14.29
12/28/2022 11:30:00 AM 1.96 35.528 0.089 7.3 1.98 14.26
12/28/2022 11:45:00 AM 2.02 35.636 0.089 7.3 2.03 14.23
12/28/2022 12:00:00 PM 2.11 35.798 0.089 7.31 1.97 14.2
12/28/2022 12:15:00 PM 2.21 35.978 0.089 7.32 1.93 14.17
12/28/2022 12:30:00 PM 2.27 36.086 0.089 7.31 1.96 14.15
12/28/2022 12:45:00 PM 2.31 36.158 0.089 7.3 2.07 14.1
12/28/2022 1:00:00 PM 2.38 36.284 0.089 7.31 2.06 14.07
12/28/2022 1:15:00 PM 2.49 36.482 0.089 7.3 2.02 14.04
12/28/2022 1:30:00 PM 2.59 36.662 0.089 7.31 2.11 14.01
12/28/2022 1:45:00 PM 2.71 36.878 0.088 7.33 2.04 13.98
12/28/2022 2:00:00 PM 2.82 37.076 0.088 7.32 2.08 13.93
12/28/2022 2:15:00 PM 2.9 37.22 0.088 7.33 2.13 13.91
12/28/2022 2:30:00 PM 2.97 37.346 0.088 7.33 2.1 13.88
12/28/2022 2:45:00 PM 3.02 37.436 0.088 7.33 2.13 13.85
12/28/2022 3:00:00 PM 3.03 37.454 0.088 7.33 2.23 13.83
12/28/2022 3:15:00 PM 3.02 37.436 0.088 7.32 2.18 13.81
12/28/2022 3:30:00 PM 3.01 37.418 0.088 7.32 2.22 13.8
12/28/2022 3:45:00 PM 2.97 37.346 0.088 7.31 2.19 13.8
12/28/2022 4:00:00 PM 2.94 37.292 0.088 7.3 2.22 13.78
12/28/2022 4:15:00 PM 2.91 37.238 0.088 7.22 2.47 13.75
12/28/2022 4:30:00 PM 2.86 37.148 0.088 7.26 2.65 13.72
12/28/2022 4:45:00 PM 2.83 37.094 0.088 7.26 2.88 13.68
12/28/2022 5:00:00 PM 2.81 37.058 0.089 7.24 2.57 13.66
12/28/2022 5:15:00 PM 2.8 37.04 0.089 7.24 2.46 13.62
12/28/2022 5:30:00 PM 2.78 37.004 0.089 7.23 2.39 13.61
12/28/2022 5:45:00 PM 2.77 36.986 0.089 7.16 2.39 13.6
12/28/2022 6:00:00 PM 2.75 36.95 0.089 7.22 2.43 13.59
12/28/2022 6:15:00 PM 2.72 36.896 0.089 7.22 2.48 13.6
12/28/2022 6:30:00 PM 2.7 36.86 0.089 7.16 2.46 13.6
12/28/2022 6:45:00 PM 2.68 36.824 0.089 7.2 2.53 13.61
12/28/2022 7:00:00 PM 2.65 36.77 0.089 7.19 2.48 13.62
12/28/2022 7:15:00 PM 2.62 36.716 0.089 7.21 2.55 13.63
12/28/2022 7:30:00 PM 2.58 36.644 0.089 7.2 2.48 13.65
12/28/2022 7:45:00 PM 2.55 36.59 0.089 7.19 2.45 13.66
12/28/2022 8:00:00 PM 2.51 36.518 0.089 7.18 2.59 13.68
12/28/2022 8:15:00 PM 2.47 36.446 0.089 7.17 2.65 13.69
12/28/2022 8:30:00 PM 2.42 36.356 0.09 7.18 2.75 13.71
12/28/2022 8:45:00 PM 2.38 36.284 0.09 7.11 2.66 13.73
12/28/2022 9:00:00 PM 2.34 36.212 0.09 7.19 2.63 13.74
12/28/2022 9:15:00 PM 2.29 36.122 0.09 7.17 2.67 13.75
12/28/2022 9:30:00 PM 2.25 36.05 0.09 7.18 2.5 13.76
12/28/2022 9:45:00 PM 2.21 35.978 0.09 7.15 2.42 13.76
12/28/2022 10:00:00 PM 2.16 35.888 0.09 7.16 2.45 13.78
12/28/2022 10:15:00 PM 2.12 35.816 0.09 7.18 2.46 13.8
12/28/2022 10:30:00 PM 2.09 35.762 0.09 7.19 2.34 13.81
12/28/2022 10:45:00 PM 2.05 35.69 0.09 7.19 2.39 13.83
12/28/2022 11:00:00 PM 2.01 35.618 0.09 7.17 2.43 13.85
12/28/2022 11:15:00 PM 1.98 35.564 0.091 7.19 2.34 13.87
12/28/2022 11:30:00 PM 1.94 35.492 0.091 7.16 2.3 13.88
12/28/2022 11:45:00 PM 1.91 35.438 0.091 7.11 2.22 13.9
12/29/2022 12:00:00 AM 1.87 35.366 0.091 7.19 2.41 13.91
12/29/2022 12:15:00 AM 1.83 35.294 0.092 7.15 2.38 13.93
12/29/2022 12:30:00 AM 1.8 35.24 0.092 7.18 2.26 13.94
12/29/2022 12:45:00 AM 1.77 35.186 0.092 7.17 2.27 13.96
12/29/2022 1:00:00 AM 1.74 35.132 0.092 7.18 2.34 13.96
12/29/2022 1:15:00 AM 1.71 35.078 0.093 7.18 2.23 13.97
12/29/2022 1:30:00 AM 1.68 35.024 0.093 7.14 2.26 13.99
12/29/2022 1:45:00 AM 1.65 34.97 0.093 7.18 2.29 13.99
12/29/2022 2:00:00 AM 1.63 34.934 0.094 7.19 2.18 14
12/29/2022 2:15:00 AM 1.6 34.88 0.094 7.12 2.24 14.01
12/29/2022 2:30:00 AM 1.57 34.826 0.095 7.19 2.19 14.01
12/29/2022 2:45:00 AM 1.55 34.79 0.095 7.17 2.15 14.02
12/29/2022 3:00:00 AM 1.53 34.754 0.096 7.19 2.18 14.02
12/29/2022 3:15:00 AM 1.51 34.718 0.096 7.18 2.18 14.04
12/29/2022 3:30:00 AM 1.49 34.682 0.096 7.19 2.2 14.04
12/29/2022 3:45:00 AM 1.47 34.646 0.096 7.2 2.18 14.05
12/29/2022 4:00:00 AM 1.45 34.61 0.096 7.19 2.2 14.06
12/29/2022 4:15:00 AM 1.43 34.574 0.095 7.19 2.17 14.08
12/29/2022 4:30:00 AM 1.41 34.538 0.095 7.18 2.12 14.09
12/29/2022 4:45:00 AM 1.39 34.502 0.095 7.19 2.16 14.1
12/29/2022 5:00:00 AM 1.36 34.448 0.095 7.18 2.22 14.11
12/29/2022 5:15:00 AM 1.34 34.412 0.095 7.19 2.19 14.12
12/29/2022 5:30:00 AM 1.32 34.376 0.095 7.13 2.2 14.13
12/29/2022 5:45:00 AM 1.3 34.34 0.095 7.19 2.15 14.13
12/29/2022 6:00:00 AM 1.29 34.322 0.095 7.19 2.12 14.14
12/29/2022 6:15:00 AM 1.26 34.268 0.095 7.19 2.12 14.15
12/29/2022 6:30:00 AM 1.24 34.232 0.095 7.19 2.15 14.16
12/29/2022 6:45:00 AM 1.22 34.196 0.095 7.12 2.04 14.17
12/29/2022 7:00:00 AM 1.2 34.16 0.095 7.19 2.14 14.18
12/29/2022 7:15:00 AM 1.18 34.124 0.095 7.19 2.11 14.19
12/29/2022 7:30:00 AM 1.16 34.088 0.095 7.17 2.04 14.2
12/29/2022 7:45:00 AM 1.14 34.052 0.095 7.19 2.06 14.22
12/29/2022 8:00:00 AM 1.13 34.034 0.095 7.18 1.97 14.24
12/29/2022 8:15:00 AM 1.12 34.016 0.095 7.21 2.05 14.28
12/29/2022 8:30:00 AM 1.11 33.998 0.095 7.2 2.06 14.32
12/29/2022 8:45:00 AM 1.11 33.998 0.095 7.22 2 14.37
12/29/2022 9:00:00 AM 1.11 33.998 0.095 7.22 1.98 14.4
12/29/2022 9:15:00 AM 1.12 34.016 0.095 7.23 1.94 14.41
12/29/2022 9:30:00 AM 1.12 34.016 0.095 7.24 1.97 14.43
12/29/2022 9:45:00 AM 1.13 34.034 0.095 7.24 1.93 14.43
12/29/2022 10:00:00 AM 1.14 34.052 0.095 7.25 1.95 14.44
12/29/2022 10:15:00 AM 1.19 34.142 0.094 7.26 1.93 14.45
12/29/2022 10:30:00 AM 1.25 34.25 0.094 7.26 1.9 14.46
12/29/2022 10:45:00 AM 1.31 34.358 0.094 7.26 1.88 14.45
12/29/2022 11:00:00 AM 1.38 34.484 0.094 7.28 1.87 14.44
12/29/2022 11:15:00 AM 1.45 34.61 0.094 7.29 1.88 14.41
12/29/2022 11:30:00 AM 1.53 34.754 0.094 7.26 1.87 14.39
12/29/2022 11:45:00 AM 1.62 34.916 0.094 7.29 1.85 14.38
12/29/2022 12:00:00 PM 1.71 35.078 0.094 7.24 1.84 14.36
12/29/2022 12:15:00 PM 1.81 35.258 0.094 7.26 1.87 14.34
12/29/2022 12:30:00 PM 1.9 35.42 0.094 7.29 1.86 14.31
12/29/2022 12:45:00 PM 1.99 35.582 0.094 7.31 1.85 14.27
12/29/2022 1:00:00 PM 2.07 35.726 0.094 7.31 1.9 14.24
12/29/2022 1:15:00 PM 2.17 35.906 0.094 7.28 1.94 14.19
12/29/2022 1:30:00 PM 2.27 36.086 0.094 7.31 1.95 14.15
12/29/2022 1:45:00 PM 2.36 36.248 0.093 7.32 1.99 14.12
12/29/2022 2:00:00 PM 2.45 36.41 0.093 7.33 2.01 14.07
12/29/2022 2:15:00 PM 2.54 36.572 0.093 7.33 1.94 14.03
12/29/2022 2:30:00 PM 2.61 36.698 0.093 7.32 1.91 13.99
12/29/2022 2:45:00 PM 2.68 36.824 0.093 7.33 1.9 13.93
12/29/2022 3:00:00 PM 2.74 36.932 0.093 7.33 1.94 13.89
12/29/2022 3:15:00 PM 2.79 37.022 0.093 7.33 1.93 13.87
12/29/2022 3:30:00 PM 2.83 37.094 0.093 7.32 2 13.84
12/29/2022 3:45:00 PM 2.85 37.13 0.093 7.31 1.98 13.81
12/29/2022 4:00:00 PM 2.87 37.166 0.093 7.25 1.97 13.78
12/29/2022 4:15:00 PM 2.88 37.184 0.093 7.3 1.99 13.76
12/29/2022 4:30:00 PM 2.88 37.184 0.093 7.3 2 13.73
12/29/2022 4:45:00 PM 2.88 37.184 0.093 7.29 1.97 13.69
12/29/2022 5:00:00 PM 2.9 37.22 0.093 7.27 2.02 13.65
12/29/2022 5:15:00 PM 2.91 37.238 0.093 7.27 1.99 13.63
12/29/2022 5:30:00 PM 2.92 37.256 0.093 7.23 2.01 13.59
12/29/2022 5:45:00 PM 2.93 37.274 0.093 7.25 2.08 13.57
12/29/2022 6:00:00 PM 2.92 37.256 0.093 7.25 2.04 13.56
12/29/2022 6:15:00 PM 2.9 37.22 0.093 7.18 2.13 13.55
12/29/2022 6:30:00 PM 2.89 37.202 0.093 7.24 2.1 13.55
12/29/2022 6:45:00 PM 2.87 37.166 0.093 7.24 2.06 13.54
12/29/2022 7:00:00 PM 2.88 37.184 0.093 7.23 2.1 13.54
12/29/2022 7:15:00 PM 2.89 37.202 0.093 7.22 2.08 13.55
12/29/2022 7:30:00 PM 2.9 37.22 0.093 7.24 2.08 13.54
12/29/2022 7:45:00 PM 2.9 37.22 0.093 7.23 2.11 13.54
12/29/2022 8:00:00 PM 2.91 37.238 0.093 7.23 2.3 13.55
12/29/2022 8:15:00 PM 2.91 37.238 0.094 7.24 2.2 13.55
12/29/2022 8:30:00 PM 2.92 37.256 0.094 7.23 2.22 13.54
12/29/2022 8:45:00 PM 2.93 37.274 0.094 7.23 2.28 13.54
12/29/2022 9:00:00 PM 2.94 37.292 0.094 7.22 2.29 13.54
12/29/2022 9:15:00 PM 2.95 37.31 0.094 7.17 2.3 13.54
12/29/2022 9:30:00 PM 2.95 37.31 0.094 7.23 2.31 13.54
12/29/2022 9:45:00 PM 2.96 37.328 0.094 7.22 2.42 13.54
12/29/2022 10:00:00 PM 2.97 37.346 0.095 7.23 2.28 13.53
12/29/2022 10:15:00 PM 2.97 37.346 0.095 7.21 2.26 13.54
12/29/2022 10:30:00 PM 2.98 37.364 0.095 7.23 2.24 13.54
12/29/2022 10:45:00 PM 2.98 37.364 0.095 7.24 2.29 13.53
12/29/2022 11:00:00 PM 2.99 37.382 0.095 7.23 2.22 13.54
12/29/2022 11:15:00 PM 2.99 37.382 0.095 7.23 2.25 13.54
12/29/2022 11:30:00 PM 2.99 37.382 0.095 7.23 2.16 13.52
12/29/2022 11:45:00 PM 2.99 37.382 0.095 7.23 2.21 13.54
12/30/2022 12:00:00 AM 2.99 37.382 0.095 7.22 2.14 13.53
12/30/2022 12:15:00 AM 2.99 37.382 0.096 7.23 2.2 13.53
12/30/2022 12:30:00 AM 3 37.4 0.096 7.16 2.18 13.53
12/30/2022 12:45:00 AM 2.99 37.382 0.096 7.23 2.16 13.54
12/30/2022 1:00:00 AM 2.99 37.382 0.097 7.23 2.19 13.54
12/30/2022 1:15:00 AM 2.98 37.364 0.097 7.2 2.26 13.54
12/30/2022 1:30:00 AM 2.97 37.346 0.097 7.22 2.31 13.53
12/30/2022 1:45:00 AM 2.95 37.31 0.098 7.22 2.23 13.54
12/30/2022 2:00:00 AM 2.93 37.274 0.098 7.13 2.28 13.53
12/30/2022 2:15:00 AM 2.91 37.238 0.098 7.22 2.31 13.55
12/30/2022 2:30:00 AM 2.9 37.22 0.099 7.22 2.41 13.55
12/30/2022 2:45:00 AM 2.89 37.202 0.099 7.21 2.56 13.54
12/30/2022 3:00:00 AM 2.89 37.202 0.1 7.22 2.48 13.55
12/30/2022 3:15:00 AM 2.89 37.202 0.1 7.22 2.39 13.56
12/30/2022 3:30:00 AM 2.89 37.202 0.101 7.23 2.31 13.55
12/30/2022 3:45:00 AM 2.88 37.184 0.101 7.23 2.31 13.55
12/30/2022 4:00:00 AM 2.89 37.202 0.102 7.22 2.26 13.55
12/30/2022 4:15:00 AM 2.89 37.202 0.102 7.23 2.29 13.55
12/30/2022 4:30:00 AM 2.89 37.202 0.103 7.23 2.31 13.55
12/30/2022 4:45:00 AM 2.89 37.202 0.103 7.16 2.33 13.55
12/30/2022 5:00:00 AM 2.9 37.22 0.103 7.24 2.38 13.55
12/30/2022 5:15:00 AM 2.9 37.22 0.104 7.24 2.33 13.55
12/30/2022 5:30:00 AM 2.91 37.238 0.104 7.15 2.42 13.55
12/30/2022 5:45:00 AM 2.92 37.256 0.104 7.19 2.32 13.55
12/30/2022 6:00:00 AM 2.93 37.274 0.104 7.24 2.3 13.55
12/30/2022 6:15:00 AM 2.93 37.274 0.104 7.24 2.33 13.54
12/30/2022 6:30:00 AM 2.94 37.292 0.104 7.24 2.29 13.55
12/30/2022 6:45:00 AM 2.95 37.31 0.105 7.24 2.26 13.54
12/30/2022 7:00:00 AM 2.95 37.31 0.105 7.24 2.3 13.55
12/30/2022 7:15:00 AM 2.96 37.328 0.105 7.19 2.37 13.54
12/30/2022 7:30:00 AM 2.97 37.346 0.105 7.24 2.3 13.55
12/30/2022 7:45:00 AM 2.98 37.364 0.105 7.25 2.34 13.55
12/30/2022 8:00:00 AM 2.99 37.382 0.105 7.25 2.28 13.57
12/30/2022 8:15:00 AM 3 37.4 0.106 7.26 2.29 13.57
12/30/2022 8:30:00 AM 3.02 37.436 0.106 7.25 2.27 13.62
12/30/2022 8:45:00 AM 3.04 37.472 0.106 7.27 2.25 13.64
12/30/2022 9:00:00 AM 3.07 37.526 0.106 7.27 2.24 13.69
12/30/2022 9:15:00 AM 3.09 37.562 0.106 7.28 2.25 13.71
12/30/2022 9:30:00 AM 3.12 37.616 0.107 7.3 2.27 13.73
12/30/2022 9:45:00 AM 3.16 37.688 0.107 7.31 2.25 13.75
12/30/2022 10:00:00 AM 3.2 37.76 0.107 7.25 2.2 13.76
12/30/2022 10:15:00 AM 3.25 37.85 0.108 7.33 2.23 13.78
12/30/2022 10:30:00 AM 3.3 37.94 0.108 7.34 2.14 13.77
12/30/2022 10:45:00 AM 3.35 38.03 0.109 7.34 2.18 13.75
12/30/2022 11:00:00 AM 3.39 38.102 0.109 7.35 2.11 13.74
12/30/2022 11:15:00 AM 3.44 38.192 0.109 7.36 2.14 13.74
12/30/2022 11:30:00 AM 3.49 38.282 0.11 7.36 2.1 13.74
12/30/2022 11:45:00 AM 3.54 38.372 0.11 7.36 2.15 13.73
12/30/2022 12:00:00 PM 3.6 38.48 0.11 7.36 2.21 13.72
12/30/2022 12:15:00 PM 3.66 38.588 0.11 7.37 2.17 13.71
12/30/2022 12:30:00 PM 3.73 38.714 0.111 7.38 2.15 13.7
12/30/2022 12:45:00 PM 3.79 38.822 0.111 7.39 2.16 13.68
12/30/2022 1:00:00 PM 3.86 38.948 0.111 7.39 2.2 13.64
12/30/2022 1:15:00 PM 3.94 39.092 0.111 7.4 2.2 13.62
12/30/2022 1:30:00 PM 4 39.2 0.111 7.41 2.22 13.59
12/30/2022 1:45:00 PM 4.07 39.326 0.111 7.41 2.5 13.57
12/30/2022 2:00:00 PM 4.11 39.398 0.111 7.41 2.57 13.55
12/30/2022 2:15:00 PM 4.16 39.488 0.111 7.4 2.54 13.53
12/30/2022 2:30:00 PM 4.23 39.614 0.111 7.41 2.58 13.51
12/30/2022 2:45:00 PM 4.27 39.686 0.111 7.4 2.7 13.48
12/30/2022 3:00:00 PM 4.29 39.722 0.111 7.41 2.69 13.46
12/30/2022 3:15:00 PM 4.3 39.74 0.111 7.37 2.82 13.43
12/30/2022 3:30:00 PM 4.28 39.704 0.112 7.39 2.82 13.39
12/30/2022 3:45:00 PM 4.25 39.65 0.112 7.38 2.98 13.37
12/30/2022 4:00:00 PM 4.23 39.614 0.112 7.36 3.05 13.33
12/30/2022 4:15:00 PM 4.21 39.578 0.112 7.35 3.28 13.31
12/30/2022 4:30:00 PM 4.19 39.542 0.112 7.34 3.26 13.28
12/30/2022 4:45:00 PM 4.16 39.488 0.113 7.3 3.56 13.24
12/30/2022 5:00:00 PM 4.11 39.398 0.113 7.31 3.77 13.2
12/30/2022 5:15:00 PM 4.06 39.308 0.114 7.3 4.15 13.19
12/30/2022 5:30:00 PM 4 39.2 0.114 7.29 4.3 13.18
12/30/2022 5:45:00 PM 3.93 39.074 0.115 7.23 4.54 13.19
12/30/2022 6:00:00 PM 3.86 38.948 0.115 7.27 5.1 13.21
12/30/2022 6:15:00 PM 3.79 38.822 0.116 7.23 5.72 13.24
12/30/2022 6:30:00 PM 3.7 38.66 0.117 7.26 6.25 13.26
12/30/2022 6:45:00 PM 3.61 38.498 0.117 7.25 6.68 13.3
12/30/2022 7:00:00 PM 3.51 38.318 0.118 7.23 7.41 13.32
12/30/2022 7:15:00 PM 3.42 38.156 0.118 7.25 7.83 13.35
12/30/2022 7:30:00 PM 3.32 37.976 0.119 7.24 8.32 13.38
12/30/2022 7:45:00 PM 3.22 37.796 0.119 7.23 8.6 13.43
12/30/2022 8:00:00 PM 3.12 37.616 0.12 7.23 8.81 13.48
12/30/2022 8:15:00 PM 3.03 37.454 0.121 7.24 8.97 13.51
12/30/2022 8:30:00 PM 2.95 37.31 0.121 7.24 9.13 13.55
12/30/2022 8:45:00 PM 2.87 37.166 0.122 7.24 9.37 13.57
12/30/2022 9:00:00 PM 2.79 37.022 0.123 7.24 9.11 13.59
12/30/2022 9:15:00 PM 2.71 36.878 0.123 7.24 9.2 13.63
12/30/2022 9:30:00 PM 2.63 36.734 0.124 7.23 9.04 13.66
12/30/2022 9:45:00 PM 2.57 36.626 0.125 7.23 8.84 13.69
12/30/2022 10:00:00 PM 2.51 36.518 0.125 7.24 8.69 13.7
12/30/2022 10:15:00 PM 2.46 36.428 0.126 7.23 8.62 13.72
12/30/2022 10:30:00 PM 2.42 36.356 0.126 7.25 8.04 13.74
12/30/2022 10:45:00 PM 2.39 36.302 0.127 7.24 7.76 13.74
12/30/2022 11:00:00 PM 2.37 36.266 0.127 7.26 7.82 13.74
12/30/2022 11:15:00 PM 2.36 36.248 0.128 7.27 7.59 13.75
12/30/2022 11:30:00 PM 2.35 36.23 0.128 7.22 7.14 13.75
12/30/2022 11:45:00 PM 2.34 36.212 0.128 7.27 7.07 13.74
12/31/2022 12:00:00 AM 2.34 36.212 0.128 7.27 6.39 13.74
12/31/2022 12:15:00 AM 2.34 36.212 0.128 7.27 6.5 13.73
12/31/2022 12:30:00 AM 2.34 36.212 0.128 7.27 5.86 13.73
12/31/2022 12:45:00 AM 2.35 36.23 0.129 7.28 5.91 13.73
12/31/2022 1:00:00 AM 2.35 36.23 0.129 7.27 5.55 13.73
12/31/2022 1:15:00 AM 2.36 36.248 0.129 7.27 5.43 13.72
12/31/2022 1:30:00 AM 2.36 36.248 0.129 7.24 5.27 13.72
12/31/2022 1:45:00 AM 2.36 36.248 0.13 7.28 5.13 13.7
12/31/2022 2:00:00 AM 2.37 36.266 0.13 7.28 5.05 13.71
12/31/2022 2:15:00 AM 2.38 36.284 0.131 7.27 4.85 13.7
12/31/2022 2:30:00 AM 2.39 36.302 0.131 7.28 4.83 13.7
12/31/2022 2:45:00 AM 2.4 36.32 0.131 7.28 4.51 13.69
12/31/2022 3:00:00 AM 2.41 36.338 0.132 7.27 4.43 13.68
12/31/2022 3:15:00 AM 2.43 36.374 0.132 7.28 4.27 13.68
12/31/2022 3:30:00 AM 2.45 36.41 0.133 7.27 4.36 13.68
12/31/2022 3:45:00 AM 2.47 36.446 0.133 7.22 4.22 13.67
12/31/2022 4:00:00 AM 2.48 36.464 0.133 7.29 4.03 13.67
12/31/2022 4:15:00 AM 2.49 36.482 0.133 7.26 3.9 13.66
12/31/2022 4:30:00 AM 2.49 36.482 0.133 7.25 3.92 13.65
12/31/2022 4:45:00 AM 2.5 36.5 0.133 7.28 3.81 13.64
12/31/2022 5:00:00 AM 2.49 36.482 0.133 7.28 3.64 13.64
12/31/2022 5:15:00 AM 2.5 36.5 0.133 7.27 3.63 13.64
12/31/2022 5:30:00 AM 2.5 36.5 0.133 7.26 3.56 13.63
12/31/2022 5:45:00 AM 2.5 36.5 0.133 7.26 3.57 13.64
12/31/2022 6:00:00 AM 2.5 36.5 0.132 7.21 3.58 13.64
12/31/2022 6:15:00 AM 2.5 36.5 0.132 7.27 3.45 13.63
12/31/2022 6:30:00 AM 2.5 36.5 0.132 7.25 3.39 13.63
12/31/2022 6:45:00 AM 2.51 36.518 0.131 7.27 3.37 13.62
12/31/2022 7:00:00 AM 2.52 36.536 0.131 7.27 3.37 13.62
12/31/2022 7:15:00 AM 2.54 36.572 0.13 7.19 3.27 13.61
12/31/2022 7:30:00 AM 2.56 36.608 0.13 7.26 3.26 13.59
12/31/2022 7:45:00 AM 2.58 36.644 0.129 7.27 3.17 13.59
12/31/2022 8:00:00 AM 2.61 36.698 0.129 7.27 3.17 13.59
12/31/2022 8:15:00 AM 2.63 36.734 0.128 7.28 3.06 13.59
12/31/2022 8:30:00 AM 2.65 36.77 0.128 7.28 3.13 13.59
12/31/2022 8:45:00 AM 2.68 36.824 0.127 7.25 3.02 13.6
12/31/2022 9:00:00 AM 2.71 36.878 0.127 7.24 2.95 13.62
12/31/2022 9:15:00 AM 2.74 36.932 0.126 7.29 2.94 13.63
12/31/2022 9:30:00 AM 2.78 37.004 0.126 7.3 2.78 13.65
12/31/2022 9:45:00 AM 2.82 37.076 0.125 7.31 2.78 13.69
12/31/2022 10:00:00 AM 2.86 37.148 0.125 7.33 2.73 13.73
12/31/2022 10:15:00 AM 2.92 37.256 0.124 7.32 2.72 13.75
12/31/2022 10:30:00 AM 2.98 37.364 0.124 7.34 2.67 13.76
12/31/2022 10:45:00 AM 3.04 37.472 0.123 7.35 2.67 13.76
12/31/2022 11:00:00 AM 3.11 37.598 0.123 7.35 2.66 13.76
12/31/2022 11:15:00 AM 3.19 37.742 0.122 7.37 2.67 13.74
12/31/2022 11:30:00 AM 3.27 37.886 0.122 7.3 2.53 13.72
12/31/2022 11:45:00 AM 3.36 38.048 0.121 7.38 2.6 13.7
12/31/2022 12:00:00 PM 3.44 38.192 0.121 7.39 2.59 13.68
12/31/2022 12:15:00 PM 3.52 38.336 0.12 7.33 2.59 13.67
12/31/2022 12:30:00 PM 3.59 38.462 0.12 7.4 2.5 13.64
12/31/2022 12:45:00 PM 3.67 38.606 0.12 7.41 2.57 13.62
12/31/2022 1:00:00 PM 3.73 38.714 0.119 7.4 2.54 13.59
12/31/2022 1:15:00 PM 3.8 38.84 0.119 7.41 2.58 13.56
12/31/2022 1:30:00 PM 3.85 38.93 0.118 7.35 2.61 13.52
12/31/2022 1:45:00 PM 3.89 39.002 0.118 7.4 2.72 13.47
12/31/2022 2:00:00 PM 3.92 39.056 0.117 7.4 2.67 13.42
12/31/2022 2:15:00 PM 3.95 39.11 0.117 7.38 2.83 13.37
12/31/2022 2:30:00 PM 3.97 39.146 0.117 7.37 2.73 13.31
12/31/2022 2:45:00 PM 3.99 39.182 0.116 7.37 2.74 13.27
12/31/2022 3:00:00 PM 4.01 39.218 0.116 7.35 2.77 13.25
12/31/2022 3:15:00 PM 4.03 39.254 0.116 7.32 2.88 13.22
12/31/2022 3:30:00 PM 4.05 39.29 0.116 7.34 2.94 13.18
12/31/2022 3:45:00 PM 4.06 39.308 0.115 7.34 3 13.15
12/31/2022 4:00:00 PM 4.07 39.326 0.115 7.32 3.1 13.12
12/31/2022 4:15:00 PM 4.08 39.344 0.115 7.32 3.32 13.09
12/31/2022 4:30:00 PM 4.09 39.362 0.115 7.31 3.62 13.06
12/31/2022 4:45:00 PM 4.09 39.362 0.115 7.3 3.86 13.05
12/31/2022 5:00:00 PM 4.09 39.362 0.115 7.3 4.25 13.02
12/31/2022 5:15:00 PM 4.08 39.344 0.115 7.29 4.57 13.02
12/31/2022 5:30:00 PM 4.07 39.326 0.114 7.28 5.36 13
12/31/2022 5:45:00 PM 4.05 39.29 0.114 7.25 5.85 13
12/31/2022 6:00:00 PM 4.03 39.254 0.114 7.22 6.45 13
12/31/2022 6:15:00 PM 4 39.2 0.114 7.27 7.28 13.01
12/31/2022 6:30:00 PM 3.97 39.146 0.114 7.26 7.54 13.02
12/31/2022 6:45:00 PM 3.93 39.074 0.114 7.27 7.83 13.03
12/31/2022 7:00:00 PM 3.89 39.002 0.114 7.25 9.48 13.06
12/31/2022 7:15:00 PM 3.85 38.93 0.114 7.25 9.18 13.07
12/31/2022 7:30:00 PM 3.8 38.84 0.114 7.25 9.41 13.09
12/31/2022 7:45:00 PM 3.74 38.732 0.114 7.2 9.66 13.11
12/31/2022 8:00:00 PM 3.69 38.642 0.115 7.24 9.43 13.13
12/31/2022 8:15:00 PM 3.64 38.552 0.115 7.22 10.03 13.15
12/31/2022 8:30:00 PM 3.6 38.48 0.115 7.25 10.22 13.17
12/31/2022 8:45:00 PM 3.55 38.39 0.116 7.25 10.77 13.18
12/31/2022 9:00:00 PM 3.52 38.336 0.116 7.24 10.59 13.19
12/31/2022 9:15:00 PM 3.49 38.282 0.116 7.25 10.95 13.2
12/31/2022 9:30:00 PM 3.46 38.228 0.116 7.17 10.66 13.2
12/31/2022 9:45:00 PM 3.44 38.192 0.116 7.25 11.29 13.21
12/31/2022 10:00:00 PM 3.43 38.174 0.116 7.26 11.24 13.21
12/31/2022 10:15:00 PM 3.41 38.138 0.116 7.25 10.82 13.21
12/31/2022 10:30:00 PM 3.4 38.12 0.116 7.2 10.81 13.22
12/31/2022 10:45:00 PM 3.39 38.102 0.116 7.26 10.76 13.21
12/31/2022 11:00:00 PM 3.38 38.084 0.116 7.25 10.46 13.23
12/31/2022 11:15:00 PM 3.37 38.066 0.116 7.25 10.26 13.23
12/31/2022 11:30:00 PM 3.35 38.03 0.117 7.24 10.23 13.24
12/31/2022 11:45:00 PM 3.34 38.012 0.117 7.2 10.34 13.25
1/1/2023 12:00:00 AM 3.33 37.994 0.117 7.25 10.37 13.24
1/1/2023 12:15:00 AM 3.33 37.994 0.118 7.25 9.57 13.26
1/1/2023 12:30:00 AM 3.32 37.976 0.119 7.25 9.33 13.26
1/1/2023 12:45:00 AM 3.32 37.976 0.12 7.2 9.58 13.26
1/1/2023 1:00:00 AM 3.31 37.958 0.121 7.25 9.42 13.26
1/1/2023 1:15:00 AM 3.31 37.958 0.121 7.24 9.3 13.26
1/1/2023 1:30:00 AM 3.31 37.958 0.121 7.22 9.53 13.26
1/1/2023 1:45:00 AM 3.3 37.94 0.121 7.24 9.29 13.26
1/1/2023 2:00:00 AM 3.29 37.922 0.121 7.24 9.22 13.27
1/1/2023 2:15:00 AM 3.28 37.904 0.12 7.22 9.24 13.27
1/1/2023 2:30:00 AM 3.28 37.904 0.12 7.24 9.31 13.27
1/1/2023 2:45:00 AM 3.28 37.904 0.119 7.23 8.66 13.28
1/1/2023 3:00:00 AM 3.27 37.886 0.119 7.23 8.57 13.29
1/1/2023 3:15:00 AM 3.24 37.832 0.119 7.24 8.43 13.28
1/1/2023 3:30:00 AM 3.22 37.796 0.119 7.17 8.52 13.3
1/1/2023 3:45:00 AM 3.2 37.76 0.119 7.23 8.41 13.3
1/1/2023 4:00:00 AM 3.17 37.706 0.119 7.22 8.1 13.33
1/1/2023 4:15:00 AM 3.14 37.652 0.118 7.22 7.7 13.34
1/1/2023 4:30:00 AM 3.12 37.616 0.118 7.17 7.43 13.34
1/1/2023 4:45:00 AM 3.1 37.58 0.118 7.22 7.23 13.35
1/1/2023 5:00:00 AM 3.09 37.562 0.118 7.17 7.05 13.36
1/1/2023 5:15:00 AM 3.08 37.544 0.118 7.18 7.04 13.37
1/1/2023 5:30:00 AM 3.06 37.508 0.117 7.22 6.77 13.37
1/1/2023 5:45:00 AM 3.04 37.472 0.117 7.22 6.78 13.37
1/1/2023 6:00:00 AM 3.02 37.436 0.116 7.19 6.53 13.4
1/1/2023 6:15:00 AM 3.01 37.418 0.116 7.21 6.53 13.4
1/1/2023 6:30:00 AM 3 37.4 0.115 7.22 6.34 13.4
1/1/2023 6:45:00 AM 2.99 37.382 0.115 7.2 6.24 13.42
1/1/2023 7:00:00 AM 2.98 37.364 0.114 7.15 6.05 13.42
1/1/2023 7:15:00 AM 2.97 37.346 0.114 7.21 5.97 13.43
1/1/2023 7:30:00 AM 2.96 37.328 0.113 7.13 5.92 13.43
1/1/2023 7:45:00 AM 2.96 37.328 0.113 7.22 5.77 13.44
1/1/2023 8:00:00 AM 2.96 37.328 0.113 7.22 5.62 13.46
1/1/2023 8:15:00 AM 2.97 37.346 0.112 7.21 5.49 13.47
1/1/2023 8:30:00 AM 2.98 37.364 0.112 7.23 5.26 13.49
1/1/2023 8:45:00 AM 2.99 37.382 0.111 7.15 5.33 13.5
1/1/2023 9:00:00 AM 3.01 37.418 0.111 7.24 5.25 13.53
1/1/2023 9:15:00 AM 3.03 37.454 0.11 7.24 5.1 13.56
1/1/2023 9:30:00 AM 3.08 37.544 0.11 7.25 4.86 13.59
1/1/2023 9:45:00 AM 3.13 37.634 0.109 7.26 4.9 13.61
1/1/2023 10:00:00 AM 3.16 37.688 0.109 7.27 4.79 13.62
1/1/2023 10:15:00 AM 3.2 37.76 0.108 7.27 4.63 13.62
1/1/2023 10:30:00 AM 3.26 37.868 0.108 7.27 4.44 13.63
1/1/2023 10:45:00 AM 3.32 37.976 0.107 7.24 4.51 13.62
1/1/2023 11:00:00 AM 3.37 38.066 0.107 7.29 4.46 13.6
1/1/2023 11:15:00 AM 3.39 38.102 0.106 7.28 4.47 13.57
1/1/2023 11:30:00 AM 3.46 38.228 0.106 7.28 4.17 13.57
1/1/2023 11:45:00 AM 3.54 38.372 0.105 7.27 4.32 13.57
1/1/2023 12:00:00 PM 3.62 38.516 0.105 7.3 4.27 13.57
1/1/2023 12:15:00 PM 3.68 38.624 0.104 7.31 4.13 13.54
1/1/2023 12:30:00 PM 3.74 38.732 0.104 7.3 4.11 13.51
1/1/2023 12:45:00 PM 3.83 38.894 0.103 7.26 4.05 13.49
1/1/2023 1:00:00 PM 3.92 39.056 0.103 7.27 4.15 13.45
1/1/2023 1:15:00 PM 4.01 39.218 0.102 7.31 4.15 13.41
1/1/2023 1:30:00 PM 4.11 39.398 0.102 7.32 4.06 13.39
1/1/2023 1:45:00 PM 4.17 39.506 0.101 7.32 4.12 13.37
1/1/2023 2:00:00 PM 4.2 39.56 0.101 7.32 4.28 13.33
1/1/2023 2:15:00 PM 4.24 39.632 0.1 7.23 4.15 13.32
1/1/2023 2:30:00 PM 4.27 39.686 0.1 7.3 4.12 13.31
1/1/2023 2:45:00 PM 4.29 39.722 0.1 7.31 4.14 13.29
1/1/2023 3:00:00 PM 4.32 39.776 0.099 7.31 4.15 13.25
1/1/2023 3:15:00 PM 4.36 39.848 0.099 7.28 4.2 13.21
1/1/2023 3:30:00 PM 4.39 39.902 0.099 7.29 4.13 13.18
1/1/2023 3:45:00 PM 4.42 39.956 0.098 7.2 4.06 13.14
1/1/2023 4:00:00 PM 4.44 39.992 0.098 7.27 4.08 13.11
1/1/2023 4:15:00 PM 4.45 40.01 0.098 7.26 4.05 13.09
1/1/2023 4:30:00 PM 4.45 40.01 0.098 7.23 4.25 13.06
1/1/2023 4:45:00 PM 4.45 40.01 0.097 7.23 4.21 13.03
1/1/2023 5:00:00 PM 4.45 40.01 0.097 7.15 4.26 13
1/1/2023 5:15:00 PM 4.42 39.956 0.097 7.22 4.41 12.98
1/1/2023 5:30:00 PM 4.41 39.938 0.097 7.19 4.45 12.97
1/1/2023 5:45:00 PM 4.39 39.902 0.097 7.2 4.7 12.97
1/1/2023 6:00:00 PM 4.38 39.884 0.097 7.19 4.63 12.96
1/1/2023 6:15:00 PM 4.38 39.884 0.097 7.2 4.51 12.96
1/1/2023 6:30:00 PM 4.38 39.884 0.097 7.14 4.8 12.95
1/1/2023 6:45:00 PM 4.38 39.884 0.097 7.19 4.79 12.96
1/1/2023 7:00:00 PM 4.37 39.866 0.097 7.18 4.8 12.96
1/1/2023 7:15:00 PM 4.36 39.848 0.097 7.18 4.81 12.96
1/1/2023 7:30:00 PM 4.36 39.848 0.097 7.14 4.77 12.96
1/1/2023 7:45:00 PM 4.35 39.83 0.097 7.18 5.05 12.97
1/1/2023 8:00:00 PM 4.34 39.812 0.098 7.15 4.92 12.97
1/1/2023 8:15:00 PM 4.33 39.794 0.098 7.18 5.02 12.97
1/1/2023 8:30:00 PM 4.32 39.776 0.098 7.17 4.98 12.99
1/1/2023 8:45:00 PM 4.31 39.758 0.098 7.17 4.92 12.98
1/1/2023 9:00:00 PM 4.3 39.74 0.098 7.18 5.02 12.98
1/1/2023 9:15:00 PM 4.3 39.74 0.098 7.17 5.1 12.99
1/1/2023 9:30:00 PM 4.29 39.722 0.098 7.18 5.17 12.99
1/1/2023 9:45:00 PM 4.28 39.704 0.098 7.13 4.93 12.99
1/1/2023 10:00:00 PM 4.27 39.686 0.098 7.18 4.94 13
1/1/2023 10:15:00 PM 4.27 39.686 0.098 7.17 4.88 13
1/1/2023 10:30:00 PM 4.26 39.668 0.098 7.16 4.76 13
1/1/2023 10:45:00 PM 4.25 39.65 0.097 7.17 5.04 13
1/1/2023 11:00:00 PM 4.24 39.632 0.097 7.17 4.85 13.01
1/1/2023 11:15:00 PM 4.23 39.614 0.097 7.17 4.75 13.01
1/1/2023 11:30:00 PM 4.22 39.596 0.097 7.17 4.7 13.02
1/1/2023 11:45:00 PM 4.21 39.578 0.097 7.17 4.63 13.01
1/2/2023 12:00:00 AM 4.21 39.578 0.097 7.17 4.39 13.02
1/2/2023 12:15:00 AM 4.2 39.56 0.096 7.17 4.57 13.02
1/2/2023 12:30:00 AM 4.19 39.542 0.096 7.11 4.5 13.02
1/2/2023 12:45:00 AM 4.18 39.524 0.096 7.17 4.57 13.02
1/2/2023 1:00:00 AM 4.17 39.506 0.096 7.09 4.57 13.02
1/2/2023 1:15:00 AM 4.16 39.488 0.096 7.13 4.52 13.03
1/2/2023 1:30:00 AM 4.16 39.488 0.095 7.13 4.6 13.03
1/2/2023 1:45:00 AM 4.15 39.47 0.095 7.15 4.48 13.04
1/2/2023 2:00:00 AM 4.15 39.47 0.095 7.17 4.43 13.04
1/2/2023 2:15:00 AM 4.15 39.47 0.095 7.16 4.49 13.03
1/2/2023 2:30:00 AM 4.14 39.452 0.095 7.15 4.34 13.04
1/2/2023 2:45:00 AM 4.14 39.452 0.094 7.15 4.44 13.04
1/2/2023 3:00:00 AM 4.13 39.434 0.094 7.08 4.33 13.05
1/2/2023 3:15:00 AM 4.12 39.416 0.094 7.16 4.16 13.04
1/2/2023 3:30:00 AM 4.11 39.398 0.094 7.15 4.17 13.05
1/2/2023 3:45:00 AM 4.1 39.38 0.094 7.14 4.27 13.05
1/2/2023 4:00:00 AM 4.09 39.362 0.094 7.12 4.23 13.05
1/2/2023 4:15:00 AM 4.09 39.362 0.093 7.12 4.38 13.05
1/2/2023 4:30:00 AM 4.08 39.344 0.093 7.16 4.2 13.06
1/2/2023 4:45:00 AM 4.08 39.344 0.093 7.15 4.31 13.06
1/2/2023 5:00:00 AM 4.06 39.308 0.093 7.14 4.14 13.06
1/2/2023 5:15:00 AM 4.05 39.29 0.093 7.13 4.12 13.06
1/2/2023 5:30:00 AM 4.04 39.272 0.093 7.11 4.08 13.07
1/2/2023 5:45:00 AM 4.03 39.254 0.092 7.14 3.95 13.07
1/2/2023 6:00:00 AM 4.02 39.236 0.092 7.1 4.14 13.07
1/2/2023 6:15:00 AM 4.02 39.236 0.092 7.14 4.26 13.08
1/2/2023 6:30:00 AM 4.02 39.236 0.092 7.14 4.09 13.08
1/2/2023 6:45:00 AM 4.01 39.218 0.092 7.15 3.91 13.09
1/2/2023 7:00:00 AM 4.01 39.218 0.092 7.08 3.99 13.09
1/2/2023 7:15:00 AM 4.01 39.218 0.092 7.14 4.01 13.08
1/2/2023 7:30:00 AM 4.01 39.218 0.091 7.15 4.06 13.09
1/2/2023 7:45:00 AM 4 39.2 0.091 7.09 3.93 13.09
1/2/2023 8:00:00 AM 4 39.2 0.091 7.14 3.93 13.11
1/2/2023 8:15:00 AM 4 39.2 0.091 7.1 3.95 13.13
1/2/2023 8:30:00 AM 4.01 39.218 0.091 7.15 3.75 13.16
1/2/2023 8:45:00 AM 4.02 39.236 0.091 7.14 3.59 13.18
1/2/2023 9:00:00 AM 4.03 39.254 0.09 7.14 3.63 13.21
1/2/2023 9:15:00 AM 4.05 39.29 0.09 7.18 3.57 13.25
1/2/2023 9:30:00 AM 4.09 39.362 0.09 7.19 3.41 13.29
1/2/2023 9:45:00 AM 4.12 39.416 0.09 7.15 3.5 13.32
1/2/2023 10:00:00 AM 4.16 39.488 0.09 7.22 3.35 13.34
1/2/2023 10:15:00 AM 4.2 39.56 0.089 7.21 3.39 13.33
1/2/2023 10:30:00 AM 4.22 39.596 0.089 7.22 3.27 13.33
1/2/2023 10:45:00 AM 4.26 39.668 0.089 7.19 3.29 13.33
1/2/2023 11:00:00 AM 4.3 39.74 0.089 7.23 3.19 13.32
1/2/2023 11:15:00 AM 4.33 39.794 0.089 7.22 3.15 13.32
1/2/2023 11:30:00 AM 4.39 39.902 0.089 7.24 3.33 13.31
1/2/2023 11:45:00 AM 4.43 39.974 0.088 7.19 3.37 13.3
1/2/2023 12:00:00 PM 4.45 40.01 0.088 7.24 3.27 13.27
1/2/2023 12:15:00 PM 4.5 40.1 0.088 7.25 3.17 13.26
1/2/2023 12:30:00 PM 4.57 40.226 0.088 7.26 3.17 13.27
1/2/2023 12:45:00 PM 4.66 40.388 0.088 7.26 3.25 13.24
1/2/2023 1:00:00 PM 4.75 40.55 0.087 7.28 3.11 13.23
1/2/2023 1:15:00 PM 4.84 40.712 0.087 7.23 3.18 13.21
1/2/2023 1:30:00 PM 4.92 40.856 0.087 7.26 3.28 13.17
1/2/2023 1:45:00 PM 4.99 40.982 0.087 7.27 3.29 13.12
1/2/2023 2:00:00 PM 5.07 41.126 0.087 7.29 3.42 13.08
1/2/2023 2:15:00 PM 5.13 41.234 0.087 7.29 3.47 13.04
1/2/2023 2:30:00 PM 5.19 41.342 0.087 7.23 3.68 13
1/2/2023 2:45:00 PM 5.24 41.432 0.086 7.27 3.67 12.97
1/2/2023 3:00:00 PM 5.27 41.486 0.086 7.24 3.63 12.92
1/2/2023 3:15:00 PM 5.28 41.504 0.086 7.2 3.76 12.87
1/2/2023 3:30:00 PM 5.29 41.522 0.086 7.21 3.94 12.85
1/2/2023 3:45:00 PM 5.29 41.522 0.086 7.23 3.96 12.82
1/2/2023 4:00:00 PM 5.29 41.522 0.086 7.22 4.05 12.8
1/2/2023 4:15:00 PM 5.28 41.504 0.086 7.16 4 12.79
1/2/2023 4:30:00 PM 5.28 41.504 0.087 7.18 3.95 12.77
1/2/2023 4:45:00 PM 5.27 41.486 0.087 7.18 4.03 12.75
1/2/2023 5:00:00 PM 5.27 41.486 0.087 7.17 4.08 12.72
1/2/2023 5:15:00 PM 5.27 41.486 0.087 7.18 3.99 12.7
1/2/2023 5:30:00 PM 5.27 41.486 0.087 7.16 4.16 12.69
1/2/2023 5:45:00 PM 5.27 41.486 0.087 7.17 4.39 12.69
1/2/2023 6:00:00 PM 5.26 41.468 0.088 7.14 4.39 12.69
1/2/2023 6:15:00 PM 5.24 41.432 0.088 7.14 4.67 12.69
1/2/2023 6:30:00 PM 5.23 41.414 0.088 7.15 5.04 12.69
1/2/2023 6:45:00 PM 5.21 41.378 0.088 7.15 5.04 12.7
1/2/2023 7:00:00 PM 5.19 41.342 0.088 7.14 5.03 12.7
1/2/2023 7:15:00 PM 5.17 41.306 0.089 7.13 5.08 12.71
1/2/2023 7:30:00 PM 5.16 41.288 0.089 7.13 5.03 12.71
1/2/2023 7:45:00 PM 5.14 41.252 0.089 7.14 5.07 12.73
1/2/2023 8:00:00 PM 5.13 41.234 0.089 7.14 5.15 12.73
1/2/2023 8:15:00 PM 5.11 41.198 0.089 7.13 5.23 12.74
1/2/2023 8:30:00 PM 5.1 41.18 0.089 7.13 5.52 12.74
1/2/2023 8:45:00 PM 5.09 41.162 0.089 7.15 5.22 12.75
1/2/2023 9:00:00 PM 5.08 41.144 0.089 7.13 5.02 12.75
1/2/2023 9:15:00 PM 5.07 41.126 0.089 7.14 5 12.75
1/2/2023 9:30:00 PM 5.06 41.108 0.089 7.08 4.75 12.76
1/2/2023 9:45:00 PM 5.04 41.072 0.089 7.14 4.78 12.77
1/2/2023 10:00:00 PM 5.03 41.054 0.089 7.14 4.82 12.77
1/2/2023 10:15:00 PM 5.02 41.036 0.089 7.14 4.8 12.77
1/2/2023 10:30:00 PM 5.01 41.018 0.089 7.14 4.74 12.78
1/2/2023 10:45:00 PM 5 41 0.089 7.13 4.72 12.78
1/2/2023 11:00:00 PM 5 41 0.089 7.13 4.68 12.77
1/2/2023 11:15:00 PM 4.99 40.982 0.089 7.13 4.61 12.79
1/2/2023 11:30:00 PM 4.98 40.964 0.089 7.06 4.55 12.78
1/2/2023 11:45:00 PM 4.98 40.964 0.089 7.1 4.34 12.78
1/3/2023 12:00:00 AM 4.97 40.946 0.089 7.14 4.45 12.78
1/3/2023 12:15:00 AM 4.97 40.946 0.089 7.08 4.34 12.78
1/3/2023 12:30:00 AM 4.96 40.928 0.089 7.14 4.41 12.78
1/3/2023 12:45:00 AM 4.96 40.928 0.089 7.04 4.41 12.78
1/3/2023 1:00:00 AM 4.95 40.91 0.089 7.11 4.23 12.78
1/3/2023 1:15:00 AM 4.95 40.91 0.089 7.13 4.25 12.77
1/3/2023 1:30:00 AM 4.95 40.91 0.088 7.14 4.36 12.77
1/3/2023 1:45:00 AM 4.95 40.91 0.088 7.13 4.24 12.77
1/3/2023 2:00:00 AM 4.95 40.91 0.088 7.14 4.27 12.77
1/3/2023 2:15:00 AM 4.94 40.892 0.088 7.14 4.14 12.77
1/3/2023 2:30:00 AM 4.94 40.892 0.088 7.13 4.21 12.77
1/3/2023 2:45:00 AM 4.94 40.892 0.088 7.08 4.09 12.77
1/3/2023 3:00:00 AM 4.94 40.892 0.088 7.11 4.06 12.78
1/3/2023 3:15:00 AM 4.94 40.892 0.088 7.11 3.92 12.78
1/3/2023 3:30:00 AM 4.94 40.892 0.088 7.12 3.96 12.77
1/3/2023 3:45:00 AM 4.94 40.892 0.087 7.12 3.92 12.78
1/3/2023 4:00:00 AM 4.94 40.892 0.087 7.13 3.87 12.77
1/3/2023 4:15:00 AM 4.94 40.892 0.087 7.08 3.79 12.77
1/3/2023 4:30:00 AM 4.94 40.892 0.087 7.08 3.74 12.77
1/3/2023 4:45:00 AM 4.94 40.892 0.087 7.13 3.81 12.76
1/3/2023 5:00:00 AM 4.94 40.892 0.087 7.07 3.81 12.77
1/3/2023 5:15:00 AM 4.95 40.91 0.087 7.13 3.72 12.76
1/3/2023 5:30:00 AM 4.95 40.91 0.087 7.12 3.9 12.76
1/3/2023 5:45:00 AM 4.95 40.91 0.087 7.13 3.74 12.75
1/3/2023 6:00:00 AM 4.96 40.928 0.087 7.12 3.72 12.76
1/3/2023 6:15:00 AM 4.96 40.928 0.087 7.11 3.69 12.75
1/3/2023 6:30:00 AM 4.96 40.928 0.086 7.08 3.74 12.74
1/3/2023 6:45:00 AM 4.97 40.946 0.086 7.08 3.8 12.74
1/3/2023 7:00:00 AM 4.97 40.946 0.086 7.1 3.71 12.73
1/3/2023 7:15:00 AM 4.97 40.946 0.086 7.1 3.67 12.73
1/3/2023 7:30:00 AM 4.98 40.964 0.086 7.09 3.78 12.73
1/3/2023 7:45:00 AM 4.98 40.964 0.086 7.13 3.67 12.73
1/3/2023 8:00:00 AM 4.99 40.982 0.086 7.11 3.8 12.73
1/3/2023 8:15:00 AM 4.99 40.982 0.086 7.1 3.96 12.74
1/3/2023 8:30:00 AM 5 41 0.085 7.08 4.01 12.73
1/3/2023 8:45:00 AM 5.01 41.018 0.085 7.08 4.57 12.74
1/3/2023 9:00:00 AM 5.02 41.036 0.085 7.1 4.81 12.75
1/3/2023 9:15:00 AM 5.03 41.054 0.085 7.07 4.86 12.75
1/3/2023 9:30:00 AM 5.04 41.072 0.084 7.12 5.38 12.76
1/3/2023 9:45:00 AM 5.05 41.09 0.084 7.12 5.76 12.77
1/3/2023 10:00:00 AM 5.08 41.144 0.084 7.07 6.02 12.77
1/3/2023 10:15:00 AM 5.12 41.216 0.083 7.09 6.11 12.78
1/3/2023 10:30:00 AM 5.16 41.288 0.083 7.15 6.72 12.77
1/3/2023 10:45:00 AM 5.2 41.36 0.082 7.14 7.53 12.75
1/3/2023 11:00:00 AM 5.26 41.468 0.082 7.16 8.59 12.75
1/3/2023 11:15:00 AM 5.3 41.54 0.082 7.17 10.46 12.75
1/3/2023 11:30:00 AM 5.32 41.576 0.081 7.15 12.18 12.75
1/3/2023 11:45:00 AM 5.34 41.612 0.081 7.12 13.37 12.72
1/3/2023 12:00:00 PM 5.36 41.648 0.081 7.12 17.65 12.69
1/3/2023 12:15:00 PM 5.39 41.702 0.082 7.17 18.57 12.68
1/3/2023 12:30:00 PM 5.41 41.738 0.083 7.12 27.84 12.66
1/3/2023 12:45:00 PM 5.44 41.792 0.084 7.14 26.76 12.63
1/3/2023 1:00:00 PM 5.46 41.828 0.086 7.15 33.45 12.61
1/3/2023 1:15:00 PM 5.46 41.828 0.089 7.08 39.7 12.6
1/3/2023 1:30:00 PM 5.43 41.774 0.092 7.14 44.6 12.6
1/3/2023 1:45:00 PM 5.37 41.666 0.094 7.14 63.46 12.59
1/3/2023 2:00:00 PM 5.3 41.54 0.096 7.07 54.01 12.6
1/3/2023 2:15:00 PM 5.23 41.414 0.098 7.08 58 12.63
1/3/2023 2:30:00 PM 5.15 41.27 0.1 7.14 60.15 12.66
1/3/2023 2:45:00 PM 5.09 41.162 0.101 7.14 60.77 12.69
1/3/2023 3:00:00 PM 5.05 41.09 0.102 7.12 58.73 12.7
1/3/2023 3:15:00 PM 5.04 41.072 0.102 7.13 52.96 12.71
1/3/2023 3:30:00 PM 5.03 41.054 0.102 7.17 48.96 12.71
1/3/2023 3:45:00 PM 5.03 41.054 0.103 7.12 46.01 12.71
1/3/2023 4:00:00 PM 5.04 41.072 0.103 7.16 41.62 12.7
1/3/2023 4:15:00 PM 5.05 41.09 0.103 7.17 39.28 12.69
1/3/2023 4:30:00 PM 5.06 41.108 0.103 7.17 35.14 12.68
1/3/2023 4:45:00 PM 5.08 41.144 0.102 7.16 36.97 12.67
1/3/2023 5:00:00 PM 5.1 41.18 0.101 7.15 30.34 12.67
1/3/2023 5:15:00 PM 5.11 41.198 0.1 7.14 27.95 12.65
1/3/2023 5:30:00 PM 5.13 41.234 0.099 7.13 26.88 12.64
1/3/2023 5:45:00 PM 5.15 41.27 0.098 7.13 25.28 12.63
1/3/2023 6:00:00 PM 5.15 41.27 0.097 7.15 23.58 12.63
1/3/2023 6:15:00 PM 5.17 41.306 0.096 7.12 22.18 12.62
1/3/2023 6:30:00 PM 5.19 41.342 0.096 7.16 21.9 12.6
1/3/2023 6:45:00 PM 5.21 41.378 0.095 7.14 20.57 12.6
1/3/2023 7:00:00 PM 5.23 41.414 0.094 7.15 19.99 12.59
1/3/2023 7:15:00 PM 5.26 41.468 0.094 7.08 20.07 12.58
1/3/2023 7:30:00 PM 5.29 41.522 0.093 7.12 18.24 12.56
1/3/2023 7:45:00 PM 5.31 41.558 0.093 7.15 17.76 12.56
1/3/2023 8:00:00 PM 5.33 41.594 0.092 7.13 16.9 12.55
1/3/2023 8:15:00 PM 5.35 41.63 0.092 7.13 17.05 12.55
1/3/2023 8:30:00 PM 5.37 41.666 0.092 7.09 16.48 12.55
1/3/2023 8:45:00 PM 5.39 41.702 0.091 7.14 16.46 12.54
1/3/2023 9:00:00 PM 5.41 41.738 0.091 7.1 15.12 12.53
1/3/2023 9:15:00 PM 5.43 41.774 0.09 7.13 15.45 12.53
1/3/2023 9:30:00 PM 5.45 41.81 0.09 7.12 14.03 12.52
1/3/2023 9:45:00 PM 5.47 41.846 0.09 7.12 13.72 12.51
1/3/2023 10:00:00 PM 5.49 41.882 0.09 7.12 13.41 12.5
1/3/2023 10:15:00 PM 5.51 41.918 0.089 7.06 12.96 12.49
1/3/2023 10:30:00 PM 5.53 41.954 0.089 7.12 12.45 12.49
1/3/2023 10:45:00 PM 5.54 41.972 0.089 7.08 12.47 12.49
1/3/2023 11:00:00 PM 5.56 42.008 0.089 7.11 12.22 12.47
1/3/2023 11:15:00 PM 5.57 42.026 0.088 7.1 11.67 12.48
1/3/2023 11:30:00 PM 5.59 42.062 0.088 7.11 11.26 12.47
1/3/2023 11:45:00 PM 5.6 42.08 0.088 7.1 11.05 12.46
1/4/2023 12:00:00 AM 5.61 42.098 0.088 7.04 11.12 12.47
1/4/2023 12:15:00 AM 5.63 42.134 0.088 7.08 10.61 12.46
1/4/2023 12:30:00 AM 5.64 42.152 0.088 7.1 10.72 12.45
1/4/2023 12:45:00 AM 5.65 42.17 0.088 7.09 10.16 12.45
1/4/2023 1:00:00 AM 5.66 42.188 0.087 7.1 10.07 12.44
1/4/2023 1:15:00 AM 5.67 42.206 0.087 7.1 10 12.43
1/4/2023 1:30:00 AM 5.68 42.224 0.087 7.09 9.57 12.44
1/4/2023 1:45:00 AM 5.68 42.224 0.087 7.1 9.66 12.44
1/4/2023 2:00:00 AM 5.68 42.224 0.087 7.07 9.34 12.44
1/4/2023 2:15:00 AM 5.68 42.224 0.087 7.08 9.35 12.43
1/4/2023 2:30:00 AM 5.69 42.242 0.087 7.08 9.1 12.44
1/4/2023 2:45:00 AM 5.69 42.242 0.087 7.08 9.03 12.43
1/4/2023 3:00:00 AM 5.69 42.242 0.086 7.03 8.91 12.44
1/4/2023 3:15:00 AM 5.69 42.242 0.086 7.05 8.69 12.43
1/4/2023 3:30:00 AM 5.69 42.242 0.086 7.09 8.87 12.44
1/4/2023 3:45:00 AM 5.69 42.242 0.086 7.09 8.36 12.44
1/4/2023 4:00:00 AM 5.68 42.224 0.086 7.03 8.32 12.43
1/4/2023 4:15:00 AM 5.68 42.224 0.086 7.06 8.15 12.44
1/4/2023 4:30:00 AM 5.68 42.224 0.086 7.07 7.87 12.43
1/4/2023 4:45:00 AM 5.68 42.224 0.086 7.08 7.85 12.44
1/4/2023 5:00:00 AM 5.69 42.242 0.085 7.07 8.02 12.43
1/4/2023 5:15:00 AM 5.69 42.242 0.085 7.07 8 12.44
1/4/2023 5:30:00 AM 5.7 42.26 0.085 7.07 7.68 12.43
1/4/2023 5:45:00 AM 5.7 42.26 0.085 7.08 7.6 12.44
1/4/2023 6:00:00 AM 5.7 42.26 0.085 7.02 7.43 12.44
1/4/2023 6:15:00 AM 5.71 42.278 0.085 7.08 7.53 12.43
1/4/2023 6:30:00 AM 5.71 42.278 0.085 7.06 7.44 12.44
1/4/2023 6:45:00 AM 5.72 42.296 0.084 7.02 7.18 12.44
1/4/2023 7:00:00 AM 5.73 42.314 0.084 7.08 7.42 12.45
1/4/2023 7:15:00 AM 5.73 42.314 0.084 7.08 7.11 12.44
1/4/2023 7:30:00 AM 5.74 42.332 0.084 7.07 7.03 12.44
1/4/2023 7:45:00 AM 5.75 42.35 0.084 7.06 6.83 12.44
1/4/2023 8:00:00 AM 5.76 42.368 0.084 7.05 6.58 12.43
1/4/2023 8:15:00 AM 5.78 42.404 0.084 7.06 6.51 12.43
1/4/2023 8:30:00 AM 5.79 42.422 0.083 7.08 6.58 12.44
1/4/2023 8:45:00 AM 5.81 42.458 0.083 7.08 6.17 12.46
1/4/2023 9:00:00 AM 5.83 42.494 0.083 7.08 5.98 12.5
1/4/2023 9:15:00 AM 5.86 42.548 0.083 7.02 5.66 12.51
1/4/2023 9:30:00 AM 5.89 42.602 0.083 7.11 5.58 12.52
1/4/2023 9:45:00 AM 5.91 42.638 0.083 7.03 5.6 12.54
1/4/2023 10:00:00 AM 5.95 42.71 0.082 7.09 5.28 12.57
1/4/2023 10:15:00 AM 6 42.8 0.082 7.14 5.42 12.59
1/4/2023 10:30:00 AM 6.05 42.89 0.082 7.15 5.3 12.6
1/4/2023 10:45:00 AM 6.11 42.998 0.082 7.15 5.12 12.61
1/4/2023 11:00:00 AM 6.18 43.124 0.082 7.16 5.28 12.62
1/4/2023 11:15:00 AM 6.24 43.232 0.082 7.17 5.12 12.6
1/4/2023 11:30:00 AM 6.29 43.322 0.082 7.18 5.17 12.58
1/4/2023 11:45:00 AM 6.33 43.394 0.081 7.16 4.9 12.55
1/4/2023 12:00:00 PM 6.38 43.484 0.081 7.16 5.28 12.52
1/4/2023 12:15:00 PM 6.42 43.556 0.081 7.17 5.11 12.49
1/4/2023 12:30:00 PM 6.46 43.628 0.081 7.17 5.16 12.47
1/4/2023 12:45:00 PM 6.52 43.736 0.081 7.18 4.82 12.45
1/4/2023 1:00:00 PM 6.59 43.862 0.081 7.19 4.83 12.44
1/4/2023 1:15:00 PM 6.64 43.952 0.081 7.14 4.88 12.42
1/4/2023 1:30:00 PM 6.69 44.042 0.081 7.2 4.78 12.38
1/4/2023 1:45:00 PM 6.73 44.114 0.08 7.14 4.82 12.35
1/4/2023 2:00:00 PM 6.76 44.168 0.08 7.19 4.95 12.32
1/4/2023 2:15:00 PM 6.79 44.222 0.08 7.19 4.87 12.31
1/4/2023 2:30:00 PM 6.82 44.276 0.08 7.17 4.74 12.28
1/4/2023 2:45:00 PM 6.85 44.33 0.08 7.17 4.75 12.25
1/4/2023 3:00:00 PM 6.89 44.402 0.08 7.18 4.84 12.22
1/4/2023 3:15:00 PM 6.92 44.456 0.08 7.18 4.94 12.19
1/4/2023 3:30:00 PM 6.95 44.51 0.08 7.12 4.99 12.18
1/4/2023 3:45:00 PM 6.97 44.546 0.08 7.16 4.84 12.16
1/4/2023 4:00:00 PM 6.99 44.582 0.08 7.16 5.07 12.13
1/4/2023 4:15:00 PM 7 44.6 0.08 7.13 4.94 12.09
1/4/2023 4:30:00 PM 7.02 44.636 0.08 7.1 4.99 12.07
1/4/2023 4:45:00 PM 7.03 44.654 0.08 7.09 4.87 12.04
1/4/2023 5:00:00 PM 7.04 44.672 0.08 7.14 4.87 12.02
1/4/2023 5:15:00 PM 7.05 44.69 0.08 7.07 5.06 12
1/4/2023 5:30:00 PM 7.05 44.69 0.08 7.12 4.95 11.99
1/4/2023 5:45:00 PM 7.05 44.69 0.08 7.12 5.15 11.99
1/4/2023 6:00:00 PM 7.05 44.69 0.08 7.11 5.06 11.98
1/4/2023 6:15:00 PM 7.06 44.708 0.08 7.12 4.92 11.97
1/4/2023 6:30:00 PM 7.07 44.726 0.08 7.04 5.04 11.97
1/4/2023 6:45:00 PM 7.07 44.726 0.08 7.06 5.12 11.97
1/4/2023 7:00:00 PM 7.07 44.726 0.08 7.11 5.18 11.97
1/4/2023 7:15:00 PM 7.09 44.762 0.08 7.11 5.32 11.95
1/4/2023 7:30:00 PM 7.1 44.78 0.08 7.11 5.12 11.95
1/4/2023 7:45:00 PM 7.11 44.798 0.079 7.11 5.28 11.95
1/4/2023 8:00:00 PM 7.12 44.816 0.079 7.08 5.24 11.94
1/4/2023 8:15:00 PM 7.13 44.834 0.079 7.08 5.29 11.95
1/4/2023 8:30:00 PM 7.13 44.834 0.079 7.1 5.07 11.94
1/4/2023 8:45:00 PM 7.12 44.816 0.079 7.08 5.33 11.94
1/4/2023 9:00:00 PM 7.13 44.834 0.079 7.07 5.39 11.94
1/4/2023 9:15:00 PM 7.13 44.834 0.079 7.1 5.27 11.93
1/4/2023 9:30:00 PM 7.14 44.852 0.079 7.11 5.02 11.92
1/4/2023 9:45:00 PM 7.15 44.87 0.079 7.11 4.96 11.93
1/4/2023 10:00:00 PM 7.16 44.888 0.079 7.03 5.2 11.93
1/4/2023 10:15:00 PM 7.17 44.906 0.079 7.06 5.05 11.92
1/4/2023 10:30:00 PM 7.16 44.888 0.079 7.07 5.02 11.93
1/4/2023 10:45:00 PM 7.16 44.888 0.079 7.05 4.95 11.92
1/4/2023 11:00:00 PM 7.15 44.87 0.079 7.06 4.97 11.93
1/4/2023 11:15:00 PM 7.13 44.834 0.079 7.04 5.01 11.93
1/4/2023 11:30:00 PM 7.11 44.798 0.079 7.09 5.21 11.94
1/4/2023 11:45:00 PM 7.09 44.762 0.079 7.09 5.12 11.94
1/5/2023 12:00:00 AM 7.07 44.726 0.079 7.08 4.9 11.96
1/5/2023 12:15:00 AM 7.05 44.69 0.079 7.07 5.09 11.96
1/5/2023 12:30:00 AM 7.07 44.726 0.079 7.09 4.94 11.97
1/5/2023 12:45:00 AM 7.06 44.708 0.079 7.08 4.77 11.96
1/5/2023 1:00:00 AM 7.04 44.672 0.079 7.03 4.75 11.97
1/5/2023 1:15:00 AM 7.01 44.618 0.079 7.09 4.84 11.99
1/5/2023 1:30:00 AM 6.98 44.564 0.079 7.05 4.86 12
1/5/2023 1:45:00 AM 6.95 44.51 0.079 7.09 4.79 12.01
1/5/2023 2:00:00 AM 6.92 44.456 0.079 7.08 4.71 12.02
1/5/2023 2:15:00 AM 6.88 44.384 0.079 7.08 4.61 12.04
1/5/2023 2:30:00 AM 6.84 44.312 0.079 7.07 5.91 12.05
1/5/2023 2:45:00 AM 6.8 44.24 0.079 7.06 4.92 12.06
1/5/2023 3:00:00 AM 6.77 44.186 0.079 7.06 4.75 12.07
1/5/2023 3:15:00 AM 6.74 44.132 0.079 7.09 4.76 12.09
1/5/2023 3:30:00 AM 6.7 44.06 0.079 7.09 4.66 12.1
1/5/2023 3:45:00 AM 6.66 43.988 0.079 7.04 4.7 12.11
1/5/2023 4:00:00 AM 6.61 43.898 0.079 7.08 4.79 12.12
1/5/2023 4:15:00 AM 6.57 43.826 0.079 7.06 4.57 12.12
1/5/2023 4:30:00 AM 6.53 43.754 0.079 7.05 4.62 12.14
1/5/2023 4:45:00 AM 6.5 43.7 0.079 7.08 4.5 12.15
1/5/2023 5:00:00 AM 6.46 43.628 0.079 7.09 4.54 12.17
1/5/2023 5:15:00 AM 6.43 43.574 0.079 7.06 4.57 12.19
1/5/2023 5:30:00 AM 6.39 43.502 0.079 7.09 4.52 12.2
1/5/2023 5:45:00 AM 6.35 43.43 0.079 7.05 4.36 12.22
1/5/2023 6:00:00 AM 6.31 43.358 0.079 7.09 4.47 12.24
1/5/2023 6:15:00 AM 6.26 43.268 0.079 7.09 4.38 12.25
1/5/2023 6:30:00 AM 6.22 43.196 0.079 7.04 4.39 12.26
1/5/2023 6:45:00 AM 6.18 43.124 0.079 7.08 4.49 12.27
1/5/2023 7:00:00 AM 6.14 43.052 0.079 7.08 4.41 12.29
1/5/2023 7:15:00 AM 6.1 42.98 0.079 7.08 4.32 12.3
1/5/2023 7:30:00 AM 6.06 42.908 0.079 7.08 4.27 12.32
1/5/2023 7:45:00 AM 6.02 42.836 0.079 7.01 4.32 12.33
1/5/2023 8:00:00 AM 5.98 42.764 0.079 7.1 4.44 12.35
1/5/2023 8:15:00 AM 5.96 42.728 0.079 7.1 4.12 12.38
1/5/2023 8:30:00 AM 5.95 42.71 0.079 7.08 3.96 12.41
1/5/2023 8:45:00 AM 5.94 42.692 0.079 7.12 4.03 12.45
1/5/2023 9:00:00 AM 5.95 42.71 0.079 7.07 3.8 12.51
1/5/2023 9:15:00 AM 5.96 42.728 0.079 7.15 3.81 12.55
1/5/2023 9:30:00 AM 5.97 42.746 0.079 7.11 3.93 12.58
1/5/2023 9:45:00 AM 5.96 42.728 0.079 7.12 3.97 12.57
1/5/2023 10:00:00 AM 5.96 42.728 0.079 7.15 3.85 12.6
1/5/2023 10:15:00 AM 5.98 42.764 0.078 7.18 3.65 12.62
1/5/2023 10:30:00 AM 5.98 42.764 0.078 7.19 3.65 12.63
1/5/2023 10:45:00 AM 6.01 42.818 0.078 7.19 3.38 12.65
1/5/2023 11:00:00 AM 6.04 42.872 0.078 7.21 3.45 12.67
1/5/2023 11:15:00 AM 6.07 42.926 0.078 7.22 3.42 12.68
1/5/2023 11:30:00 AM 6.12 43.016 0.078 7.22 3.23 12.69
1/5/2023 11:45:00 AM 6.15 43.07 0.078 7.23 3.38 12.67
1/5/2023 12:00:00 PM 6.2 43.16 0.078 7.21 3.4 12.67
1/5/2023 12:15:00 PM 6.24 43.232 0.078 7.24 3.34 12.65
1/5/2023 12:30:00 PM 6.27 43.286 0.078 7.25 3.26 12.64
1/5/2023 12:45:00 PM 6.31 43.358 0.078 7.25 3.37 12.64
1/5/2023 1:00:00 PM 6.38 43.484 0.078 7.25 3.36 12.61
1/5/2023 1:15:00 PM 6.44 43.592 0.078 7.25 3.28 12.59
1/5/2023 1:30:00 PM 6.48 43.664 0.078 7.2 3.47 12.58
1/5/2023 1:45:00 PM 6.53 43.754 0.078 7.26 3.39 12.56
1/5/2023 2:00:00 PM 6.53 43.754 0.078 7.25 3.51 12.54
1/5/2023 2:15:00 PM 6.53 43.754 0.078 7.25 3.48 12.53
1/5/2023 2:30:00 PM 6.48 43.664 0.078 7.23 3.45 12.51
1/5/2023 2:45:00 PM 6.47 43.646 0.078 7.17 3.38 12.51
1/5/2023 3:00:00 PM 6.49 43.682 0.078 7.24 3.49 12.49
1/5/2023 3:15:00 PM 6.49 43.682 0.078 7.24 3.55 12.48
1/5/2023 3:30:00 PM 6.5 43.7 0.078 7.25 3.48 12.46
1/5/2023 3:45:00 PM 6.51 43.718 0.078 7.15 3.57 12.45
1/5/2023 4:00:00 PM 6.5 43.7 0.078 7.22 3.55 12.44
1/5/2023 4:15:00 PM 6.49 43.682 0.078 7.21 3.77 12.42
1/5/2023 4:30:00 PM 6.48 43.664 0.078 7.21 3.63 12.38
1/5/2023 4:45:00 PM 6.46 43.628 0.078 7.17 3.64 12.35
1/5/2023 5:00:00 PM 6.44 43.592 0.078 7.17 3.67 12.31
1/5/2023 5:15:00 PM 6.42 43.556 0.078 7.14 3.66 12.29
1/5/2023 5:30:00 PM 6.4 43.52 0.078 7.16 3.66 12.27
1/5/2023 5:45:00 PM 6.37 43.466 0.078 7.15 3.67 12.27
1/5/2023 6:00:00 PM 6.34 43.412 0.078 7.13 3.78 12.26
1/5/2023 6:15:00 PM 6.3 43.34 0.078 7.13 3.8 12.27
1/5/2023 6:30:00 PM 6.27 43.286 0.078 7.11 3.71 12.27
1/5/2023 6:45:00 PM 6.23 43.214 0.078 7.08 3.69 12.28
1/5/2023 7:00:00 PM 6.19 43.142 0.078 7.1 3.72 12.29
1/5/2023 7:15:00 PM 6.15 43.07 0.078 7.06 3.78 12.3
1/5/2023 7:30:00 PM 6.1 42.98 0.078 7.07 3.94 12.31
1/5/2023 7:45:00 PM 6.05 42.89 0.079 7.07 3.84 12.32
1/5/2023 8:00:00 PM 5.99 42.782 0.079 7.11 3.93 12.32
1/5/2023 8:15:00 PM 5.94 42.692 0.079 7.09 3.84 12.33
1/5/2023 8:30:00 PM 5.88 42.584 0.079 7.09 3.74 12.35
1/5/2023 8:45:00 PM 5.83 42.494 0.079 7.05 3.81 12.36
1/5/2023 9:00:00 PM 5.78 42.404 0.079 7.06 3.8 12.39
1/5/2023 9:15:00 PM 5.73 42.314 0.079 7.09 3.85 12.42
1/5/2023 9:30:00 PM 5.68 42.224 0.079 7.08 3.65 12.43
1/5/2023 9:45:00 PM 5.63 42.134 0.079 7.11 3.68 12.45
1/5/2023 10:00:00 PM 5.59 42.062 0.079 7.07 3.85 12.47
1/5/2023 10:15:00 PM 5.55 41.99 0.079 7.1 3.78 12.47
1/5/2023 10:30:00 PM 5.51 41.918 0.079 7.1 3.75 12.49
1/5/2023 10:45:00 PM 5.48 41.864 0.079 7.04 3.68 12.52
1/5/2023 11:00:00 PM 5.44 41.792 0.079 7.1 3.76 12.52
1/5/2023 11:15:00 PM 5.39 41.702 0.079 7.1 3.82 12.53
1/5/2023 11:30:00 PM 5.35 41.63 0.079 7.09 3.69 12.54
1/5/2023 11:45:00 PM 5.3 41.54 0.079 7.07 3.67 12.55
1/6/2023 12:00:00 AM 5.26 41.468 0.079 7.11 3.71 12.56
1/6/2023 12:15:00 AM 5.22 41.396 0.079 7.06 3.58 12.58
1/6/2023 12:30:00 AM 5.18 41.324 0.079 7.1 3.66 12.59
1/6/2023 12:45:00 AM 5.14 41.252 0.079 7.1 3.66 12.61
1/6/2023 1:00:00 AM 5.11 41.198 0.079 7.1 3.46 12.62
1/6/2023 1:15:00 AM 5.09 41.162 0.079 7.04 3.7 12.63
1/6/2023 1:30:00 AM 5.06 41.108 0.079 7.1 3.68 12.64
1/6/2023 1:45:00 AM 5.04 41.072 0.079 7.11 3.59 12.65
1/6/2023 2:00:00 AM 5.01 41.018 0.079 7.1 3.65 12.65
1/6/2023 2:15:00 AM 4.99 40.982 0.079 7.08 3.65 12.67
1/6/2023 2:30:00 AM 4.97 40.946 0.079 7.06 3.66 12.68
1/6/2023 2:45:00 AM 4.95 40.91 0.079 7.08 3.47 12.69
1/6/2023 3:00:00 AM 4.93 40.874 0.079 7.05 3.53 12.69
1/6/2023 3:15:00 AM 4.92 40.856 0.079 7.12 3.55 12.7
1/6/2023 3:30:00 AM 4.9 40.82 0.079 7.11 3.45 12.7
1/6/2023 3:45:00 AM 4.89 40.802 0.079 7.11 3.52 12.7
1/6/2023 4:00:00 AM 4.88 40.784 0.079 7.07 3.5 12.71
1/6/2023 4:15:00 AM 4.87 40.766 0.079 7.07 3.48 12.72
1/6/2023 4:30:00 AM 4.86 40.748 0.079 7.12 3.52 12.71
1/6/2023 4:45:00 AM 4.85 40.73 0.079 7.06 3.46 12.72
1/6/2023 5:00:00 AM 4.84 40.712 0.079 7.12 3.4 12.72
1/6/2023 5:15:00 AM 4.83 40.694 0.079 7.12 3.51 12.72
1/6/2023 5:30:00 AM 4.82 40.676 0.079 7.12 3.43 12.72
1/6/2023 5:45:00 AM 4.81 40.658 0.079 7.11 3.4 12.74
1/6/2023 6:00:00 AM 4.81 40.658 0.079 7.09 3.38 12.73
1/6/2023 6:15:00 AM 4.8 40.64 0.079 7.11 3.45 12.73
1/6/2023 6:30:00 AM 4.79 40.622 0.079 7.12 3.52 12.75
1/6/2023 6:45:00 AM 4.77 40.586 0.079 7.12 3.43 12.74
1/6/2023 7:00:00 AM 4.76 40.568 0.079 7.1 3.45 12.74
1/6/2023 7:15:00 AM 4.74 40.532 0.079 7.09 3.39 12.75
1/6/2023 7:30:00 AM 4.72 40.496 0.079 7.12 3.33 12.75
1/6/2023 7:45:00 AM 4.69 40.442 0.079 7.11 3.24 12.75
1/6/2023 8:00:00 AM 4.67 40.406 0.079 7.1 3.32 12.76
1/6/2023 8:15:00 AM 4.66 40.388 0.079 7.12 3.34 12.79
1/6/2023 8:30:00 AM 4.66 40.388 0.079 7.04 3.26 12.81
1/6/2023 8:45:00 AM 4.66 40.388 0.079 7.13 3.27 12.85
1/6/2023 9:00:00 AM 4.66 40.388 0.078 7.1 3.17 12.91
1/6/2023 9:15:00 AM 4.68 40.424 0.078 7.15 3.14 12.96
1/6/2023 9:30:00 AM 4.71 40.478 0.078 7.18 3.06 13.01
1/6/2023 9:45:00 AM 4.74 40.532 0.078 7.18 2.93 13.03
1/6/2023 10:00:00 AM 4.76 40.568 0.078 7.2 2.99 13.04
1/6/2023 10:15:00 AM 4.79 40.622 0.078 7.21 2.96 13.04
1/6/2023 10:30:00 AM 4.81 40.658 0.078 7.18 2.95 13.06
1/6/2023 10:45:00 AM 4.84 40.712 0.078 7.23 3.04 13.08
1/6/2023 11:00:00 AM 4.87 40.766 0.078 7.21 3.03 13.09
1/6/2023 11:15:00 AM 4.9 40.82 0.078 7.25 3.16 13.08
1/6/2023 11:30:00 AM 4.94 40.892 0.079 7.24 3.4 13.09
1/6/2023 11:45:00 AM 4.98 40.964 0.079 7.26 3.59 13.09
1/6/2023 12:00:00 PM 5.02 41.036 0.079 7.24 3.61 13.09
1/6/2023 12:15:00 PM 5.06 41.108 0.079 7.27 3.47 13.08
1/6/2023 12:30:00 PM 5.09 41.162 0.079 7.22 3.37 13.08
1/6/2023 12:45:00 PM 5.14 41.252 0.079 7.3 3.08 13.07
1/6/2023 1:00:00 PM 5.17 41.306 0.079 7.29 3.01 13.06
1/6/2023 1:15:00 PM 5.22 41.396 0.08 7.28 2.84 13.04
1/6/2023 1:30:00 PM 5.25 41.45 0.08 7.26 2.9 13.04
1/6/2023 1:45:00 PM 5.28 41.504 0.08 7.31 2.92 13.02
1/6/2023 2:00:00 PM 5.31 41.558 0.079 7.3 3.08 13.02
1/6/2023 2:15:00 PM 5.35 41.63 0.079 7.31 3.12 13.01
1/6/2023 2:30:00 PM 5.37 41.666 0.079 7.3 3.16 13.01
1/6/2023 2:45:00 PM 5.39 41.702 0.08 7.31 3 12.98
1/6/2023 3:00:00 PM 5.38 41.684 0.08 7.27 3.05 12.92
1/6/2023 3:15:00 PM 5.35 41.63 0.08 7.27 3.08 12.89
1/6/2023 3:30:00 PM 5.35 41.63 0.08 7.27 3.17 12.91
1/6/2023 3:45:00 PM 5.35 41.63 0.08 7.21 3.17 12.89
1/6/2023 4:00:00 PM 5.33 41.594 0.08 7.27 3.18 12.86
1/6/2023 4:15:00 PM 5.32 41.576 0.08 7.23 3.03 12.83
1/6/2023 4:30:00 PM 5.31 41.558 0.081 7.25 3.08 12.79
1/6/2023 4:45:00 PM 5.29 41.522 0.081 7.22 3.08 12.77
1/6/2023 5:00:00 PM 5.27 41.486 0.081 7.2 3.16 12.74
1/6/2023 5:15:00 PM 5.25 41.45 0.081 7.19 3.05 12.71
1/6/2023 5:30:00 PM 5.24 41.432 0.082 7.18 3.23 12.69
1/6/2023 5:45:00 PM 5.21 41.378 0.082 7.19 3.19 12.68
1/6/2023 6:00:00 PM 5.16 41.288 0.082 7.19 3.16 12.68
1/6/2023 6:15:00 PM 5.14 41.252 0.083 7.17 3.17 12.69
1/6/2023 6:30:00 PM 5.11 41.198 0.083 7.16 3.21 12.7
1/6/2023 6:45:00 PM 5.1 41.18 0.083 7.17 3.2 12.7
1/6/2023 7:00:00 PM 5.09 41.162 0.084 7.11 3.19 12.71
1/6/2023 7:15:00 PM 5.07 41.126 0.084 7.16 3.24 12.71
1/6/2023 7:30:00 PM 5.05 41.09 0.084 7.15 3.4 12.73
1/6/2023 7:45:00 PM 5.03 41.054 0.084 7.17 3.34 12.73
1/6/2023 8:00:00 PM 5.01 41.018 0.084 7.16 3.24 12.74
1/6/2023 8:15:00 PM 4.99 40.982 0.084 7.16 3.28 12.75
1/6/2023 8:30:00 PM 4.97 40.946 0.084 7.16 3.23 12.75
1/6/2023 8:45:00 PM 4.95 40.91 0.084 7.16 3.34 12.76
1/6/2023 9:00:00 PM 4.93 40.874 0.084 7.17 3.3 12.77
1/6/2023 9:15:00 PM 4.91 40.838 0.084 7.12 3.29 12.78
1/6/2023 9:30:00 PM 4.89 40.802 0.084 7.16 3.4 12.78
1/6/2023 9:45:00 PM 4.88 40.784 0.084 7.16 3.31 12.79
1/6/2023 10:00:00 PM 4.86 40.748 0.084 7.16 3.45 12.79
1/6/2023 10:15:00 PM 4.84 40.712 0.084 7.15 3.23 12.8
1/6/2023 10:30:00 PM 4.83 40.694 0.084 7.15 3.39 12.8
1/6/2023 10:45:00 PM 4.81 40.658 0.084 7.16 3.3 12.81
1/6/2023 11:00:00 PM 4.8 40.64 0.084 7.16 3.2 12.82
1/6/2023 11:15:00 PM 4.78 40.604 0.084 7.16 3.24 12.82
1/6/2023 11:30:00 PM 4.76 40.568 0.084 7.16 3.21 12.83
1/6/2023 11:45:00 PM 4.75 40.55 0.084 7.15 3.11 12.82
1/7/2023 12:00:00 AM 4.73 40.514 0.084 7.16 3.11 12.83
1/7/2023 12:15:00 AM 4.71 40.478 0.084 7.09 3.06 12.84
1/7/2023 12:30:00 AM 4.7 40.46 0.084 7.11 3.08 12.83
1/7/2023 12:45:00 AM 4.68 40.424 0.084 7.08 3.09 12.84
1/7/2023 1:00:00 AM 4.66 40.388 0.084 7.12 3.12 12.84
1/7/2023 1:15:00 AM 4.64 40.352 0.084 7.12 3.12 12.84
1/7/2023 1:30:00 AM 4.62 40.316 0.084 7.17 3.08 12.85
1/7/2023 1:45:00 AM 4.61 40.298 0.084 7.16 3.04 12.86
1/7/2023 2:00:00 AM 4.6 40.28 0.084 7.17 2.98 12.87
1/7/2023 2:15:00 AM 4.59 40.262 0.084 7.17 3.03 12.87
1/7/2023 2:30:00 AM 4.58 40.244 0.084 7.16 3.09 12.87
1/7/2023 2:45:00 AM 4.57 40.226 0.084 7.15 2.94 12.88
1/7/2023 3:00:00 AM 4.57 40.226 0.084 7.14 3.03 12.88
1/7/2023 3:15:00 AM 4.56 40.208 0.084 7.16 3.15 12.88
1/7/2023 3:30:00 AM 4.55 40.19 0.084 7.16 3.06 12.89
1/7/2023 3:45:00 AM 4.54 40.172 0.084 7.08 3 12.89
1/7/2023 4:00:00 AM 4.54 40.172 0.084 7.16 3 12.9
1/7/2023 4:15:00 AM 4.53 40.154 0.084 7.17 2.97 12.9
1/7/2023 4:30:00 AM 4.52 40.136 0.084 7.15 2.92 12.9
1/7/2023 4:45:00 AM 4.51 40.118 0.084 7.16 2.88 12.9
1/7/2023 5:00:00 AM 4.5 40.1 0.084 7.16 2.97 12.91
1/7/2023 5:15:00 AM 4.5 40.1 0.084 7.13 3 12.91
1/7/2023 5:30:00 AM 4.49 40.082 0.084 7.16 2.9 12.92
1/7/2023 5:45:00 AM 4.48 40.064 0.084 7.14 2.96 12.92
1/7/2023 6:00:00 AM 4.48 40.064 0.084 7.11 2.96 12.93
1/7/2023 6:15:00 AM 4.47 40.046 0.084 7.16 3.09 12.92
1/7/2023 6:30:00 AM 4.45 40.01 0.084 7.16 3.04 12.93
1/7/2023 6:45:00 AM 4.45 40.01 0.084 7.16 2.89 12.93
1/7/2023 7:00:00 AM 4.43 39.974 0.084 7.16 2.97 12.94
1/7/2023 7:15:00 AM 4.42 39.956 0.084 7.16 2.92 12.94
1/7/2023 7:30:00 AM 4.41 39.938 0.084 7.11 2.91 12.95
1/7/2023 7:45:00 AM 4.4 39.92 0.084 7.13 2.88 12.96
1/7/2023 8:00:00 AM 4.39 39.902 0.084 7.13 2.83 12.98
1/7/2023 8:15:00 AM 4.39 39.902 0.084 7.18 2.81 13.01
1/7/2023 8:30:00 AM 4.4 39.92 0.084 7.13 2.78 13.06
1/7/2023 8:45:00 AM 4.4 39.92 0.084 7.18 2.69 13.09
1/7/2023 9:00:00 AM 4.42 39.956 0.084 7.19 2.69 13.14
1/7/2023 9:15:00 AM 4.44 39.992 0.084 7.2 2.64 13.19
1/7/2023 9:30:00 AM 4.48 40.064 0.084 7.23 2.72 13.22
1/7/2023 9:45:00 AM 4.51 40.118 0.084 7.26 2.69 13.26
1/7/2023 10:00:00 AM 4.54 40.172 0.084 7.23 2.55 13.28
1/7/2023 10:15:00 AM 4.57 40.226 0.083 7.29 2.61 13.28
1/7/2023 10:30:00 AM 4.6 40.28 0.083 7.22 2.52 13.28
1/7/2023 10:45:00 AM 4.62 40.316 0.083 7.3 2.58 13.28
1/7/2023 11:00:00 AM 4.65 40.37 0.083 7.31 2.54 13.27
1/7/2023 11:15:00 AM 4.68 40.424 0.083 7.31 2.52 13.29
1/7/2023 11:30:00 AM 4.71 40.478 0.083 7.3 2.49 13.28
1/7/2023 11:45:00 AM 4.73 40.514 0.083 7.3 2.51 13.26
1/7/2023 12:00:00 PM 4.75 40.55 0.083 7.27 2.53 13.25
1/7/2023 12:15:00 PM 4.77 40.586 0.083 7.31 2.55 13.26
1/7/2023 12:30:00 PM 4.8 40.64 0.083 7.28 2.59 13.26
1/7/2023 12:45:00 PM 4.82 40.676 0.083 7.32 2.57 13.25
1/7/2023 1:00:00 PM 4.85 40.73 0.083 7.32 2.46 13.26
1/7/2023 1:15:00 PM 4.87 40.766 0.083 7.33 2.46 13.24
1/7/2023 1:30:00 PM 4.88 40.784 0.083 7.32 2.51 13.21
1/7/2023 1:45:00 PM 4.9 40.82 0.083 7.33 2.47 13.21
1/7/2023 2:00:00 PM 4.93 40.874 0.083 7.24 2.38 13.2
1/7/2023 2:15:00 PM 4.94 40.892 0.083 7.3 2.43 13.2
1/7/2023 2:30:00 PM 4.96 40.928 0.083 7.29 2.55 13.19
1/7/2023 2:45:00 PM 4.97 40.946 0.083 7.32 2.57 13.15
1/7/2023 3:00:00 PM 4.98 40.964 0.083 7.28 2.49 13.11
1/7/2023 3:15:00 PM 4.97 40.946 0.083 7.3 2.52 13.1
1/7/2023 3:30:00 PM 4.97 40.946 0.083 7.28 2.53 13.09
1/7/2023 3:45:00 PM 4.97 40.946 0.083 7.3 2.6 13.06
1/7/2023 4:00:00 PM 4.97 40.946 0.083 7.28 2.61 13.05
1/7/2023 4:15:00 PM 4.97 40.946 0.083 7.28 2.63 13.02
1/7/2023 4:30:00 PM 4.96 40.928 0.083 7.27 2.64 12.98
1/7/2023 4:45:00 PM 4.94 40.892 0.083 7.25 2.74 12.95
1/7/2023 5:00:00 PM 4.93 40.874 0.083 7.24 2.67 12.92
1/7/2023 5:15:00 PM 4.92 40.856 0.084 7.23 2.71 12.89
1/7/2023 5:30:00 PM 4.9 40.82 0.084 7.16 2.69 12.87
1/7/2023 5:45:00 PM 4.88 40.784 0.084 7.21 2.63 12.86
1/7/2023 6:00:00 PM 4.87 40.766 0.084 7.21 2.81 12.85
1/7/2023 6:15:00 PM 4.85 40.73 0.084 7.2 2.84 12.86
1/7/2023 6:30:00 PM 4.83 40.694 0.084 7.2 2.93 12.86
1/7/2023 6:45:00 PM 4.8 40.64 0.084 7.19 2.75 12.86
1/7/2023 7:00:00 PM 4.79 40.622 0.084 7.19 2.8 12.87
1/7/2023 7:15:00 PM 4.77 40.586 0.084 7.12 2.79 12.87
1/7/2023 7:30:00 PM 4.75 40.55 0.084 7.19 2.87 12.88
1/7/2023 7:45:00 PM 4.73 40.514 0.084 7.18 2.8 12.88
1/7/2023 8:00:00 PM 4.72 40.496 0.084 7.18 2.87 12.88
1/7/2023 8:15:00 PM 4.69 40.442 0.084 7.19 2.79 12.88
1/7/2023 8:30:00 PM 4.68 40.424 0.084 7.18 2.83 12.89
1/7/2023 8:45:00 PM 4.65 40.37 0.084 7.18 2.86 12.9
1/7/2023 9:00:00 PM 4.63 40.334 0.084 7.19 2.73 12.9
1/7/2023 9:15:00 PM 4.62 40.316 0.084 7.18 2.85 12.91
1/7/2023 9:30:00 PM 4.59 40.262 0.084 7.18 2.85 12.92
1/7/2023 9:45:00 PM 4.57 40.226 0.084 7.13 2.8 12.93
1/7/2023 10:00:00 PM 4.56 40.208 0.084 7.15 2.71 12.93
1/7/2023 10:15:00 PM 4.54 40.172 0.084 7.17 2.7 12.95
1/7/2023 10:30:00 PM 4.53 40.154 0.085 7.16 2.77 12.96
1/7/2023 10:45:00 PM 4.51 40.118 0.085 7.18 2.76 12.96
1/7/2023 11:00:00 PM 4.49 40.082 0.085 7.19 2.72 12.97
1/7/2023 11:15:00 PM 4.48 40.064 0.085 7.19 2.7 12.98
1/7/2023 11:30:00 PM 4.47 40.046 0.085 7.19 2.67 12.98
1/7/2023 11:45:00 PM 4.45 40.01 0.085 7.19 2.69 12.98
1/8/2023 12:00:00 AM 4.44 39.992 0.085 7.18 2.69 13
1/8/2023 12:15:00 AM 4.42 39.956 0.085 7.18 2.64 13
1/8/2023 12:30:00 AM 4.41 39.938 0.085 7.19 2.69 13.01
1/8/2023 12:45:00 AM 4.39 39.902 0.085 7.13 2.75 13.01
1/8/2023 1:00:00 AM 4.38 39.884 0.085 7.16 2.71 13.01
1/8/2023 1:15:00 AM 4.37 39.866 0.085 7.16 2.65 13.02
1/8/2023 1:30:00 AM 4.36 39.848 0.085 7.14 2.54 13.02
1/8/2023 1:45:00 AM 4.35 39.83 0.085 7.16 2.6 13.03
1/8/2023 2:00:00 AM 4.33 39.794 0.085 7.14 2.68 13.04
1/8/2023 2:15:00 AM 4.32 39.776 0.085 7.18 2.58 13.04
1/8/2023 2:30:00 AM 4.31 39.758 0.085 7.18 2.55 13.05
1/8/2023 2:45:00 AM 4.29 39.722 0.085 7.18 2.55 13.05
1/8/2023 3:00:00 AM 4.28 39.704 0.085 7.16 2.53 13.06
1/8/2023 3:15:00 AM 4.26 39.668 0.085 7.15 2.59 13.07
1/8/2023 3:30:00 AM 4.24 39.632 0.085 7.15 2.57 13.07
1/8/2023 3:45:00 AM 4.22 39.596 0.085 7.18 2.57 13.07
1/8/2023 4:00:00 AM 4.19 39.542 0.085 7.19 2.62 13.09
1/8/2023 4:15:00 AM 4.18 39.524 0.085 7.18 2.54 13.09
1/8/2023 4:30:00 AM 4.17 39.506 0.085 7.19 2.5 13.09
1/8/2023 4:45:00 AM 4.15 39.47 0.085 7.19 2.49 13.09
1/8/2023 5:00:00 AM 4.11 39.398 0.085 7.17 2.5 13.09
1/8/2023 5:15:00 AM 4.1 39.38 0.085 7.19 2.48 13.1
1/8/2023 5:30:00 AM 4.09 39.362 0.085 7.14 2.56 13.1
1/8/2023 5:45:00 AM 4.09 39.362 0.085 7.19 2.57 13.1
1/8/2023 6:00:00 AM 4.07 39.326 0.085 7.19 2.54 13.1
1/8/2023 6:15:00 AM 4.06 39.308 0.085 7.19 2.51 13.11
1/8/2023 6:30:00 AM 4.05 39.29 0.085 7.19 2.45 13.11
1/8/2023 6:45:00 AM 4.04 39.272 0.085 7.18 2.52 13.12
1/8/2023 7:00:00 AM 4.02 39.236 0.085 7.2 2.46 13.12
1/8/2023 7:15:00 AM 4 39.2 0.085 7.2 2.51 13.13
1/8/2023 7:30:00 AM 3.99 39.182 0.085 7.19 2.51 13.14
1/8/2023 7:45:00 AM 3.98 39.164 0.085 7.14 2.47 13.15
1/8/2023 8:00:00 AM 3.97 39.146 0.085 7.16 2.56 13.18
1/8/2023 8:15:00 AM 3.96 39.128 0.085 7.22 2.45 13.22
1/8/2023 8:30:00 AM 3.96 39.128 0.085 7.18 2.45 13.27
1/8/2023 8:45:00 AM 3.96 39.128 0.085 7.24 2.34 13.33
1/8/2023 9:00:00 AM 3.97 39.146 0.085 7.25 2.43 13.38
1/8/2023 9:15:00 AM 3.98 39.164 0.085 7.26 2.39 13.44
1/8/2023 9:30:00 AM 4 39.2 0.085 7.27 2.34 13.47
1/8/2023 9:45:00 AM 4.02 39.236 0.085 7.3 2.34 13.51
1/8/2023 10:00:00 AM 4.04 39.272 0.085 7.31 2.27 13.54
1/8/2023 10:15:00 AM 4.06 39.308 0.085 7.3 2.41 13.54
1/8/2023 10:30:00 AM 4.08 39.344 0.085 7.33 2.22 13.55
1/8/2023 10:45:00 AM 4.05 39.29 0.085 7.33 2.24 13.54
1/8/2023 11:00:00 AM 4.09 39.362 0.085 7.33 2.23 13.57
1/8/2023 11:15:00 AM 4.1 39.38 0.085 7.34 2.35 13.57
1/8/2023 11:30:00 AM 4.11 39.398 0.085 7.33 2.26 13.56
1/8/2023 11:45:00 AM 4.19 39.542 0.085 7.34 2.21 13.55
1/8/2023 12:00:00 PM 4.24 39.632 0.085 7.36 2.27 13.53
1/8/2023 12:15:00 PM 4.3 39.74 0.085 7.34 2.23 13.51
1/8/2023 12:30:00 PM 4.34 39.812 0.085 7.36 2.3 13.49
1/8/2023 12:45:00 PM 4.39 39.902 0.085 7.37 2.19 13.48
1/8/2023 1:00:00 PM 4.44 39.992 0.085 7.36 2.13 13.46
1/8/2023 1:15:00 PM 4.49 40.082 0.085 7.37 2.26 13.44
1/8/2023 1:30:00 PM 4.53 40.154 0.085 7.37 2.34 13.41
1/8/2023 1:45:00 PM 4.53 40.154 0.085 7.33 2.24 13.39
1/8/2023 2:00:00 PM 4.59 40.262 0.084 7.33 2.21 13.39
1/8/2023 2:15:00 PM 4.6 40.28 0.084 7.35 2.24 13.37
1/8/2023 2:30:00 PM 4.61 40.298 0.085 7.35 2.26 13.35
1/8/2023 2:45:00 PM 4.62 40.316 0.084 7.38 2.23 13.32
1/8/2023 3:00:00 PM 4.63 40.334 0.085 7.37 2.34 13.32
1/8/2023 3:15:00 PM 4.64 40.352 0.084 7.38 2.27 13.3
1/8/2023 3:30:00 PM 4.63 40.334 0.085 7.37 2.33 13.28
1/8/2023 3:45:00 PM 4.62 40.316 0.085 7.29 2.28 13.23
1/8/2023 4:00:00 PM 4.6 40.28 0.085 7.31 2.28 13.21
1/8/2023 4:15:00 PM 4.58 40.244 0.085 7.3 2.44 13.17
1/8/2023 4:30:00 PM 4.55 40.19 0.085 7.32 2.33 13.15
1/8/2023 4:45:00 PM 4.52 40.136 0.085 7.3 2.42 13.11
1/8/2023 5:00:00 PM 4.47 40.046 0.085 7.29 2.34 13.08
1/8/2023 5:15:00 PM 4.42 39.956 0.085 7.27 2.31 13.05
1/8/2023 5:30:00 PM 4.39 39.902 0.085 7.26 2.36 13.03
1/8/2023 5:45:00 PM 4.36 39.848 0.085 7.24 2.37 13.02
1/8/2023 6:00:00 PM 4.31 39.758 0.085 7.21 2.42 13.02
1/8/2023 6:15:00 PM 4.27 39.686 0.085 7.23 2.5 13.01
1/8/2023 6:30:00 PM 4.22 39.596 0.085 7.23 2.37 13.01
1/8/2023 6:45:00 PM 4.17 39.506 0.085 7.22 2.47 13.02
1/8/2023 7:00:00 PM 4.12 39.416 0.085 7.2 2.59 13.02
1/8/2023 7:15:00 PM 4.06 39.308 0.086 7.2 2.59 13.02
1/8/2023 7:30:00 PM 4.01 39.218 0.086 7.19 2.53 13.03
1/8/2023 7:45:00 PM 3.96 39.128 0.086 7.19 2.5 13.05
1/8/2023 8:00:00 PM 3.93 39.074 0.086 7.17 2.5 13.07
1/8/2023 8:15:00 PM 3.9 39.02 0.086 7.17 2.42 13.09
1/8/2023 8:30:00 PM 3.88 38.984 0.086 7.2 2.43 13.09
1/8/2023 8:45:00 PM 3.86 38.948 0.086 7.2 2.59 13.11
1/8/2023 9:00:00 PM 3.83 38.894 0.086 7.2 2.54 13.11
1/8/2023 9:15:00 PM 3.8 38.84 0.086 7.15 2.53 13.12
1/8/2023 9:30:00 PM 3.76 38.768 0.086 7.2 2.4 13.14
1/8/2023 9:45:00 PM 3.72 38.696 0.086 7.2 2.37 13.15
1/8/2023 10:00:00 PM 3.67 38.606 0.086 7.19 2.39 13.16
1/8/2023 10:15:00 PM 3.63 38.534 0.086 7.18 2.38 13.17
1/8/2023 10:30:00 PM 3.6 38.48 0.086 7.19 2.41 13.18
1/8/2023 10:45:00 PM 3.58 38.444 0.086 7.18 2.36 13.18
1/8/2023 11:00:00 PM 3.56 38.408 0.086 7.19 2.4 13.21
1/8/2023 11:15:00 PM 3.54 38.372 0.086 7.19 2.46 13.21
1/8/2023 11:30:00 PM 3.53 38.354 0.086 7.19 2.34 13.2
1/8/2023 11:45:00 PM 3.51 38.318 0.086 7.19 2.43 13.2
1/9/2023 12:00:00 AM 3.49 38.282 0.086 7.18 2.38 13.22
1/9/2023 12:15:00 AM 3.48 38.264 0.086 7.21 2.44 13.21
1/9/2023 12:30:00 AM 3.47 38.246 0.086 7.2 2.41 13.21
1/9/2023 12:45:00 AM 3.46 38.228 0.086 7.2 2.34 13.22
1/9/2023 1:00:00 AM 3.45 38.21 0.086 7.2 2.37 13.21
1/9/2023 1:15:00 AM 3.45 38.21 0.086 7.14 2.33 13.22
1/9/2023 1:30:00 AM 3.44 38.192 0.086 7.21 2.3 13.22
1/9/2023 1:45:00 AM 3.43 38.174 0.086 7.19 2.34 13.21
1/9/2023 2:00:00 AM 3.42 38.156 0.086 7.18 2.37 13.22
1/9/2023 2:15:00 AM 3.42 38.156 0.086 7.19 2.42 13.22
1/9/2023 2:30:00 AM 3.41 38.138 0.086 7.21 2.5 13.22
1/9/2023 2:45:00 AM 3.39 38.102 0.086 7.13 2.47 13.23
1/9/2023 3:00:00 AM 3.39 38.102 0.086 7.17 2.43 13.23
1/9/2023 3:15:00 AM 3.38 38.084 0.087 7.17 2.42 13.23
1/9/2023 3:30:00 AM 3.37 38.066 0.086 7.17 2.36 13.22
1/9/2023 3:45:00 AM 3.36 38.048 0.087 7.2 2.31 13.23
1/9/2023 4:00:00 AM 3.34 38.012 0.086 7.2 2.35 13.24
1/9/2023 4:15:00 AM 3.33 37.994 0.086 7.21 2.36 13.24
1/9/2023 4:30:00 AM 3.31 37.958 0.086 7.2 2.32 13.26
1/9/2023 4:45:00 AM 3.28 37.904 0.087 7.2 2.33 13.25
1/9/2023 5:00:00 AM 3.25 37.85 0.087 7.19 2.26 13.27
1/9/2023 5:15:00 AM 3.21 37.778 0.087 7.19 2.27 13.27
1/9/2023 5:30:00 AM 3.18 37.724 0.087 7.2 2.36 13.29
1/9/2023 5:45:00 AM 3.15 37.67 0.087 7.2 2.33 13.29
1/9/2023 6:00:00 AM 3.14 37.652 0.087 7.15 2.29 13.3
1/9/2023 6:15:00 AM 3.12 37.616 0.087 7.16 2.22 13.31
1/9/2023 6:30:00 AM 3.11 37.598 0.087 7.2 2.27 13.32
1/9/2023 6:45:00 AM 3.1 37.58 0.087 7.2 2.26 13.33
1/9/2023 7:00:00 AM 3.1 37.58 0.087 7.2 2.26 13.33
1/9/2023 7:15:00 AM 3.1 37.58 0.087 7.21 2.27 13.33
1/9/2023 7:30:00 AM 3.1 37.58 0.087 7.22 2.26 13.34
1/9/2023 7:45:00 AM 3.11 37.598 0.087 7.21 2.29 13.36
1/9/2023 8:00:00 AM 3.11 37.598 0.087 7.22 2.29 13.39
1/9/2023 8:15:00 AM 3.12 37.616 0.087 7.22 2.23 13.43
1/9/2023 8:30:00 AM 3.13 37.634 0.087 7.24 2.27 13.49
1/9/2023 8:45:00 AM 3.13 37.634 0.086 7.26 2.35 13.55
1/9/2023 9:00:00 AM 3.14 37.652 0.086 7.21 2.33 13.6
1/9/2023 9:15:00 AM 3.15 37.67 0.086 7.28 2.26 13.65
1/9/2023 9:30:00 AM 3.17 37.706 0.086 7.31 2.3 13.69
1/9/2023 9:45:00 AM 3.19 37.742 0.086 7.32 2.23 13.72
1/9/2023 10:00:00 AM 3.2 37.76 0.086 7.35 2.2 13.74
1/9/2023 10:15:00 AM 3.23 37.814 0.086 7.35 2.09 13.76
1/9/2023 10:30:00 AM 3.25 37.85 0.086 7.35 2.14 13.77
1/9/2023 10:45:00 AM 3.29 37.922 0.086 7.36 2.14 13.77
1/9/2023 11:00:00 AM 3.31 37.958 0.086 7.36 2.11 13.74
1/9/2023 11:15:00 AM 3.36 38.048 0.086 7.36 2.05 13.71
1/9/2023 11:30:00 AM 3.42 38.156 0.086 7.34 2.11 13.69
1/9/2023 11:45:00 AM 3.49 38.282 0.086 7.36 2.08 13.68
1/9/2023 12:00:00 PM 3.55 38.39 0.086 7.38 2.11 13.67
1/9/2023 12:15:00 PM 3.59 38.462 0.086 7.38 2.05 13.67
1/9/2023 12:30:00 PM 3.64 38.552 0.086 7.36 2.11 13.66
1/9/2023 12:45:00 PM 3.69 38.642 0.086 7.37 2.07 13.64
1/9/2023 1:00:00 PM 3.75 38.75 0.086 7.39 2.07 13.62
1/9/2023 1:15:00 PM 3.82 38.876 0.086 7.4 2.03 13.59
1/9/2023 1:30:00 PM 3.88 38.984 0.086 7.41 2.04 13.56
1/9/2023 1:45:00 PM 3.91 39.038 0.086 7.41 2.05 13.54
1/9/2023 2:00:00 PM 3.94 39.092 0.086 7.4 2.07 13.51
1/9/2023 2:15:00 PM 3.97 39.146 0.086 7.35 2.04 13.49
1/9/2023 2:30:00 PM 4 39.2 0.086 7.39 2.17 13.46
1/9/2023 2:45:00 PM 4.03 39.254 0.086 7.39 2.06 13.43
1/9/2023 3:00:00 PM 4.05 39.29 0.086 7.33 2.05 13.41
1/9/2023 3:15:00 PM 4.07 39.326 0.086 7.36 2.11 13.38
1/9/2023 3:30:00 PM 4.07 39.326 0.086 7.39 2.17 13.37
1/9/2023 3:45:00 PM 4.07 39.326 0.086 7.37 2.12 13.34
1/9/2023 4:00:00 PM 4.05 39.29 0.086 7.35 2.17 13.32
1/9/2023 4:15:00 PM 4.03 39.254 0.086 7.33 2.19 13.3
1/9/2023 4:30:00 PM 3.99 39.182 0.086 7.34 2.13 13.27
1/9/2023 4:45:00 PM 3.95 39.11 0.086 7.33 2.18 13.25
1/9/2023 5:00:00 PM 3.91 39.038 0.086 7.31 2.2 13.21
1/9/2023 5:15:00 PM 3.87 38.966 0.086 7.28 2.25 13.18
1/9/2023 5:30:00 PM 3.83 38.894 0.086 7.28 2.25 13.16
1/9/2023 5:45:00 PM 3.79 38.822 0.086 7.27 2.34 13.15
1/9/2023 6:00:00 PM 3.75 38.75 0.086 7.25 2.32 13.15
1/9/2023 6:15:00 PM 3.7 38.66 0.087 7.24 2.25 13.14
1/9/2023 6:30:00 PM 3.66 38.588 0.087 7.24 2.31 13.16
1/9/2023 6:45:00 PM 3.62 38.516 0.087 7.21 2.55 13.16
1/9/2023 7:00:00 PM 3.58 38.444 0.087 7.22 2.52 13.16
1/9/2023 7:15:00 PM 3.54 38.372 0.087 7.23 2.32 13.17
1/9/2023 7:30:00 PM 3.5 38.3 0.087 7.16 2.58 13.17
1/9/2023 7:45:00 PM 3.45 38.21 0.087 7.21 2.49 13.18
1/9/2023 8:00:00 PM 3.41 38.138 0.087 7.22 2.4 13.19
1/9/2023 8:15:00 PM 3.37 38.066 0.087 7.21 2.44 13.2
1/9/2023 8:30:00 PM 3.33 37.994 0.087 7.21 2.45 13.23
1/9/2023 8:45:00 PM 3.29 37.922 0.087 7.2 2.36 13.25
1/9/2023 9:00:00 PM 3.25 37.85 0.087 7.2 2.36 13.26
1/9/2023 9:15:00 PM 3.23 37.814 0.087 7.21 2.35 13.27
1/9/2023 9:30:00 PM 3.22 37.796 0.087 7.22 2.38 13.28
1/9/2023 9:45:00 PM 3.2 37.76 0.087 7.22 2.37 13.29
1/9/2023 10:00:00 PM 3.19 37.742 0.087 7.21 2.36 13.29
1/9/2023 10:15:00 PM 3.18 37.724 0.087 7.21 2.31 13.3
1/9/2023 10:30:00 PM 3.19 37.742 0.087 7.22 2.35 13.3
1/9/2023 10:45:00 PM 3.19 37.742 0.087 7.16 2.33 13.31
1/9/2023 11:00:00 PM 3.19 37.742 0.087 7.23 2.24 13.32
1/9/2023 11:15:00 PM 3.18 37.724 0.087 7.23 2.46 13.32
1/9/2023 11:30:00 PM 3.17 37.706 0.087 7.21 2.42 13.32
1/9/2023 11:45:00 PM 3.16 37.688 0.087 7.23 2.34 13.32
1/10/2023 12:00:00 AM 3.15 37.67 0.088 7.14 2.32 13.33
1/10/2023 12:15:00 AM 3.14 37.652 0.088 7.23 2.35 13.34
1/10/2023 12:30:00 AM 3.14 37.652 0.088 7.21 2.4 13.33
1/10/2023 12:45:00 AM 3.13 37.634 0.088 7.22 2.76 13.34
1/10/2023 1:00:00 AM 3.12 37.616 0.088 7.21 2.25 13.34
1/10/2023 1:15:00 AM 3.12 37.616 0.088 7.23 2.23 13.34
1/10/2023 1:30:00 AM 3.12 37.616 0.088 7.22 2.25 13.33
1/10/2023 1:45:00 AM 3.11 37.598 0.088 7.22 2.32 13.34
1/10/2023 2:00:00 AM 3.12 37.616 0.088 7.23 2.31 13.34
1/10/2023 2:15:00 AM 3.13 37.634 0.088 7.23 2.3 13.34
1/10/2023 2:30:00 AM 3.13 37.634 0.088 7.23 2.23 13.33
1/10/2023 2:45:00 AM 3.14 37.652 0.088 7.17 2.35 13.35
1/10/2023 3:00:00 AM 3.14 37.652 0.088 7.2 2.32 13.34
1/10/2023 3:15:00 AM 3.15 37.67 0.088 7.22 2.3 13.33
1/10/2023 3:30:00 AM 3.16 37.688 0.088 7.2 2.2 13.33
1/10/2023 3:45:00 AM 3.17 37.706 0.088 7.18 2.24 13.33
1/10/2023 4:00:00 AM 3.17 37.706 0.088 7.24 2.18 13.33
1/10/2023 4:15:00 AM 3.17 37.706 0.088 7.22 2.16 13.33
1/10/2023 4:30:00 AM 3.18 37.724 0.088 7.24 2.24 13.32
1/10/2023 4:45:00 AM 3.18 37.724 0.088 7.23 2.16 13.32
1/10/2023 5:00:00 AM 3.18 37.724 0.088 7.23 2.24 13.33
1/10/2023 5:15:00 AM 3.19 37.742 0.088 7.21 2.27 13.32
1/10/2023 5:30:00 AM 3.19 37.742 0.088 7.23 2.26 13.32
1/10/2023 5:45:00 AM 3.19 37.742 0.088 7.23 2.24 13.32
1/10/2023 6:00:00 AM 3.2 37.76 0.088 7.23 2.33 13.32
1/10/2023 6:15:00 AM 3.2 37.76 0.088 7.17 2.44 13.32
1/10/2023 6:30:00 AM 3.2 37.76 0.088 7.18 2.34 13.32
1/10/2023 6:45:00 AM 3.21 37.778 0.088 7.23 2.38 13.31
1/10/2023 7:00:00 AM 3.21 37.778 0.088 7.24 2.37 13.31
1/10/2023 7:15:00 AM 3.21 37.778 0.088 7.22 2.41 13.31
1/10/2023 7:30:00 AM 3.22 37.796 0.088 7.23 2.42 13.31
1/10/2023 7:45:00 AM 3.22 37.796 0.088 7.23 2.42 13.32
1/10/2023 8:00:00 AM 3.22 37.796 0.088 7.23 2.32 13.33
1/10/2023 8:15:00 AM 3.23 37.814 0.088 7.24 2.32 13.35
1/10/2023 8:30:00 AM 3.23 37.814 0.088 7.23 2.38 13.38
1/10/2023 8:45:00 AM 3.25 37.85 0.088 7.23 2.43 13.4
1/10/2023 9:00:00 AM 3.26 37.868 0.088 7.25 2.28 13.41
1/10/2023 9:15:00 AM 3.28 37.904 0.088 7.26 2.19 13.45
1/10/2023 9:30:00 AM 3.29 37.922 0.088 7.26 2.21 13.49
1/10/2023 9:45:00 AM 3.32 37.976 0.088 7.29 2.22 13.54
1/10/2023 10:00:00 AM 3.36 38.048 0.087 7.31 2.21 13.59
1/10/2023 10:15:00 AM 3.4 38.12 0.087 7.28 2.12 13.63
1/10/2023 10:30:00 AM 3.45 38.21 0.087 7.35 2.07 13.67
1/10/2023 10:45:00 AM 3.49 38.282 0.087 7.36 2.03 13.67
1/10/2023 11:00:00 AM 3.52 38.336 0.087 7.38 1.97 13.68
1/10/2023 11:15:00 AM 3.55 38.39 0.087 7.32 2.03 13.68
1/10/2023 11:30:00 AM 3.58 38.444 0.087 7.39 1.98 13.69
1/10/2023 11:45:00 AM 3.61 38.498 0.087 7.39 1.98 13.69
1/10/2023 12:00:00 PM 3.65 38.57 0.087 7.4 1.97 13.69
1/10/2023 12:15:00 PM 3.68 38.624 0.087 7.36 1.94 13.69
1/10/2023 12:30:00 PM 3.72 38.696 0.087 7.42 1.99 13.68
1/10/2023 12:45:00 PM 3.76 38.768 0.087 7.41 2.01 13.67
1/10/2023 1:00:00 PM 3.8 38.84 0.087 7.43 2.04 13.67
1/10/2023 1:15:00 PM 3.83 38.894 0.087 7.42 1.98 13.65
1/10/2023 1:30:00 PM 3.88 38.984 0.087 7.4 1.99 13.64
1/10/2023 1:45:00 PM 3.93 39.074 0.087 7.45 1.97 13.63
1/10/2023 2:00:00 PM 3.97 39.146 0.087 7.44 1.97 13.61
1/10/2023 2:15:00 PM 4.01 39.218 0.087 7.42 1.9 13.58
1/10/2023 2:30:00 PM 4.04 39.272 0.087 7.45 2.04 13.56
1/10/2023 2:45:00 PM 4.07 39.326 0.087 7.45 1.97 13.54
1/10/2023 3:00:00 PM 4.09 39.362 0.087 7.44 2.01 13.51
1/10/2023 3:15:00 PM 4.1 39.38 0.087 7.43 2.03 13.49
1/10/2023 3:30:00 PM 4.11 39.398 0.087 7.39 2.09 13.44
1/10/2023 3:45:00 PM 4.11 39.398 0.087 7.41 2.02 13.38
1/10/2023 4:00:00 PM 4.11 39.398 0.087 7.32 1.97 13.33
1/10/2023 4:15:00 PM 4.11 39.398 0.087 7.32 2.06 13.28
1/10/2023 4:30:00 PM 4.1 39.38 0.087 7.31 2.1 13.24
1/10/2023 4:45:00 PM 4.09 39.362 0.087 7.3 2.06 13.19
1/10/2023 5:00:00 PM 4.08 39.344 0.087 7.31 2.1 13.14
1/10/2023 5:15:00 PM 4.07 39.326 0.087 7.3 2.14 13.11
1/10/2023 5:30:00 PM 4.06 39.308 0.088 7.28 2.13 13.08
1/10/2023 5:45:00 PM 4.06 39.308 0.088 7.27 2.15 13.07
1/10/2023 6:00:00 PM 4.05 39.29 0.088 7.27 2.17 13.06
1/10/2023 6:15:00 PM 4.04 39.272 0.088 7.26 2.19 13.04
1/10/2023 6:30:00 PM 4.03 39.254 0.088 7.26 2.2 13.04
1/10/2023 6:45:00 PM 4.02 39.236 0.088 7.25 2.19 13.04
1/10/2023 7:00:00 PM 4.01 39.218 0.088 7.24 2.1 13.03
1/10/2023 7:15:00 PM 4 39.2 0.088 7.25 2.16 13.03
1/10/2023 7:30:00 PM 3.99 39.182 0.088 7.23 2.15 13.04
1/10/2023 7:45:00 PM 3.98 39.164 0.088 7.24 2.23 13.04
1/10/2023 8:00:00 PM 3.97 39.146 0.088 7.15 2.15 13.05
1/10/2023 8:15:00 PM 3.96 39.128 0.088 7.24 2.26 13.05
1/10/2023 8:30:00 PM 3.95 39.11 0.088 7.23 2.19 13.05
1/10/2023 8:45:00 PM 3.93 39.074 0.088 7.23 2.32 13.06
1/10/2023 9:00:00 PM 3.91 39.038 0.088 7.22 2.24 13.07
1/10/2023 9:15:00 PM 3.89 39.002 0.088 7.16 2.27 13.08
1/10/2023 9:30:00 PM 3.87 38.966 0.088 7.23 2.28 13.09
1/10/2023 9:45:00 PM 3.85 38.93 0.088 7.22 2.22 13.1
1/10/2023 10:00:00 PM 3.84 38.912 0.089 7.23 2.21 13.1
1/10/2023 10:15:00 PM 3.83 38.894 0.089 7.23 2.22 13.11
1/10/2023 10:30:00 PM 3.82 38.876 0.089 7.17 2.16 13.13
1/10/2023 10:45:00 PM 3.81 38.858 0.089 7.23 2.18 13.13
1/10/2023 11:00:00 PM 3.8 38.84 0.089 7.19 2.17 13.13
1/10/2023 11:15:00 PM 3.79 38.822 0.089 7.19 2.37 13.13
1/10/2023 11:30:00 PM 3.78 38.804 0.089 7.23 2.27 13.14
1/10/2023 11:45:00 PM 3.77 38.786 0.089 7.23 2.15 13.14
1/11/2023 12:00:00 AM 3.76 38.768 0.089 7.22 2.19 13.14
1/11/2023 12:15:00 AM 3.75 38.75 0.089 7.21 2.15 13.15
1/11/2023 12:30:00 AM 3.75 38.75 0.089 7.23 2.13 13.15
1/11/2023 12:45:00 AM 3.74 38.732 0.089 7.22 2.16 13.16
1/11/2023 1:00:00 AM 3.73 38.714 0.089 7.18 2.18 13.16
1/11/2023 1:15:00 AM 3.72 38.696 0.089 7.23 2.16 13.16
1/11/2023 1:30:00 AM 3.7 38.66 0.089 7.23 2.08 13.16
1/11/2023 1:45:00 AM 3.66 38.588 0.089 7.22 2.08 13.17
1/11/2023 2:00:00 AM 3.63 38.534 0.089 7.23 2.03 13.18
1/11/2023 2:15:00 AM 3.59 38.462 0.089 7.21 2.07 13.19
1/11/2023 2:30:00 AM 3.56 38.408 0.089 7.16 2.04 13.2
1/11/2023 2:45:00 AM 3.55 38.39 0.089 7.23 2.05 13.21
1/11/2023 3:00:00 AM 3.54 38.372 0.089 7.23 2.11 13.22
1/11/2023 3:15:00 AM 3.53 38.354 0.089 7.22 2.01 13.23
1/11/2023 3:30:00 AM 3.51 38.318 0.089 7.21 1.99 13.23
1/11/2023 3:45:00 AM 3.49 38.282 0.089 7.18 2.17 13.23
1/11/2023 4:00:00 AM 3.48 38.264 0.089 7.22 2.02 13.23
1/11/2023 4:15:00 AM 3.47 38.246 0.089 7.23 2.13 13.23
1/11/2023 4:30:00 AM 3.47 38.246 0.089 7.18 2.13 13.24
1/11/2023 4:45:00 AM 3.46 38.228 0.089 7.23 2.11 13.24
1/11/2023 5:00:00 AM 3.46 38.228 0.089 7.22 2.11 13.24
1/11/2023 5:15:00 AM 3.46 38.228 0.089 7.22 2.04 13.24
1/11/2023 5:30:00 AM 3.46 38.228 0.089 7.18 2.28 13.25
1/11/2023 5:45:00 AM 3.46 38.228 0.089 7.22 2.29 13.25
1/11/2023 6:00:00 AM 3.45 38.21 0.089 7.24 2.15 13.25
1/11/2023 6:15:00 AM 3.45 38.21 0.089 7.17 2.21 13.25
1/11/2023 6:30:00 AM 3.44 38.192 0.089 7.24 2.08 13.25
1/11/2023 6:45:00 AM 3.44 38.192 0.089 7.22 2.12 13.26
1/11/2023 7:00:00 AM 3.43 38.174 0.089 7.23 2.13 13.26
1/11/2023 7:15:00 AM 3.43 38.174 0.089 7.24 2.17 13.26
1/11/2023 7:30:00 AM 3.42 38.156 0.089 7.21 2.03 13.27
1/11/2023 7:45:00 AM 3.42 38.156 0.089 7.18 2.03 13.29
1/11/2023 8:00:00 AM 3.39 38.102 0.089 7.25 1.99 13.34
1/11/2023 8:15:00 AM 3.37 38.066 0.089 7.23 1.99 13.41
1/11/2023 8:30:00 AM 3.37 38.066 0.089 7.29 2.01 13.51
1/11/2023 8:45:00 AM 3.38 38.084 0.089 7.3 1.92 13.59
1/11/2023 9:00:00 AM 3.39 38.102 0.089 7.26 1.98 13.65
1/11/2023 9:15:00 AM 3.41 38.138 0.089 7.34 1.91 13.7
1/11/2023 9:30:00 AM 3.43 38.174 0.089 7.36 1.88 13.73
1/11/2023 9:45:00 AM 3.46 38.228 0.089 7.38 1.89 13.76
1/11/2023 10:00:00 AM 3.5 38.3 0.089 7.38 1.83 13.79
1/11/2023 10:15:00 AM 3.55 38.39 0.089 7.4 1.86 13.81
1/11/2023 10:30:00 AM 3.6 38.48 0.089 7.37 1.91 13.83
1/11/2023 10:45:00 AM 3.65 38.57 0.088 7.43 2.09 13.82
1/11/2023 11:00:00 AM 3.72 38.696 0.088 7.44 1.94 13.81
1/11/2023 11:15:00 AM 3.77 38.786 0.088 7.44 1.87 13.81
1/11/2023 11:30:00 AM 3.84 38.912 0.088 7.46 1.88 13.79
1/11/2023 11:45:00 AM 3.89 39.002 0.088 7.45 1.91 13.77
1/11/2023 12:00:00 PM 3.97 39.146 0.088 7.45 1.84 13.74
1/11/2023 12:15:00 PM 4.03 39.254 0.088 7.48 1.86 13.73
1/11/2023 12:30:00 PM 4.09 39.362 0.088 7.48 1.9 13.71
1/11/2023 12:45:00 PM 4.13 39.434 0.088 7.48 1.91 13.7
1/11/2023 1:00:00 PM 4.19 39.542 0.088 7.48 1.87 13.68
1/11/2023 1:15:00 PM 4.24 39.632 0.088 7.49 1.94 13.67
1/11/2023 1:30:00 PM 4.28 39.704 0.088 7.44 1.86 13.64
1/11/2023 1:45:00 PM 4.31 39.758 0.088 7.49 1.81 13.63
1/11/2023 2:00:00 PM 4.32 39.776 0.088 7.49 1.85 13.6
1/11/2023 2:15:00 PM 4.34 39.812 0.088 7.49 1.89 13.59
1/11/2023 2:30:00 PM 4.36 39.848 0.088 7.48 1.83 13.57
1/11/2023 2:45:00 PM 4.38 39.884 0.088 7.48 1.87 13.57
1/11/2023 3:00:00 PM 4.39 39.902 0.088 7.49 1.87 13.56
1/11/2023 3:15:00 PM 4.4 39.92 0.088 7.42 1.86 13.54
1/11/2023 3:30:00 PM 4.4 39.92 0.088 7.47 1.91 13.51
1/11/2023 3:45:00 PM 4.4 39.92 0.088 7.44 1.94 13.47
1/11/2023 4:00:00 PM 4.4 39.92 0.088 7.45 1.92 13.42
1/11/2023 4:15:00 PM 4.39 39.902 0.088 7.43 1.86 13.37
1/11/2023 4:30:00 PM 4.37 39.866 0.088 7.4 1.9 13.3
1/11/2023 4:45:00 PM 4.35 39.83 0.088 7.37 1.94 13.22
1/11/2023 5:00:00 PM 4.32 39.776 0.089 7.36 1.93 13.16
1/11/2023 5:15:00 PM 4.31 39.758 0.089 7.34 1.93 13.11
1/11/2023 5:30:00 PM 4.28 39.704 0.089 7.31 1.93 13.08
1/11/2023 5:45:00 PM 4.23 39.614 0.089 7.29 1.97 13.06
1/11/2023 6:00:00 PM 4.18 39.524 0.089 7.28 1.95 13.04
1/11/2023 6:15:00 PM 4.13 39.434 0.089 7.28 1.98 13.04
1/11/2023 6:30:00 PM 4.09 39.362 0.089 7.24 1.99 13.04
1/11/2023 6:45:00 PM 4.05 39.29 0.089 7.26 2.03 13.03
1/11/2023 7:00:00 PM 4.01 39.218 0.089 7.25 2.04 13.04
1/11/2023 7:15:00 PM 3.99 39.182 0.089 7.24 1.96 13.03
1/11/2023 7:30:00 PM 3.97 39.146 0.089 7.26 1.97 13.04
1/11/2023 7:45:00 PM 3.94 39.092 0.089 7.25 2.14 13.06
1/11/2023 8:00:00 PM 3.92 39.056 0.089 7.23 2 13.07
1/11/2023 8:15:00 PM 3.91 39.038 0.089 7.25 2 13.08
1/11/2023 8:30:00 PM 3.89 39.002 0.089 7.24 1.96 13.09
1/11/2023 8:45:00 PM 3.86 38.948 0.089 7.25 1.96 13.1
1/11/2023 9:00:00 PM 3.83 38.894 0.09 7.22 1.97 13.11
1/11/2023 9:15:00 PM 3.81 38.858 0.09 7.24 1.99 13.13
1/11/2023 9:30:00 PM 3.8 38.84 0.09 7.25 1.96 13.13
1/11/2023 9:45:00 PM 3.77 38.786 0.09 7.25 2.03 13.14
1/11/2023 10:00:00 PM 3.74 38.732 0.09 7.23 2.06 13.15
1/11/2023 10:15:00 PM 3.72 38.696 0.09 7.25 2.08 13.15
1/11/2023 10:30:00 PM 3.7 38.66 0.09 7.25 2.3 13.16
1/11/2023 10:45:00 PM 3.69 38.642 0.09 7.25 2.11 13.16
1/11/2023 11:00:00 PM 3.67 38.606 0.09 7.22 2.06 13.17
1/11/2023 11:15:00 PM 3.67 38.606 0.09 7.21 2.03 13.17
1/11/2023 11:30:00 PM 3.67 38.606 0.09 7.25 2.01 13.18
1/11/2023 11:45:00 PM 3.66 38.588 0.09 7.25 2.04 13.17
1/12/2023 12:00:00 AM 3.67 38.606 0.09 7.26 1.99 13.18
1/12/2023 12:15:00 AM 3.67 38.606 0.09 7.25 1.97 13.17
1/12/2023 12:30:00 AM 3.67 38.606 0.09 7.24 1.96 13.17
1/12/2023 12:45:00 AM 3.66 38.588 0.09 7.25 1.96 13.17
1/12/2023 1:00:00 AM 3.66 38.588 0.09 7.22 1.98 13.17
1/12/2023 1:15:00 AM 3.66 38.588 0.09 7.24 1.98 13.17
1/12/2023 1:30:00 AM 3.66 38.588 0.09 7.26 1.95 13.18
1/12/2023 1:45:00 AM 3.65 38.57 0.09 7.25 1.99 13.17
1/12/2023 2:00:00 AM 3.65 38.57 0.09 7.25 1.94 13.17
1/12/2023 2:15:00 AM 3.65 38.57 0.09 7.26 1.94 13.17
1/12/2023 2:30:00 AM 3.65 38.57 0.09 7.2 1.92 13.17
1/12/2023 2:45:00 AM 3.65 38.57 0.09 7.25 1.9 13.18
1/12/2023 3:00:00 AM 3.64 38.552 0.09 7.25 1.89 13.17
1/12/2023 3:15:00 AM 3.63 38.534 0.09 7.26 1.98 13.18
1/12/2023 3:30:00 AM 3.62 38.516 0.09 7.25 1.89 13.18
1/12/2023 3:45:00 AM 3.57 38.426 0.09 7.24 1.86 13.18
1/12/2023 4:00:00 AM 3.55 38.39 0.09 7.25 1.91 13.18
1/12/2023 4:15:00 AM 3.54 38.372 0.09 7.25 1.95 13.18
1/12/2023 4:30:00 AM 3.53 38.354 0.09 7.18 1.98 13.19
1/12/2023 4:45:00 AM 3.53 38.354 0.09 7.22 1.9 13.19
1/12/2023 5:00:00 AM 3.52 38.336 0.09 7.22 1.9 13.19
1/12/2023 5:15:00 AM 3.53 38.354 0.09 7.25 1.93 13.2
1/12/2023 5:30:00 AM 3.53 38.354 0.09 7.26 1.98 13.2
1/12/2023 5:45:00 AM 3.53 38.354 0.09 7.25 1.99 13.2
1/12/2023 6:00:00 AM 3.53 38.354 0.09 7.21 1.92 13.2
1/12/2023 6:15:00 AM 3.52 38.336 0.09 7.25 1.91 13.21
1/12/2023 6:30:00 AM 3.52 38.336 0.09 7.25 1.9 13.21
1/12/2023 6:45:00 AM 3.52 38.336 0.09 7.26 1.86 13.21
1/12/2023 7:00:00 AM 3.52 38.336 0.09 7.25 1.91 13.2
1/12/2023 7:15:00 AM 3.52 38.336 0.09 7.2 1.83 13.2
1/12/2023 7:30:00 AM 3.52 38.336 0.09 7.24 1.88 13.21
1/12/2023 7:45:00 AM 3.52 38.336 0.09 7.26 1.87 13.21
1/12/2023 8:00:00 AM 3.52 38.336 0.09 7.25 1.84 13.22
1/12/2023 8:15:00 AM 3.52 38.336 0.09 7.26 1.8 13.24
1/12/2023 8:30:00 AM 3.53 38.354 0.09 7.27 1.84 13.27
1/12/2023 8:45:00 AM 3.54 38.372 0.09 7.27 1.84 13.29
1/12/2023 9:00:00 AM 3.54 38.372 0.09 7.28 1.81 13.32
1/12/2023 9:15:00 AM 3.55 38.39 0.09 7.3 1.8 13.37
1/12/2023 9:30:00 AM 3.57 38.426 0.09 7.26 1.83 13.42
1/12/2023 9:45:00 AM 3.58 38.444 0.09 7.29 1.81 13.46
1/12/2023 10:00:00 AM 3.59 38.462 0.09 7.33 1.78 13.48
1/12/2023 10:15:00 AM 3.61 38.498 0.09 7.33 1.8 13.51
1/12/2023 10:30:00 AM 3.63 38.534 0.09 7.36 1.74 13.55
1/12/2023 10:45:00 AM 3.65 38.57 0.09 7.36 1.74 13.57
1/12/2023 11:00:00 AM 3.68 38.624 0.09 7.37 1.74 13.59
1/12/2023 11:15:00 AM 3.7 38.66 0.09 7.38 1.8 13.59
1/12/2023 11:30:00 AM 3.72 38.696 0.09 7.39 1.75 13.59
1/12/2023 11:45:00 AM 3.75 38.75 0.09 7.41 1.72 13.59
1/12/2023 12:00:00 PM 3.78 38.804 0.09 7.41 1.69 13.58
1/12/2023 12:15:00 PM 3.8 38.84 0.09 7.36 1.71 13.56
1/12/2023 12:30:00 PM 3.83 38.894 0.09 7.42 1.7 13.56
1/12/2023 12:45:00 PM 3.86 38.948 0.09 7.42 1.72 13.54
1/12/2023 1:00:00 PM 3.88 38.984 0.09 7.43 1.68 13.54
1/12/2023 1:15:00 PM 3.91 39.038 0.09 7.39 1.67 13.52
1/12/2023 1:30:00 PM 3.93 39.074 0.09 7.43 1.67 13.47
1/12/2023 1:45:00 PM 3.95 39.11 0.09 7.42 1.7 13.44
1/12/2023 2:00:00 PM 3.98 39.164 0.09 7.42 1.72 13.41
1/12/2023 2:15:00 PM 3.99 39.182 0.09 7.38 1.73 13.36
1/12/2023 2:30:00 PM 4.02 39.236 0.09 7.4 1.7 13.31
1/12/2023 2:45:00 PM 4.03 39.254 0.09 7.39 1.73 13.25
1/12/2023 3:00:00 PM 4.05 39.29 0.09 7.37 1.7 13.21
1/12/2023 3:15:00 PM 4.06 39.308 0.09 7.37 1.79 13.17
1/12/2023 3:30:00 PM 4.08 39.344 0.089 7.36 1.83 13.16
1/12/2023 3:45:00 PM 4.1 39.38 0.089 7.35 1.92 13.15
1/12/2023 4:00:00 PM 4.12 39.416 0.089 7.35 1.9 13.13
1/12/2023 4:15:00 PM 4.13 39.434 0.089 7.35 1.96 13.09
1/12/2023 4:30:00 PM 4.14 39.452 0.089 7.34 1.99 13.04
1/12/2023 4:45:00 PM 4.16 39.488 0.089 7.26 2.08 13
1/12/2023 5:00:00 PM 4.18 39.524 0.089 7.27 2.27 12.96
1/12/2023 5:15:00 PM 4.19 39.542 0.089 7.25 2.5 12.93
1/12/2023 5:30:00 PM 4.2 39.56 0.089 7.3 2.62 12.92
1/12/2023 5:45:00 PM 4.22 39.596 0.089 7.3 2.82 12.89
1/12/2023 6:00:00 PM 4.24 39.632 0.089 7.29 2.76 12.88
1/12/2023 6:15:00 PM 4.26 39.668 0.089 7.23 2.9 12.87
1/12/2023 6:30:00 PM 4.28 39.704 0.089 7.27 2.84 12.85
1/12/2023 6:45:00 PM 4.3 39.74 0.089 7.29 2.79 12.84
1/12/2023 7:00:00 PM 4.32 39.776 0.089 7.28 2.67 12.83
1/12/2023 7:15:00 PM 4.34 39.812 0.089 7.26 2.69 12.82
1/12/2023 7:30:00 PM 4.36 39.848 0.089 7.28 2.67 12.81
1/12/2023 7:45:00 PM 4.38 39.884 0.089 7.27 2.71 12.79
1/12/2023 8:00:00 PM 4.41 39.938 0.089 7.22 2.83 12.79
1/12/2023 8:15:00 PM 4.43 39.974 0.089 7.28 2.97 12.78
1/12/2023 8:30:00 PM 4.45 40.01 0.089 7.27 3.17 12.77
1/12/2023 8:45:00 PM 4.47 40.046 0.089 7.27 3.13 12.76
1/12/2023 9:00:00 PM 4.49 40.082 0.089 7.28 3.27 12.75
1/12/2023 9:15:00 PM 4.52 40.136 0.089 7.29 3.64 12.73
1/12/2023 9:30:00 PM 4.54 40.172 0.09 7.28 3.61 12.73
1/12/2023 9:45:00 PM 4.56 40.208 0.09 7.28 3.83 12.71
1/12/2023 10:00:00 PM 4.57 40.226 0.091 7.28 3.91 12.7
1/12/2023 10:15:00 PM 4.59 40.262 0.091 7.29 3.9 12.7
1/12/2023 10:30:00 PM 4.61 40.298 0.092 7.28 4.03 12.69
1/12/2023 10:45:00 PM 4.62 40.316 0.092 7.28 4.18 12.68
1/12/2023 11:00:00 PM 4.64 40.352 0.093 7.29 4.45 12.68
1/12/2023 11:15:00 PM 4.66 40.388 0.094 7.23 4.71 12.67
1/12/2023 11:30:00 PM 4.67 40.406 0.094 7.29 4.83 12.66
1/12/2023 11:45:00 PM 4.69 40.442 0.095 7.3 4.74 12.66
1/13/2023 12:00:00 AM 4.69 40.442 0.095 7.29 4.54 12.65
1/13/2023 12:15:00 AM 4.7 40.46 0.096 7.29 4.47 12.65
1/13/2023 12:30:00 AM 4.71 40.478 0.096 7.28 4.67 12.64
1/13/2023 12:45:00 AM 4.73 40.514 0.097 7.28 4.88 12.64
1/13/2023 1:00:00 AM 4.74 40.532 0.098 7.24 5.01 12.63
1/13/2023 1:15:00 AM 4.75 40.55 0.098 7.29 4.97 12.62
1/13/2023 1:30:00 AM 4.76 40.568 0.099 7.3 5.11 12.61
1/13/2023 1:45:00 AM 4.77 40.586 0.1 7.24 5.21 12.61
1/13/2023 2:00:00 AM 4.77 40.586 0.101 7.28 5.68 12.61
1/13/2023 2:15:00 AM 4.78 40.604 0.101 7.28 6.04 12.6
1/13/2023 2:30:00 AM 4.79 40.622 0.102 7.28 6.27 12.6
1/13/2023 2:45:00 AM 4.8 40.64 0.103 7.3 6.85 12.6
1/13/2023 3:00:00 AM 4.81 40.658 0.104 7.24 7.58 12.58
1/13/2023 3:15:00 AM 4.82 40.676 0.104 7.3 8.16 12.57
1/13/2023 3:30:00 AM 4.82 40.676 0.105 7.29 8.32 12.57
1/13/2023 3:45:00 AM 4.83 40.694 0.105 7.29 8.6 12.56
1/13/2023 4:00:00 AM 4.84 40.712 0.105 7.27 8.67 12.56
1/13/2023 4:15:00 AM 4.85 40.73 0.105 7.3 8.61 12.56
1/13/2023 4:30:00 AM 4.86 40.748 0.105 7.29 8.37 12.55
1/13/2023 4:45:00 AM 4.87 40.766 0.105 7.29 8.44 12.54
1/13/2023 5:00:00 AM 4.88 40.784 0.105 7.27 7.94 12.55
1/13/2023 5:15:00 AM 4.88 40.784 0.106 7.29 7.82 12.54
1/13/2023 5:30:00 AM 4.89 40.802 0.106 7.22 7.74 12.55
1/13/2023 5:45:00 AM 4.91 40.838 0.107 7.28 7.47 12.55
1/13/2023 6:00:00 AM 4.91 40.838 0.107 7.26 7.41 12.55
1/13/2023 6:15:00 AM 4.91 40.838 0.108 7.3 7.39 12.54
1/13/2023 6:30:00 AM 4.91 40.838 0.108 7.29 7.25 12.55
1/13/2023 6:45:00 AM 4.9 40.82 0.108 7.3 7.28 12.56
1/13/2023 7:00:00 AM 4.88 40.784 0.109 7.3 7.4 12.57
1/13/2023 7:15:00 AM 4.87 40.766 0.109 7.27 7.58 12.58
1/13/2023 7:30:00 AM 4.85 40.73 0.109 7.3 7.53 12.6
1/13/2023 7:45:00 AM 4.82 40.676 0.11 7.31 8.03 12.61
1/13/2023 8:00:00 AM 4.8 40.64 0.11 7.31 8.82 12.63
1/13/2023 8:15:00 AM 4.79 40.622 0.111 7.31 8.96 12.65
1/13/2023 8:30:00 AM 4.77 40.586 0.111 7.3 9.24 12.67
1/13/2023 8:45:00 AM 4.75 40.55 0.112 7.31 9.46 12.71
1/13/2023 9:00:00 AM 4.73 40.514 0.112 7.32 9.54 12.74
1/13/2023 9:15:00 AM 4.71 40.478 0.112 7.28 9.54 12.79
1/13/2023 9:30:00 AM 4.71 40.478 0.112 7.34 9.69 12.87
1/13/2023 9:45:00 AM 4.71 40.478 0.112 7.37 9.05 12.92
1/13/2023 10:00:00 AM 4.7 40.46 0.113 7.38 9.47 12.96
1/13/2023 10:15:00 AM 4.7 40.46 0.113 7.39 9.28 12.99
1/13/2023 10:30:00 AM 4.68 40.424 0.113 7.41 9.27 13.01
1/13/2023 10:45:00 AM 4.69 40.442 0.113 7.42 8.95 13.04
1/13/2023 11:00:00 AM 4.68 40.424 0.114 7.44 8.7 13.07
1/13/2023 11:15:00 AM 4.7 40.46 0.114 7.46 8.77 13.1
1/13/2023 11:30:00 AM 4.72 40.496 0.114 7.46 8.6 13.13
1/13/2023 11:45:00 AM 4.73 40.514 0.115 7.48 8.65 13.14
1/13/2023 12:00:00 PM 4.7 40.46 0.115 7.46 8.48 13.11
1/13/2023 12:15:00 PM 4.68 40.424 0.115 7.46 8.57 13.08
1/13/2023 12:30:00 PM 4.65 40.37 0.115 7.42 8.52 13.07
1/13/2023 12:45:00 PM 4.62 40.316 0.115 7.44 8.11 13.05
1/13/2023 1:00:00 PM 4.61 40.298 0.115 7.45 7.89 13.06
1/13/2023 1:15:00 PM 4.57 40.226 0.115 7.46 7.75 13.06
1/13/2023 1:30:00 PM 4.55 40.19 0.114 7.43 7.66 13.06
1/13/2023 1:45:00 PM 4.52 40.136 0.114 7.45 7.38 13.08
1/13/2023 2:00:00 PM 4.5 40.1 0.114 7.43 7.35 13.1
1/13/2023 2:15:00 PM 4.49 40.082 0.114 7.46 6.6 13.12
1/13/2023 2:30:00 PM 4.46 40.028 0.114 7.38 6.57 13.12
1/13/2023 2:45:00 PM 4.43 39.974 0.114 7.44 6.03 13.09
1/13/2023 3:00:00 PM 4.4 39.92 0.114 7.42 5.84 13.06
1/13/2023 3:15:00 PM 4.37 39.866 0.113 7.41 5.52 13.05
1/13/2023 3:30:00 PM 4.33 39.794 0.113 7.34 5.54 13.05
1/13/2023 3:45:00 PM 4.31 39.758 0.113 7.36 5.28 13.06
1/13/2023 4:00:00 PM 4.28 39.704 0.113 7.39 5.19 13.05
1/13/2023 4:15:00 PM 4.25 39.65 0.112 7.38 4.99 13.03
1/13/2023 4:30:00 PM 4.21 39.578 0.112 7.37 4.85 13.02
1/13/2023 4:45:00 PM 4.17 39.506 0.112 7.35 4.7 13
1/13/2023 5:00:00 PM 4.13 39.434 0.112 7.35 4.61 12.99
1/13/2023 5:15:00 PM 4.09 39.362 0.111 7.33 4.62 12.97
1/13/2023 5:30:00 PM 4.05 39.29 0.111 7.29 4.44 12.96
1/13/2023 5:45:00 PM 4.01 39.218 0.111 7.32 4.45 12.97
1/13/2023 6:00:00 PM 3.97 39.146 0.11 7.32 4.41 12.97
1/13/2023 6:15:00 PM 3.93 39.074 0.11 7.32 4.41 12.98
1/13/2023 6:30:00 PM 3.89 39.002 0.11 7.25 4.34 13
1/13/2023 6:45:00 PM 3.84 38.912 0.11 7.27 4.42 13.02
1/13/2023 7:00:00 PM 3.8 38.84 0.11 7.3 4.5 13.04
1/13/2023 7:15:00 PM 3.76 38.768 0.109 7.25 4.42 13.05
1/13/2023 7:30:00 PM 3.72 38.696 0.109 7.29 4.32 13.07
1/13/2023 7:45:00 PM 3.67 38.606 0.109 7.3 4.16 13.09
1/13/2023 8:00:00 PM 3.63 38.534 0.109 7.29 4.34 13.1
1/13/2023 8:15:00 PM 3.58 38.444 0.109 7.24 4.2 13.12
1/13/2023 8:30:00 PM 3.52 38.336 0.109 7.27 4.04 13.14
1/13/2023 8:45:00 PM 3.47 38.246 0.109 7.28 3.92 13.14
1/13/2023 9:00:00 PM 3.44 38.192 0.108 7.29 3.85 13.16
1/13/2023 9:15:00 PM 3.39 38.102 0.108 7.25 3.87 13.17
1/13/2023 9:30:00 PM 3.36 38.048 0.108 7.29 3.78 13.19
1/13/2023 9:45:00 PM 3.32 37.976 0.108 7.28 3.64 13.2
1/13/2023 10:00:00 PM 3.29 37.922 0.108 7.28 3.74 13.21
1/13/2023 10:15:00 PM 3.25 37.85 0.108 7.25 3.45 13.24
1/13/2023 10:30:00 PM 3.2 37.76 0.108 7.25 3.4 13.26
1/13/2023 10:45:00 PM 3.17 37.706 0.108 7.27 3.43 13.27
1/13/2023 11:00:00 PM 3.13 37.634 0.107 7.28 3.37 13.29
1/13/2023 11:15:00 PM 3.11 37.598 0.107 7.28 3.23 13.3
1/13/2023 11:30:00 PM 3.08 37.544 0.107 7.29 3.31 13.31
1/13/2023 11:45:00 PM 3.04 37.472 0.107 7.28 3.1 13.32
1/14/2023 12:00:00 AM 3.02 37.436 0.107 7.24 3.16 13.33
1/14/2023 12:15:00 AM 2.98 37.364 0.107 7.25 3.09 13.34
1/14/2023 12:30:00 AM 2.95 37.31 0.107 7.28 3.12 13.35
1/14/2023 12:45:00 AM 2.92 37.256 0.107 7.28 3.14 13.37
1/14/2023 1:00:00 AM 2.9 37.22 0.106 7.28 3.02 13.36
1/14/2023 1:15:00 AM 2.87 37.166 0.106 7.25 2.95 13.38
1/14/2023 1:30:00 AM 2.83 37.094 0.106 7.27 2.92 13.38
1/14/2023 1:45:00 AM 2.8 37.04 0.106 7.28 2.93 13.39
1/14/2023 2:00:00 AM 2.77 36.986 0.106 7.27 2.86 13.4
1/14/2023 2:15:00 AM 2.74 36.932 0.106 7.27 2.88 13.41
1/14/2023 2:30:00 AM 2.71 36.878 0.106 7.26 2.76 13.43
1/14/2023 2:45:00 AM 2.67 36.806 0.105 7.28 2.83 13.44
1/14/2023 3:00:00 AM 2.63 36.734 0.105 7.27 2.86 13.46
1/14/2023 3:15:00 AM 2.61 36.698 0.105 7.23 2.86 13.48
1/14/2023 3:30:00 AM 2.57 36.626 0.105 7.27 2.8 13.5
1/14/2023 3:45:00 AM 2.53 36.554 0.105 7.21 2.73 13.51
1/14/2023 4:00:00 AM 2.5 36.5 0.105 7.27 2.68 13.53
1/14/2023 4:15:00 AM 2.47 36.446 0.105 7.27 2.78 13.54
1/14/2023 4:30:00 AM 2.44 36.392 0.104 7.27 2.68 13.55
1/14/2023 4:45:00 AM 2.43 36.374 0.104 7.26 2.69 13.56
1/14/2023 5:00:00 AM 2.4 36.32 0.104 7.26 2.69 13.57
1/14/2023 5:15:00 AM 2.37 36.266 0.104 7.27 2.58 13.58
1/14/2023 5:30:00 AM 2.35 36.23 0.104 7.26 2.61 13.59
1/14/2023 5:45:00 AM 2.32 36.176 0.104 7.26 2.58 13.6
1/14/2023 6:00:00 AM 2.29 36.122 0.104 7.27 2.62 13.61
1/14/2023 6:15:00 AM 2.28 36.104 0.104 7.28 2.53 13.61
1/14/2023 6:30:00 AM 2.24 36.032 0.104 7.26 2.53 13.63
1/14/2023 6:45:00 AM 2.22 35.996 0.103 7.27 2.7 13.63
1/14/2023 7:00:00 AM 2.2 35.96 0.103 7.26 2.44 13.63
1/14/2023 7:15:00 AM 2.18 35.924 0.103 7.28 2.48 13.64
1/14/2023 7:30:00 AM 2.16 35.888 0.103 7.26 2.46 13.65
1/14/2023 7:45:00 AM 2.13 35.834 0.103 7.27 2.54 13.67
1/14/2023 8:00:00 AM 2.1 35.78 0.103 7.24 2.47 13.7
1/14/2023 8:15:00 AM 2.08 35.744 0.103 7.27 2.39 13.74
1/14/2023 8:30:00 AM 2.05 35.69 0.103 7.28 2.47 13.79
1/14/2023 8:45:00 AM 2.03 35.654 0.102 7.29 2.36 13.82
1/14/2023 9:00:00 AM 2.01 35.618 0.102 7.26 2.28 13.88
1/14/2023 9:15:00 AM 1.99 35.582 0.102 7.3 2.32 13.92
1/14/2023 9:30:00 AM 1.98 35.564 0.102 7.31 2.36 13.97
1/14/2023 9:45:00 AM 1.97 35.546 0.102 7.32 2.29 14.01
1/14/2023 10:00:00 AM 1.96 35.528 0.102 7.32 2.2 14.06
1/14/2023 10:15:00 AM 1.96 35.528 0.102 7.35 2.24 14.08
1/14/2023 10:30:00 AM 1.96 35.528 0.101 7.36 2.29 14.13
1/14/2023 10:45:00 AM 1.96 35.528 0.101 7.37 2.26 14.17
1/14/2023 11:00:00 AM 1.94 35.492 0.101 7.35 2.26 14.19
1/14/2023 11:15:00 AM 1.95 35.51 0.101 7.39 2.21 14.22
1/14/2023 11:30:00 AM 1.95 35.51 0.101 7.4 2.21 14.24
1/14/2023 11:45:00 AM 1.95 35.51 0.1 7.41 2.29 14.26
1/14/2023 12:00:00 PM 1.96 35.528 0.1 7.41 2.16 14.28
1/14/2023 12:15:00 PM 1.98 35.564 0.1 7.36 2.13 14.28
1/14/2023 12:30:00 PM 2 35.6 0.1 7.44 2.1 14.29
1/14/2023 12:45:00 PM 2.03 35.654 0.1 7.41 2.07 14.29
1/14/2023 1:00:00 PM 2.06 35.708 0.099 7.44 2.06 14.28
1/14/2023 1:15:00 PM 2.08 35.744 0.099 7.46 2.02 14.27
1/14/2023 1:30:00 PM 2.11 35.798 0.099 7.44 2.03 14.26
1/14/2023 1:45:00 PM 2.14 35.852 0.099 7.46 2.06 14.26
1/14/2023 2:00:00 PM 2.18 35.924 0.099 7.46 2.01 14.26
1/14/2023 2:15:00 PM 2.21 35.978 0.099 7.46 2.04 14.25
1/14/2023 2:30:00 PM 2.22 35.996 0.098 7.46 1.98 14.25
1/14/2023 2:45:00 PM 2.22 35.996 0.098 7.47 2.01 14.23
1/14/2023 3:00:00 PM 2.21 35.978 0.098 7.46 2.02 14.22
1/14/2023 3:15:00 PM 2.19 35.942 0.098 7.38 1.98 14.19
1/14/2023 3:30:00 PM 2.16 35.888 0.098 7.42 1.97 14.17
1/14/2023 3:45:00 PM 2.13 35.834 0.098 7.4 1.99 14.16
1/14/2023 4:00:00 PM 2.09 35.762 0.098 7.4 2.04 14.14
1/14/2023 4:15:00 PM 2.04 35.672 0.098 7.39 2 14.15
1/14/2023 4:30:00 PM 2 35.6 0.098 7.35 1.96 14.14
1/14/2023 4:45:00 PM 1.95 35.51 0.098 7.38 2.01 14.1
1/14/2023 5:00:00 PM 1.92 35.456 0.098 7.35 2.01 14.06
1/14/2023 5:15:00 PM 1.87 35.366 0.098 7.33 2.04 14.02
1/14/2023 5:30:00 PM 1.83 35.294 0.098 7.3 2.05 13.98
1/14/2023 5:45:00 PM 1.79 35.222 0.098 7.29 2.04 13.95
1/14/2023 6:00:00 PM 1.77 35.186 0.098 7.3 2.03 13.94
1/14/2023 6:15:00 PM 1.73 35.114 0.098 7.23 2 13.94
1/14/2023 6:30:00 PM 1.7 35.06 0.098 7.29 2.22 13.95
1/14/2023 6:45:00 PM 1.66 34.988 0.098 7.27 2.09 13.94
1/14/2023 7:00:00 PM 1.63 34.934 0.098 7.27 2.03 13.95
1/14/2023 7:15:00 PM 1.6 34.88 0.098 7.28 2.03 13.95
1/14/2023 7:30:00 PM 1.58 34.844 0.097 7.21 2.07 13.96
1/14/2023 7:45:00 PM 1.56 34.808 0.097 7.23 2.08 13.96
1/14/2023 8:00:00 PM 1.54 34.772 0.097 7.27 2.08 13.97
1/14/2023 8:15:00 PM 1.51 34.718 0.097 7.27 2.05 13.98
1/14/2023 8:30:00 PM 1.48 34.664 0.097 7.26 2.07 14
1/14/2023 8:45:00 PM 1.46 34.628 0.097 7.2 2.04 14
1/14/2023 9:00:00 PM 1.44 34.592 0.097 7.26 2.07 14.02
1/14/2023 9:15:00 PM 1.42 34.556 0.097 7.25 1.98 14.03
1/14/2023 9:30:00 PM 1.4 34.52 0.097 7.21 2 14.04
1/14/2023 9:45:00 PM 1.38 34.484 0.097 7.26 2.02 14.05
1/14/2023 10:00:00 PM 1.37 34.466 0.097 7.26 2.06 14.07
1/14/2023 10:15:00 PM 1.35 34.43 0.097 7.21 2.05 14.07
1/14/2023 10:30:00 PM 1.33 34.394 0.097 7.2 2.12 14.08
1/14/2023 10:45:00 PM 1.31 34.358 0.097 7.25 2.12 14.09
1/14/2023 11:00:00 PM 1.28 34.304 0.097 7.25 2.06 14.09
1/14/2023 11:15:00 PM 1.27 34.286 0.097 7.25 2.06 14.1
1/14/2023 11:30:00 PM 1.26 34.268 0.097 7.26 2.08 14.1
1/14/2023 11:45:00 PM 1.25 34.25 0.097 7.17 2.11 14.1
1/15/2023 12:00:00 AM 1.24 34.232 0.096 7.25 2.04 14.1
1/15/2023 12:15:00 AM 1.23 34.214 0.096 7.24 2.08 14.11
1/15/2023 12:30:00 AM 1.24 34.232 0.096 7.24 2.02 14.11
1/15/2023 12:45:00 AM 1.25 34.25 0.096 7.24 2.04 14.11
1/15/2023 1:00:00 AM 1.25 34.25 0.096 7.26 2.02 14.11
1/15/2023 1:15:00 AM 1.24 34.232 0.096 7.25 2.02 14.12
1/15/2023 1:30:00 AM 1.23 34.214 0.096 7.25 1.96 14.13
1/15/2023 1:45:00 AM 1.24 34.232 0.096 7.26 2.2 14.13
1/15/2023 2:00:00 AM 1.25 34.25 0.096 7.21 2.64 14.13
1/15/2023 2:15:00 AM 1.24 34.232 0.096 7.21 2.19 14.14
1/15/2023 2:30:00 AM 1.23 34.214 0.096 7.22 2.03 14.14
1/15/2023 2:45:00 AM 1.22 34.196 0.096 7.21 2.1 14.15
1/15/2023 3:00:00 AM 1.22 34.196 0.096 7.24 2.02 14.15
1/15/2023 3:15:00 AM 1.21 34.178 0.096 7.24 2.09 14.16
1/15/2023 3:30:00 AM 1.2 34.16 0.096 7.2 2.08 14.16
1/15/2023 3:45:00 AM 1.17 34.106 0.095 7.23 2.09 14.17
1/15/2023 4:00:00 AM 1.17 34.106 0.095 7.21 2.06 14.17
1/15/2023 4:15:00 AM 1.16 34.088 0.095 7.25 2.01 14.18
1/15/2023 4:30:00 AM 1.15 34.07 0.095 7.25 2.02 14.18
1/15/2023 4:45:00 AM 1.15 34.07 0.095 7.25 2.02 14.19
1/15/2023 5:00:00 AM 1.15 34.07 0.095 7.24 2.03 14.18
1/15/2023 5:15:00 AM 1.15 34.07 0.095 7.25 1.94 14.18
1/15/2023 5:30:00 AM 1.15 34.07 0.095 7.24 1.94 14.18
1/15/2023 5:45:00 AM 1.16 34.088 0.095 7.23 1.99 14.19
1/15/2023 6:00:00 AM 1.15 34.07 0.095 7.24 1.97 14.19
1/15/2023 6:15:00 AM 1.15 34.07 0.095 7.24 1.97 14.18
1/15/2023 6:30:00 AM 1.15 34.07 0.095 7.26 1.99 14.19
1/15/2023 6:45:00 AM 1.15 34.07 0.095 7.23 1.99 14.18
1/15/2023 7:00:00 AM 1.15 34.07 0.095 7.24 2.04 14.19
1/15/2023 7:15:00 AM 1.14 34.052 0.094 7.24 1.98 14.19
1/15/2023 7:30:00 AM 1.14 34.052 0.094 7.23 1.93 14.2
1/15/2023 7:45:00 AM 1.14 34.052 0.094 7.25 1.95 14.22
1/15/2023 8:00:00 AM 1.14 34.052 0.094 7.26 1.89 14.27
1/15/2023 8:15:00 AM 1.14 34.052 0.094 7.21 1.92 14.32
1/15/2023 8:30:00 AM 1.15 34.07 0.094 7.25 1.95 14.38
1/15/2023 8:45:00 AM 1.18 34.124 0.094 7.3 1.96 14.46
1/15/2023 9:00:00 AM 1.19 34.142 0.094 7.32 1.94 14.51
1/15/2023 9:15:00 AM 1.21 34.178 0.094 7.34 1.88 14.55
1/15/2023 9:30:00 AM 1.21 34.178 0.093 7.27 1.94 14.56
1/15/2023 9:45:00 AM 1.21 34.178 0.093 7.35 1.86 14.57
1/15/2023 10:00:00 AM 1.25 34.25 0.093 7.29 1.85 14.58
1/15/2023 10:15:00 AM 1.28 34.304 0.093 7.37 1.89 14.58
1/15/2023 10:30:00 AM 1.34 34.412 0.093 7.37 1.88 14.57
1/15/2023 10:45:00 AM 1.35 34.43 0.093 7.35 1.86 14.59
1/15/2023 11:00:00 AM 1.41 34.538 0.093 7.38 1.87 14.57
1/15/2023 11:15:00 AM 1.44 34.592 0.093 7.34 1.9 14.57
1/15/2023 11:30:00 AM 1.48 34.664 0.093 7.38 1.84 14.56
1/15/2023 11:45:00 AM 1.54 34.772 0.092 7.38 1.78 14.55
1/15/2023 12:00:00 PM 1.64 34.952 0.092 7.4 1.78 14.54
1/15/2023 12:15:00 PM 1.73 35.114 0.092 7.41 1.85 14.51
1/15/2023 12:30:00 PM 1.79 35.222 0.092 7.34 1.93 14.48
1/15/2023 12:45:00 PM 1.86 35.348 0.092 7.41 1.81 14.46
1/15/2023 1:00:00 PM 1.92 35.456 0.092 7.4 1.78 14.44
1/15/2023 1:15:00 PM 2 35.6 0.092 7.38 1.82 14.4
1/15/2023 1:30:00 PM 2.09 35.762 0.092 7.42 1.88 14.35
1/15/2023 1:45:00 PM 2.17 35.906 0.092 7.37 1.84 14.3
1/15/2023 2:00:00 PM 2.23 36.014 0.091 7.42 1.83 14.26
1/15/2023 2:15:00 PM 2.29 36.122 0.091 7.41 1.83 14.24
1/15/2023 2:30:00 PM 2.33 36.194 0.091 7.38 1.85 14.21
1/15/2023 2:45:00 PM 2.36 36.248 0.091 7.42 1.83 14.18
1/15/2023 3:00:00 PM 2.39 36.302 0.091 7.41 1.85 14.16
1/15/2023 3:15:00 PM 2.41 36.338 0.091 7.4 1.91 14.13
1/15/2023 3:30:00 PM 2.41 36.338 0.091 7.33 1.88 14.11
1/15/2023 3:45:00 PM 2.39 36.302 0.091 7.39 1.85 14.1
1/15/2023 4:00:00 PM 2.37 36.266 0.091 7.35 1.86 14.07
1/15/2023 4:15:00 PM 2.34 36.212 0.091 7.38 1.89 14.05
1/15/2023 4:30:00 PM 2.32 36.176 0.091 7.36 1.93 14.04
1/15/2023 4:45:00 PM 2.28 36.104 0.091 7.35 1.87 14
1/15/2023 5:00:00 PM 2.23 36.014 0.091 7.33 1.9 13.97
1/15/2023 5:15:00 PM 2.19 35.942 0.091 7.31 2.05 13.92
1/15/2023 5:30:00 PM 2.13 35.834 0.091 7.29 1.93 13.89
1/15/2023 5:45:00 PM 2.1 35.78 0.091 7.27 1.92 13.86
1/15/2023 6:00:00 PM 2.06 35.708 0.091 7.26 1.94 13.86
1/15/2023 6:15:00 PM 2.02 35.636 0.091 7.27 1.92 13.87
1/15/2023 6:30:00 PM 1.99 35.582 0.091 7.24 1.97 13.87
1/15/2023 6:45:00 PM 1.96 35.528 0.091 7.21 1.92 13.87
1/15/2023 7:00:00 PM 1.93 35.474 0.091 7.25 1.95 13.88
1/15/2023 7:15:00 PM 1.89 35.402 0.091 7.25 1.96 13.89
1/15/2023 7:30:00 PM 1.85 35.33 0.091 7.25 1.94 13.91
1/15/2023 7:45:00 PM 1.81 35.258 0.091 7.24 1.9 13.92
1/15/2023 8:00:00 PM 1.76 35.168 0.091 7.23 1.92 13.94
1/15/2023 8:15:00 PM 1.72 35.096 0.091 7.23 1.89 13.95
1/15/2023 8:30:00 PM 1.68 35.024 0.091 7.23 1.97 13.96
1/15/2023 8:45:00 PM 1.64 34.952 0.091 7.22 1.92 13.97
1/15/2023 9:00:00 PM 1.6 34.88 0.091 7.21 1.95 13.97
1/15/2023 9:15:00 PM 1.57 34.826 0.091 7.22 2.01 13.98
1/15/2023 9:30:00 PM 1.53 34.754 0.091 7.22 2.02 13.99
1/15/2023 9:45:00 PM 1.49 34.682 0.091 7.21 2.1 14.01
1/15/2023 10:00:00 PM 1.45 34.61 0.091 7.23 2.04 14.03
1/15/2023 10:15:00 PM 1.41 34.538 0.091 7.22 2.03 14.05
1/15/2023 10:30:00 PM 1.37 34.466 0.091 7.22 2.06 14.07
1/15/2023 10:45:00 PM 1.34 34.412 0.091 7.22 1.99 14.08
1/15/2023 11:00:00 PM 1.3 34.34 0.091 7.22 1.99 14.09
1/15/2023 11:15:00 PM 1.26 34.268 0.091 7.21 1.99 14.11
1/15/2023 11:30:00 PM 1.21 34.178 0.091 7.21 1.99 14.13
1/15/2023 11:45:00 PM 1.17 34.106 0.091 7.21 1.93 14.14
1/16/2023 12:00:00 AM 1.14 34.052 0.091 7.2 2.01 14.15
1/16/2023 12:15:00 AM 1.1 33.98 0.091 7.18 2.03 14.18
1/16/2023 12:30:00 AM 1.06 33.908 0.091 7.21 2.03 14.18
1/16/2023 12:45:00 AM 1.01 33.818 0.091 7.22 2.06 14.19
1/16/2023 1:00:00 AM 0.98 33.764 0.091 7.21 1.96 14.2
1/16/2023 1:15:00 AM 0.94 33.692 0.091 7.22 1.96 14.21
1/16/2023 1:30:00 AM 0.9 33.62 0.091 7.21 1.96 14.23
1/16/2023 1:45:00 AM 0.86 33.548 0.091 7.22 1.98 14.25
1/16/2023 2:00:00 AM 0.82 33.476 0.091 7.12 1.95 14.26
1/16/2023 2:15:00 AM 0.78 33.404 0.091 7.21 1.92 14.29
1/16/2023 2:30:00 AM 0.74 33.332 0.091 7.22 1.97 14.31
1/16/2023 2:45:00 AM 0.7 33.26 0.091 7.21 1.97 14.32
1/16/2023 3:00:00 AM 0.65 33.17 0.091 7.21 1.93 14.34
1/16/2023 3:15:00 AM 0.61 33.098 0.091 7.22 1.99 14.36
1/16/2023 3:30:00 AM 0.58 33.044 0.091 7.16 1.93 14.37
1/16/2023 3:45:00 AM 0.55 32.99 0.091 7.18 1.98 14.38
1/16/2023 4:00:00 AM 0.53 32.954 0.091 7.22 1.94 14.39
1/16/2023 4:15:00 AM 0.5 32.9 0.091 7.21 1.92 14.4
1/16/2023 4:30:00 AM 0.45 32.81 0.091 7.15 1.94 14.41
1/16/2023 4:45:00 AM 0.43 32.774 0.091 7.22 2.03 14.42
1/16/2023 5:00:00 AM 0.41 32.738 0.091 7.22 1.95 14.43
1/16/2023 5:15:00 AM 0.39 32.702 0.091 7.21 1.93 14.43
1/16/2023 5:30:00 AM 0.37 32.666 0.091 7.2 1.9 14.44
1/16/2023 5:45:00 AM 0.35 32.63 0.091 7.22 1.91 14.45
1/16/2023 6:00:00 AM 0.32 32.576 0.091 7.21 1.94 14.46
1/16/2023 6:15:00 AM 0.3 32.54 0.091 7.2 1.91 14.47
1/16/2023 6:30:00 AM 0.27 32.486 0.091 7.22 1.91 14.48
1/16/2023 6:45:00 AM 0.25 32.45 0.091 7.12 1.98 14.49
1/16/2023 7:00:00 AM 0.24 32.432 0.09 7.21 2.22 14.49
1/16/2023 7:15:00 AM 0.22 32.396 0.09 7.21 2.02 14.51
1/16/2023 7:30:00 AM 0.19 32.342 0.09 7.22 1.98 14.53
1/16/2023 7:45:00 AM 0.18 32.324 0.09 7.2 1.95 14.56
1/16/2023 8:00:00 AM 0.16 32.288 0.09 7.2 1.91 14.62
1/16/2023 8:15:00 AM 0.15 32.27 0.09 7.23 1.94 14.67
1/16/2023 8:30:00 AM 0.14 32.252 0.09 7.24 1.93 14.71
1/16/2023 8:45:00 AM 0.14 32.252 0.09 7.21 1.92 14.76
1/16/2023 9:00:00 AM 0.14